UAE248 SBGL-OMDB
Flight info
| Callsign | UAE248 |
|---|---|
| Flight time | 14h 16m |
| Altitude | 29000 |
| Route | ADA UL224 CIDER DCT 2600S03730W 27S035W 2730S03230W 28S030W 2830S02730W 29S025W 2900S02230W 29S020W/N0504F310 2900S01730W 29S015W 2900S01230W 29S010W 28S005W 27S000E 26S005E 24S010E/N0498F330 DCT NIBEK UN183 XALVI UT945 VEDRY UM439 VLS UL431 ODGAT/N0497F350 DCT ELAVA UL437 VEDET B400 RAPDO/N0493F370 B400 DAXAM Y414 DEDSO R401 VELIK/N0497F360 R401 MUSAP/N0500F350 R401 PEDOG Q308 KIPOK Q568 IMPED |
| Aircraft | B77W/H-SDE1E2E3FGHIJ2J3J4J5M1RWXY/LB1D1 |
Departure
| Time | 2026-05-04 18:54 |
|---|---|
| Airport | Rio Galeão – Tom Jobim International Airport (SBGL) |
Arrival
| Time | 2026-05-05 09:10 |
|---|---|
| Airport | Dubai International Airport (OMDB) |
| Time | Latitude | Longitude | Altitude | Speed | Heading |
|---|---|---|---|---|---|
| 2026-05-04 17:37 | -22.81843 | -43.24226 | 26 ft | 0 kts | 306° |
| 2026-05-04 18:38 | -22.81845 | -43.24223 | 26 ft | 3 kts | 306° |
| 2026-05-04 18:38 | -22.81861 | -43.24199 | 25 ft | 4 kts | 306° |
| 2026-05-04 18:38 | -22.81876 | -43.24178 | 24 ft | 4 kts | 301° |
| 2026-05-04 18:38 | -22.81882 | -43.24156 | 25 ft | 4 kts | 237° |
| 2026-05-04 18:39 | -22.81863 | -43.24140 | 26 ft | 4 kts | 215° |
| 2026-05-04 18:39 | -22.81851 | -43.24129 | 25 ft | 1 kts | 230° |
| 2026-05-04 18:39 | -22.81850 | -43.24128 | 24 ft | 0 kts | 230° |
| 2026-05-04 18:44 | -22.81852 | -43.24130 | 25 ft | 2 kts | 229° |
| 2026-05-04 18:44 | -22.81856 | -43.24135 | 25 ft | 4 kts | 227° |
| 2026-05-04 18:44 | -22.81890 | -43.24169 | 26 ft | 4 kts | 218° |
| 2026-05-04 18:44 | -22.81918 | -43.24191 | 31 ft | 5 kts | 216° |
| 2026-05-04 18:45 | -22.81949 | -43.24217 | 30 ft | 6 kts | 216° |
| 2026-05-04 18:45 | -22.81985 | -43.24245 | 30 ft | 7 kts | 216° |
| 2026-05-04 18:45 | -22.82025 | -43.24276 | 30 ft | 7 kts | 216° |
| 2026-05-04 18:45 | -22.82067 | -43.24312 | 29 ft | 8 kts | 227° |
| 2026-05-04 18:46 | -22.82073 | -43.24370 | 29 ft | 9 kts | 290° |
| 2026-05-04 18:46 | -22.82042 | -43.24428 | 29 ft | 9 kts | 304° |
| 2026-05-04 18:46 | -22.82004 | -43.24487 | 29 ft | 10 kts | 305° |
| 2026-05-04 18:46 | -22.81963 | -43.24549 | 29 ft | 10 kts | 306° |
| 2026-05-04 18:47 | -22.81938 | -43.24617 | 30 ft | 10 kts | 268° |
| 2026-05-04 18:47 | -22.81930 | -43.24694 | 27 ft | 11 kts | 295° |
| 2026-05-04 18:47 | -22.81885 | -43.24770 | 30 ft | 17 kts | 305° |
| 2026-05-04 18:47 | -22.81808 | -43.24886 | 30 ft | 19 kts | 306° |
| 2026-05-04 18:48 | -22.81730 | -43.25004 | 28 ft | 19 kts | 306° |
| 2026-05-04 18:48 | -22.81652 | -43.25121 | 30 ft | 19 kts | 306° |
| 2026-05-04 18:48 | -22.81574 | -43.25238 | 31 ft | 19 kts | 306° |
| 2026-05-04 18:48 | -22.81498 | -43.25355 | 28 ft | 19 kts | 305° |
| 2026-05-04 18:49 | -22.81420 | -43.25473 | 28 ft | 19 kts | 306° |
| 2026-05-04 18:49 | -22.81342 | -43.25590 | 29 ft | 19 kts | 306° |
| 2026-05-04 18:49 | -22.81264 | -43.25707 | 27 ft | 19 kts | 306° |
| 2026-05-04 18:49 | -22.81206 | -43.25794 | 29 ft | 10 kts | 305° |
| 2026-05-04 18:50 | -22.81200 | -43.25864 | 30 ft | 10 kts | 239° |
| 2026-05-04 18:50 | -22.81243 | -43.25924 | 29 ft | 10 kts | 239° |
| 2026-05-04 18:50 | -22.81278 | -43.25989 | 29 ft | 10 kts | 244° |
| 2026-05-04 18:50 | -22.81262 | -43.26060 | 32 ft | 10 kts | 303° |
| 2026-05-04 18:51 | -22.81224 | -43.26123 | 32 ft | 10 kts | 304° |
| 2026-05-04 18:51 | -22.81183 | -43.26186 | 33 ft | 10 kts | 306° |
| 2026-05-04 18:51 | -22.81143 | -43.26247 | 34 ft | 10 kts | 305° |
| 2026-05-04 18:51 | -22.81123 | -43.26307 | 34 ft | 6 kts | 266° |
| 2026-05-04 18:52 | -22.81146 | -43.26341 | 35 ft | 6 kts | 209° |
| 2026-05-04 18:52 | -22.81186 | -43.26342 | 36 ft | 6 kts | 167° |
| 2026-05-04 18:52 | -22.81224 | -43.26328 | 36 ft | 6 kts | 162° |
| 2026-05-04 18:52 | -22.81267 | -43.26308 | 35 ft | 9 kts | 148° |
| 2026-05-04 18:53 | -22.81319 | -43.26249 | 34 ft | 13 kts | 125° |
| 2026-05-04 18:53 | -22.81440 | -43.26067 | 35 ft | 63 kts | 126° |
| 2026-05-04 18:53 | -22.81861 | -43.25434 | 29 ft | 141 kts | 126° |
| 2026-05-04 18:53 | -22.82560 | -43.24372 | 210 ft | 188 kts | 125° |
| 2026-05-04 18:54 | -22.83168 | -43.23169 | 1257 ft | 178 kts | 106° |
| 2026-05-04 18:54 | -22.83305 | -43.21820 | 2086 ft | 189 kts | 80° |
| 2026-05-04 18:54 | -22.82812 | -43.20456 | 2176 ft | 201 kts | 64° |
| 2026-05-04 18:54 | -22.82186 | -43.19056 | 2385 ft | 212 kts | 65° |
| 2026-05-04 18:55 | -22.81549 | -43.17602 | 2690 ft | 218 kts | 65° |
| 2026-05-04 18:55 | -22.80187 | -43.14467 | 3239 ft | 242 kts | 64° |
| 2026-05-04 18:55 | -22.79453 | -43.12771 | 3483 ft | 257 kts | 64° |
| 2026-05-04 18:56 | -22.78694 | -43.11008 | 3977 ft | 261 kts | 63° |
| 2026-05-04 18:56 | -22.78186 | -43.09823 | 4317 ft | 264 kts | 63° |
| 2026-05-04 18:56 | -22.77398 | -43.07988 | 4758 ft | 271 kts | 63° |
| 2026-05-04 18:56 | -22.76607 | -43.06140 | 5319 ft | 273 kts | 62° |
| 2026-05-04 18:57 | -22.75794 | -43.04246 | 5799 ft | 279 kts | 62° |
| 2026-05-04 18:57 | -22.74981 | -43.02313 | 6228 ft | 286 kts | 68° |
| 2026-05-04 18:57 | -22.74435 | -43.00209 | 6621 ft | 292 kts | 76° |
| 2026-05-04 18:57 | -22.74044 | -42.98056 | 7236 ft | 291 kts | 78° |
| 2026-05-04 18:58 | -22.73652 | -42.95896 | 7761 ft | 294 kts | 77° |
| 2026-05-04 18:58 | -22.73228 | -42.93722 | 8255 ft | 296 kts | 77° |
| 2026-05-04 18:58 | -22.72779 | -42.91551 | 8767 ft | 299 kts | 77° |
| 2026-05-04 18:58 | -22.72312 | -42.89346 | 9268 ft | 303 kts | 77° |
| 2026-05-04 18:59 | -22.71833 | -42.87111 | 9728 ft | 307 kts | 77° |
| 2026-05-04 18:59 | -22.71542 | -42.84801 | 9916 ft | 315 kts | 95° |
| 2026-05-04 18:59 | -22.71835 | -42.82427 | 10184 ft | 322 kts | 100° |
| 2026-05-04 18:59 | -22.72197 | -42.79993 | 10417 ft | 336 kts | 100° |
| 2026-05-04 19:00 | -22.72566 | -42.77424 | 10562 ft | 354 kts | 99° |
| 2026-05-04 19:00 | -22.72943 | -42.74722 | 10688 ft | 371 kts | 99° |
| 2026-05-04 19:00 | -22.73327 | -42.71893 | 10924 ft | 385 kts | 99° |
| 2026-05-04 19:00 | -22.73712 | -42.68986 | 11322 ft | 394 kts | 98° |
| 2026-05-04 19:01 | -22.74100 | -42.66023 | 11824 ft | 399 kts | 98° |
| 2026-05-04 19:01 | -22.74489 | -42.63029 | 12422 ft | 401 kts | 98° |
| 2026-05-04 19:01 | -22.74872 | -42.60047 | 13013 ft | 405 kts | 98° |
| 2026-05-04 19:01 | -22.75262 | -42.57003 | 13591 ft | 409 kts | 98° |
| 2026-05-04 19:02 | -22.75655 | -42.53939 | 14124 ft | 412 kts | 98° |
| 2026-05-04 19:02 | -22.76052 | -42.50852 | 14617 ft | 415 kts | 98° |
| 2026-05-04 19:02 | -22.76452 | -42.47739 | 15038 ft | 420 kts | 98° |
| 2026-05-04 19:02 | -22.76856 | -42.44588 | 15465 ft | 424 kts | 98° |
| 2026-05-04 19:03 | -22.77262 | -42.41406 | 15894 ft | 428 kts | 98° |
| 2026-05-04 19:03 | -22.77672 | -42.38194 | 16323 ft | 433 kts | 98° |
| 2026-05-04 19:03 | -22.78085 | -42.34949 | 16763 ft | 437 kts | 98° |
| 2026-05-04 19:03 | -22.78496 | -42.31715 | 17183 ft | 441 kts | 98° |
| 2026-05-04 19:04 | -22.78921 | -42.28360 | 17641 ft | 446 kts | 98° |
| 2026-05-04 19:04 | -22.79339 | -42.25061 | 18075 ft | 450 kts | 98° |
| 2026-05-04 19:04 | -22.79766 | -42.21682 | 18488 ft | 454 kts | 98° |
| 2026-05-04 19:04 | -22.80197 | -42.18271 | 18867 ft | 458 kts | 98° |
| 2026-05-04 19:05 | -22.80630 | -42.14840 | 19292 ft | 461 kts | 98° |
| 2026-05-04 19:05 | -22.81099 | -42.11397 | 19709 ft | 459 kts | 103° |
| 2026-05-04 19:05 | -22.82200 | -42.08139 | 19944 ft | 461 kts | 124° |
| 2026-05-04 19:05 | -22.84163 | -42.05420 | 20259 ft | 455 kts | 135° |
| 2026-05-04 19:06 | -22.86221 | -42.02839 | 20553 ft | 461 kts | 133° |
| 2026-05-04 19:06 | -22.88254 | -42.00131 | 21018 ft | 463 kts | 131° |
| 2026-05-04 19:06 | -22.90261 | -41.97387 | 21478 ft | 465 kts | 131° |
| 2026-05-04 19:06 | -22.92269 | -41.94624 | 21888 ft | 467 kts | 131° |
| 2026-05-04 19:07 | -22.94289 | -41.91851 | 22271 ft | 470 kts | 131° |
| 2026-05-04 19:07 | -22.96325 | -41.89066 | 22678 ft | 473 kts | 131° |
| 2026-05-04 19:07 | -22.98376 | -41.86267 | 23079 ft | 475 kts | 131° |
| 2026-05-04 19:07 | -23.00440 | -41.83452 | 23473 ft | 478 kts | 131° |
| 2026-05-04 19:08 | -23.02514 | -41.80623 | 23838 ft | 480 kts | 131° |
| 2026-05-04 19:08 | -23.04597 | -41.77781 | 24159 ft | 482 kts | 131° |
| 2026-05-04 19:08 | -23.06690 | -41.74922 | 24472 ft | 485 kts | 131° |
| 2026-05-04 19:08 | -23.08793 | -41.72048 | 24789 ft | 487 kts | 131° |
| 2026-05-04 19:09 | -23.10901 | -41.69164 | 25109 ft | 489 kts | 131° |
| 2026-05-04 19:09 | -23.13020 | -41.66264 | 25433 ft | 491 kts | 131° |
| 2026-05-04 19:09 | -23.15147 | -41.63351 | 25749 ft | 493 kts | 132° |
| 2026-05-04 19:09 | -23.17280 | -41.60427 | 26055 ft | 495 kts | 132° |
| 2026-05-04 19:10 | -23.19426 | -41.57484 | 26344 ft | 497 kts | 132° |
| 2026-05-04 19:10 | -23.21578 | -41.54531 | 26649 ft | 499 kts | 132° |
| 2026-05-04 19:10 | -23.23738 | -41.51565 | 26954 ft | 502 kts | 132° |
| 2026-05-04 19:10 | -23.25907 | -41.48585 | 27246 ft | 503 kts | 132° |
| 2026-05-04 19:11 | -23.28083 | -41.45593 | 27551 ft | 505 kts | 132° |
| 2026-05-04 19:11 | -23.30266 | -41.42591 | 27817 ft | 507 kts | 132° |
| 2026-05-04 19:11 | -23.32458 | -41.39574 | 28081 ft | 509 kts | 132° |
| 2026-05-04 19:11 | -23.34656 | -41.36547 | 28346 ft | 511 kts | 132° |
| 2026-05-04 19:12 | -23.36834 | -41.33546 | 28591 ft | 513 kts | 132° |
| 2026-05-04 19:12 | -23.41268 | -41.27432 | 29077 ft | 516 kts | 133° |
| 2026-05-04 19:12 | -23.43495 | -41.24358 | 29289 ft | 518 kts | 133° |
| 2026-05-04 19:13 | -23.45728 | -41.21272 | 29495 ft | 520 kts | 133° |
| 2026-05-04 19:13 | -23.47968 | -41.18176 | 29700 ft | 521 kts | 133° |
| 2026-05-04 19:13 | -23.50214 | -41.15070 | 29933 ft | 522 kts | 133° |
| 2026-05-04 19:13 | -23.52457 | -41.11965 | 30241 ft | 521 kts | 133° |
| 2026-05-04 19:14 | -23.54695 | -41.08865 | 30508 ft | 520 kts | 133° |
| 2026-05-04 19:14 | -23.56931 | -41.05765 | 30706 ft | 521 kts | 133° |
| 2026-05-04 19:14 | -23.59172 | -41.02660 | 30885 ft | 521 kts | 133° |
| 2026-05-04 19:14 | -23.61415 | -40.99548 | 31061 ft | 522 kts | 133° |
| 2026-05-04 19:15 | -23.63664 | -40.96427 | 31121 ft | 525 kts | 133° |
| 2026-05-04 19:15 | -23.68159 | -40.90181 | 31193 ft | 521 kts | 133° |
| 2026-05-04 19:16 | -23.72610 | -40.83985 | 31181 ft | 517 kts | 133° |
| 2026-05-04 19:16 | -23.77034 | -40.77823 | 31184 ft | 515 kts | 133° |
| 2026-05-04 19:17 | -23.81450 | -40.71667 | 31186 ft | 515 kts | 133° |
| 2026-05-04 19:17 | -23.85877 | -40.65488 | 31193 ft | 518 kts | 133° |
| 2026-05-04 19:18 | -23.90319 | -40.59279 | 31190 ft | 520 kts | 133° |
| 2026-05-04 19:18 | -23.94775 | -40.53041 | 31191 ft | 521 kts | 132° |
| 2026-05-04 19:19 | -23.99235 | -40.46789 | 31198 ft | 522 kts | 133° |
| 2026-05-04 19:19 | -24.03701 | -40.40521 | 31190 ft | 522 kts | 132° |
| 2026-05-04 19:20 | -24.08163 | -40.34250 | 31188 ft | 522 kts | 132° |
| 2026-05-04 19:20 | -24.12613 | -40.27988 | 31200 ft | 520 kts | 133° |
| 2026-05-04 19:21 | -24.17016 | -40.21709 | 31190 ft | 519 kts | 132° |
| 2026-05-04 19:21 | -24.21366 | -40.15404 | 31186 ft | 518 kts | 131° |
| 2026-05-04 19:22 | -24.25669 | -40.09157 | 31190 ft | 516 kts | 131° |
| 2026-05-04 19:22 | -24.30025 | -40.02840 | 31205 ft | 516 kts | 131° |
| 2026-05-04 19:23 | -24.34330 | -39.96600 | 31199 ft | 517 kts | 131° |
| 2026-05-04 19:23 | -24.38672 | -39.90300 | 31197 ft | 518 kts | 131° |
| 2026-05-04 19:24 | -24.43016 | -39.83985 | 31199 ft | 519 kts | 131° |
| 2026-05-04 19:24 | -24.47369 | -39.77650 | 31201 ft | 520 kts | 131° |
| 2026-05-04 19:25 | -24.51722 | -39.71304 | 31199 ft | 521 kts | 131° |
| 2026-05-04 19:25 | -24.56079 | -39.64946 | 31217 ft | 521 kts | 131° |
| 2026-05-04 19:26 | -24.60432 | -39.58584 | 31199 ft | 520 kts | 131° |
| 2026-05-04 19:26 | -24.64776 | -39.52227 | 31200 ft | 520 kts | 131° |
| 2026-05-04 19:27 | -24.69110 | -39.45877 | 31205 ft | 519 kts | 131° |
| 2026-05-04 19:27 | -24.73437 | -39.39528 | 31203 ft | 518 kts | 131° |
| 2026-05-04 19:28 | -24.77755 | -39.33186 | 31211 ft | 518 kts | 131° |
| 2026-05-04 19:28 | -24.82044 | -39.26878 | 31202 ft | 518 kts | 131° |
| 2026-05-04 19:29 | -24.86361 | -39.20521 | 31202 ft | 518 kts | 131° |
| 2026-05-04 19:29 | -24.90677 | -39.14155 | 31210 ft | 519 kts | 131° |
| 2026-05-04 19:30 | -24.94994 | -39.07780 | 31209 ft | 520 kts | 131° |
| 2026-05-04 19:30 | -24.99315 | -39.01390 | 31210 ft | 520 kts | 131° |
| 2026-05-04 19:31 | -25.03636 | -38.94992 | 31212 ft | 520 kts | 131° |
| 2026-05-04 19:31 | -25.07952 | -38.88592 | 31206 ft | 519 kts | 131° |
| 2026-05-04 19:32 | -25.12255 | -38.82202 | 31207 ft | 518 kts | 131° |
| 2026-05-04 19:32 | -25.16549 | -38.75819 | 31209 ft | 517 kts | 131° |
| 2026-05-04 19:33 | -25.20835 | -38.69439 | 31212 ft | 517 kts | 131° |
| 2026-05-04 19:33 | -25.25116 | -38.63059 | 31214 ft | 517 kts | 130° |
| 2026-05-04 19:34 | -25.29392 | -38.56677 | 31209 ft | 517 kts | 130° |
| 2026-05-04 19:34 | -25.33670 | -38.50282 | 31213 ft | 518 kts | 130° |
| 2026-05-04 19:35 | -25.37949 | -38.43878 | 31216 ft | 518 kts | 130° |
| 2026-05-04 19:35 | -25.42066 | -38.37707 | 31221 ft | 519 kts | 130° |
| 2026-05-04 19:36 | -25.46350 | -38.31278 | 31218 ft | 519 kts | 130° |
| 2026-05-04 19:36 | -25.50631 | -38.24844 | 31217 ft | 519 kts | 130° |
| 2026-05-04 19:37 | -25.54910 | -38.18405 | 31233 ft | 519 kts | 130° |
| 2026-05-04 19:37 | -25.59186 | -38.11962 | 31214 ft | 519 kts | 130° |
| 2026-05-04 19:38 | -25.63459 | -38.05514 | 31219 ft | 519 kts | 130° |
| 2026-05-04 19:38 | -25.67730 | -37.99060 | 31230 ft | 519 kts | 130° |
| 2026-05-04 19:39 | -25.71996 | -37.92605 | 31216 ft | 519 kts | 130° |
| 2026-05-04 19:39 | -25.76259 | -37.86146 | 31224 ft | 519 kts | 130° |
| 2026-05-04 19:40 | -25.80492 | -37.79722 | 31228 ft | 519 kts | 130° |
| 2026-05-04 19:40 | -25.84749 | -37.73253 | 31222 ft | 519 kts | 130° |
| 2026-05-04 19:41 | -25.89005 | -37.66777 | 31225 ft | 519 kts | 130° |
| 2026-05-04 19:41 | -25.93259 | -37.60294 | 31242 ft | 519 kts | 129° |
| 2026-05-04 19:42 | -25.97506 | -37.53813 | 31231 ft | 518 kts | 129° |
| 2026-05-04 19:42 | -26.01354 | -37.47014 | 31231 ft | 523 kts | 118° |
| 2026-05-04 19:43 | -26.04353 | -37.39655 | 31233 ft | 523 kts | 116° |
| 2026-05-04 19:43 | -26.07315 | -37.32270 | 31233 ft | 523 kts | 117° |
| 2026-05-04 19:44 | -26.10312 | -37.24897 | 31231 ft | 523 kts | 117° |
| 2026-05-04 19:44 | -26.12820 | -37.18771 | 31235 ft | 524 kts | 117° |
| 2026-05-04 19:45 | -26.15841 | -37.11394 | 31234 ft | 524 kts | 117° |
| 2026-05-04 19:45 | -26.18859 | -37.04005 | 31235 ft | 524 kts | 117° |
| 2026-05-04 19:46 | -26.21873 | -36.96605 | 31233 ft | 525 kts | 117° |
| 2026-05-04 19:46 | -26.24883 | -36.89202 | 31238 ft | 525 kts | 116° |
| 2026-05-04 19:47 | -26.27893 | -36.81787 | 31236 ft | 525 kts | 116° |
| 2026-05-04 19:47 | -26.30899 | -36.74368 | 31239 ft | 525 kts | 116° |
| 2026-05-04 19:48 | -26.33906 | -36.66934 | 31238 ft | 526 kts | 116° |
| 2026-05-04 19:48 | -26.36911 | -36.59491 | 31237 ft | 527 kts | 116° |
| 2026-05-04 19:49 | -26.39915 | -36.52035 | 31238 ft | 527 kts | 116° |
| 2026-05-04 19:49 | -26.42898 | -36.44619 | 31240 ft | 527 kts | 116° |
| 2026-05-04 19:50 | -26.45897 | -36.37153 | 31239 ft | 527 kts | 116° |
| 2026-05-04 19:50 | -26.48891 | -36.29681 | 31238 ft | 527 kts | 116° |
| 2026-05-04 19:51 | -26.51881 | -36.22209 | 31233 ft | 527 kts | 116° |
| 2026-05-04 19:51 | -26.54870 | -36.14724 | 31238 ft | 528 kts | 116° |
| 2026-05-04 19:52 | -26.57857 | -36.07231 | 31241 ft | 528 kts | 116° |
| 2026-05-04 19:52 | -26.60846 | -35.99720 | 31249 ft | 529 kts | 116° |
| 2026-05-04 19:53 | -26.63834 | -35.92198 | 31239 ft | 530 kts | 116° |
| 2026-05-04 19:53 | -26.66823 | -35.84657 | 31242 ft | 531 kts | 116° |
| 2026-05-04 19:54 | -26.69813 | -35.77101 | 31240 ft | 532 kts | 116° |
| 2026-05-04 19:54 | -26.72802 | -35.69533 | 31263 ft | 532 kts | 115° |
| 2026-05-04 19:55 | -26.75786 | -35.61962 | 31238 ft | 531 kts | 115° |
| 2026-05-04 19:55 | -26.78763 | -35.54397 | 31235 ft | 530 kts | 115° |
| 2026-05-04 19:56 | -26.81725 | -35.46854 | 31233 ft | 529 kts | 115° |
| 2026-05-04 19:56 | -26.84680 | -35.39317 | 31252 ft | 528 kts | 115° |
| 2026-05-04 19:57 | -26.87628 | -35.31780 | 31252 ft | 528 kts | 115° |
| 2026-05-04 19:57 | -26.90555 | -35.24287 | 31242 ft | 529 kts | 115° |
| 2026-05-04 19:58 | -26.93501 | -35.16729 | 31258 ft | 530 kts | 115° |
| 2026-05-04 19:58 | -26.96449 | -35.09149 | 31245 ft | 531 kts | 115° |
| 2026-05-04 19:59 | -26.99375 | -35.01540 | 31240 ft | 532 kts | 112° |
| 2026-05-04 19:59 | -27.01475 | -34.93578 | 31259 ft | 533 kts | 103° |
| 2026-05-04 20:00 | -27.03098 | -34.85450 | 31243 ft | 534 kts | 103° |
| 2026-05-04 20:00 | -27.04740 | -34.77315 | 31257 ft | 535 kts | 103° |
| 2026-05-04 20:01 | -27.06419 | -34.69183 | 31246 ft | 535 kts | 103° |
| 2026-05-04 20:01 | -27.08109 | -34.61043 | 31248 ft | 536 kts | 103° |
| 2026-05-04 20:02 | -27.09794 | -34.52897 | 31248 ft | 536 kts | 103° |
| 2026-05-04 20:02 | -27.11472 | -34.44750 | 31249 ft | 536 kts | 103° |
| 2026-05-04 20:03 | -27.13145 | -34.36595 | 31246 ft | 536 kts | 103° |
| 2026-05-04 20:03 | -27.14813 | -34.28434 | 31246 ft | 536 kts | 103° |
| 2026-05-04 20:04 | -27.16478 | -34.20265 | 31249 ft | 537 kts | 103° |
| 2026-05-04 20:04 | -27.18140 | -34.12087 | 31250 ft | 538 kts | 102° |
| 2026-05-04 20:05 | -27.19800 | -34.03895 | 31251 ft | 538 kts | 102° |
| 2026-05-04 20:05 | -27.21446 | -33.95746 | 31234 ft | 539 kts | 102° |
| 2026-05-04 20:06 | -27.23101 | -33.87524 | 31250 ft | 540 kts | 102° |
| 2026-05-04 20:06 | -27.24757 | -33.79273 | 31249 ft | 542 kts | 102° |
| 2026-05-04 20:07 | -27.26413 | -33.70992 | 31250 ft | 543 kts | 102° |
| 2026-05-04 20:07 | -27.28067 | -33.62698 | 31248 ft | 544 kts | 102° |
| 2026-05-04 20:08 | -27.29718 | -33.54389 | 31243 ft | 544 kts | 102° |
| 2026-05-04 20:08 | -27.31362 | -33.46085 | 31245 ft | 544 kts | 102° |
| 2026-05-04 20:09 | -27.33002 | -33.37781 | 31241 ft | 544 kts | 102° |
| 2026-05-04 20:09 | -27.34635 | -33.29480 | 31250 ft | 543 kts | 102° |
| 2026-05-04 20:10 | -27.36263 | -33.21178 | 31250 ft | 543 kts | 102° |
| 2026-05-04 20:10 | -27.37886 | -33.12876 | 31251 ft | 544 kts | 101° |
| 2026-05-04 20:11 | -27.39494 | -33.04620 | 31244 ft | 544 kts | 101° |
| 2026-05-04 20:11 | -27.41110 | -32.96298 | 31245 ft | 545 kts | 101° |
| 2026-05-04 20:12 | -27.42723 | -32.87963 | 31246 ft | 545 kts | 101° |
| 2026-05-04 20:12 | -27.44332 | -32.79619 | 31243 ft | 546 kts | 101° |
| 2026-05-04 20:13 | -27.45938 | -32.71263 | 31246 ft | 546 kts | 101° |
| 2026-05-04 20:13 | -27.47539 | -32.62908 | 31243 ft | 546 kts | 101° |
| 2026-05-04 20:14 | -27.49135 | -32.54546 | 31247 ft | 546 kts | 101° |
| 2026-05-04 20:14 | -27.50752 | -32.46189 | 31247 ft | 546 kts | 102° |
| 2026-05-04 20:15 | -27.52497 | -32.37856 | 31244 ft | 547 kts | 102° |
| 2026-05-04 20:15 | -27.54259 | -32.29580 | 31239 ft | 547 kts | 102° |
| 2026-05-04 20:16 | -27.56010 | -32.21239 | 31244 ft | 547 kts | 102° |
| 2026-05-04 20:16 | -27.57742 | -32.12885 | 31245 ft | 547 kts | 102° |
| 2026-05-04 20:17 | -27.59467 | -32.04526 | 31241 ft | 548 kts | 102° |
| 2026-05-04 20:17 | -27.61188 | -31.96160 | 31248 ft | 548 kts | 102° |
| 2026-05-04 20:18 | -27.62906 | -31.87792 | 31251 ft | 548 kts | 102° |
| 2026-05-04 20:18 | -27.64621 | -31.79415 | 31252 ft | 548 kts | 102° |
| 2026-05-04 20:19 | -27.66331 | -31.71030 | 31245 ft | 549 kts | 102° |
| 2026-05-04 20:19 | -27.68037 | -31.62639 | 31248 ft | 549 kts | 102° |
| 2026-05-04 20:20 | -27.69738 | -31.54244 | 31249 ft | 549 kts | 102° |
| 2026-05-04 20:20 | -27.71435 | -31.45842 | 31248 ft | 549 kts | 101° |
| 2026-05-04 20:21 | -27.73127 | -31.37440 | 31245 ft | 549 kts | 101° |
| 2026-05-04 20:21 | -27.75654 | -31.24833 | 31248 ft | 549 kts | 101° |
| 2026-05-04 20:22 | -27.77333 | -31.16427 | 31247 ft | 549 kts | 101° |
| 2026-05-04 20:22 | -27.79006 | -31.08016 | 31245 ft | 549 kts | 101° |
| 2026-05-04 20:23 | -27.80663 | -30.99664 | 31245 ft | 549 kts | 101° |
| 2026-05-04 20:23 | -27.82325 | -30.91253 | 31245 ft | 549 kts | 101° |
| 2026-05-04 20:24 | -27.83984 | -30.82833 | 31252 ft | 549 kts | 101° |
| 2026-05-04 20:24 | -27.85638 | -30.74406 | 31251 ft | 549 kts | 101° |
| 2026-05-04 20:25 | -27.87288 | -30.65974 | 31253 ft | 550 kts | 101° |
| 2026-05-04 20:25 | -27.88934 | -30.57529 | 31247 ft | 550 kts | 101° |
| 2026-05-04 20:26 | -27.90575 | -30.49083 | 31246 ft | 550 kts | 101° |
| 2026-05-04 20:26 | -27.92213 | -30.40627 | 31248 ft | 550 kts | 101° |
| 2026-05-04 20:27 | -27.93845 | -30.32167 | 31249 ft | 551 kts | 101° |
| 2026-05-04 20:27 | -27.95473 | -30.23705 | 31249 ft | 551 kts | 101° |
| 2026-05-04 20:28 | -27.97096 | -30.15233 | 31256 ft | 551 kts | 101° |
| 2026-05-04 20:28 | -27.98714 | -30.06757 | 31250 ft | 551 kts | 101° |
| 2026-05-04 20:29 | -28.00335 | -29.98274 | 31253 ft | 552 kts | 101° |
| 2026-05-04 20:29 | -28.02079 | -29.89812 | 31252 ft | 552 kts | 102° |
| 2026-05-04 20:30 | -28.03881 | -29.81362 | 31244 ft | 552 kts | 102° |
| 2026-05-04 20:30 | -28.05665 | -29.72905 | 31250 ft | 552 kts | 102° |
| 2026-05-04 20:31 | -28.07413 | -29.64498 | 31253 ft | 552 kts | 102° |
| 2026-05-04 20:31 | -28.09162 | -29.56030 | 31249 ft | 552 kts | 102° |
| 2026-05-04 20:32 | -28.10906 | -29.47558 | 31253 ft | 552 kts | 101° |
| 2026-05-04 20:32 | -28.12647 | -29.39087 | 31254 ft | 552 kts | 101° |
| 2026-05-04 20:33 | -28.14382 | -29.30616 | 31252 ft | 552 kts | 101° |
| 2026-05-04 20:33 | -28.16112 | -29.22140 | 31250 ft | 552 kts | 101° |
| 2026-05-04 20:34 | -28.17546 | -29.15091 | 31226 ft | 552 kts | 101° |
| 2026-05-04 20:34 | -28.19269 | -29.06599 | 31250 ft | 553 kts | 101° |
| 2026-05-04 20:35 | -28.20989 | -28.98096 | 31257 ft | 554 kts | 101° |
| 2026-05-04 20:35 | -28.22707 | -28.89565 | 31249 ft | 555 kts | 101° |
| 2026-05-04 20:36 | -28.24424 | -28.81018 | 31256 ft | 556 kts | 101° |
| 2026-05-04 20:36 | -28.26137 | -28.72456 | 31254 ft | 557 kts | 101° |
| 2026-05-04 20:37 | -28.27846 | -28.63890 | 31247 ft | 557 kts | 101° |
| 2026-05-04 20:37 | -28.29549 | -28.55320 | 31254 ft | 557 kts | 101° |
| 2026-05-04 20:38 | -28.31247 | -28.46750 | 31254 ft | 557 kts | 101° |
| 2026-05-04 20:38 | -28.32939 | -28.38174 | 31254 ft | 557 kts | 101° |
| 2026-05-04 20:39 | -28.34626 | -28.29601 | 31254 ft | 557 kts | 101° |
| 2026-05-04 20:39 | -28.36307 | -28.21021 | 31254 ft | 556 kts | 101° |
| 2026-05-04 20:40 | -28.37982 | -28.12446 | 31250 ft | 556 kts | 101° |
| 2026-05-04 20:40 | -28.39652 | -28.03869 | 31255 ft | 556 kts | 101° |
| 2026-05-04 20:41 | -28.41316 | -27.95289 | 31253 ft | 556 kts | 101° |
| 2026-05-04 20:41 | -28.42974 | -27.86708 | 31255 ft | 556 kts | 101° |
| 2026-05-04 20:42 | -28.44628 | -27.78116 | 31252 ft | 557 kts | 101° |
| 2026-05-04 20:42 | -28.46277 | -27.69521 | 31249 ft | 557 kts | 101° |
| 2026-05-04 20:43 | -28.47910 | -27.60983 | 31254 ft | 557 kts | 101° |
| 2026-05-04 20:43 | -28.49549 | -27.52377 | 31254 ft | 557 kts | 100° |
| 2026-05-04 20:44 | -28.51243 | -27.43782 | 31250 ft | 558 kts | 102° |
| 2026-05-04 20:44 | -28.53062 | -27.35203 | 31250 ft | 558 kts | 102° |
| 2026-05-04 20:45 | -28.54886 | -27.26628 | 31250 ft | 558 kts | 102° |
| 2026-05-04 20:45 | -28.56683 | -27.18039 | 31251 ft | 558 kts | 102° |
| 2026-05-04 20:46 | -28.58463 | -27.09442 | 31251 ft | 558 kts | 102° |
| 2026-05-04 20:46 | -28.60236 | -27.00840 | 31248 ft | 559 kts | 101° |
| 2026-05-04 20:47 | -28.62007 | -26.92228 | 31250 ft | 559 kts | 101° |
| 2026-05-04 20:47 | -28.63774 | -26.83615 | 31244 ft | 559 kts | 101° |
| 2026-05-04 20:48 | -28.65536 | -26.75000 | 31250 ft | 559 kts | 101° |
| 2026-05-04 20:48 | -28.67291 | -26.66381 | 31247 ft | 559 kts | 101° |
| 2026-05-04 20:49 | -28.69041 | -26.57761 | 31252 ft | 559 kts | 101° |
| 2026-05-04 20:49 | -28.70786 | -26.49138 | 31251 ft | 559 kts | 101° |
| 2026-05-04 20:50 | -28.72524 | -26.40514 | 31244 ft | 559 kts | 101° |
| 2026-05-04 20:50 | -28.74247 | -26.31941 | 31254 ft | 559 kts | 101° |
| 2026-05-04 20:51 | -28.75975 | -26.23307 | 31251 ft | 559 kts | 101° |
| 2026-05-04 20:51 | -28.77699 | -26.14665 | 31258 ft | 559 kts | 101° |
| 2026-05-04 20:52 | -28.79418 | -26.06017 | 31249 ft | 560 kts | 101° |
| 2026-05-04 20:52 | -28.81133 | -25.97361 | 31247 ft | 560 kts | 101° |
| 2026-05-04 20:53 | -28.82843 | -25.88701 | 31249 ft | 560 kts | 101° |
| 2026-05-04 20:53 | -28.84547 | -25.80035 | 31252 ft | 560 kts | 101° |
| 2026-05-04 20:54 | -28.86247 | -25.71363 | 31251 ft | 560 kts | 101° |
| 2026-05-04 20:54 | -28.87941 | -25.62689 | 31242 ft | 560 kts | 101° |
| 2026-05-04 20:55 | -28.89630 | -25.54009 | 31246 ft | 560 kts | 101° |
| 2026-05-04 20:55 | -28.91313 | -25.45324 | 31251 ft | 561 kts | 101° |
| 2026-05-04 20:56 | -28.92992 | -25.36632 | 31254 ft | 561 kts | 100° |
| 2026-05-04 20:56 | -28.94667 | -25.27931 | 31247 ft | 561 kts | 100° |
| 2026-05-04 20:57 | -28.96336 | -25.19228 | 31251 ft | 561 kts | 100° |
| 2026-05-04 20:57 | -28.97999 | -25.10522 | 31258 ft | 561 kts | 100° |
| 2026-05-04 20:58 | -28.99601 | -25.01802 | 31241 ft | 560 kts | 97° |
| 2026-05-04 20:58 | -29.00200 | -24.92989 | 31256 ft | 554 kts | 86° |
| 2026-05-04 20:59 | -29.00187 | -24.84235 | 31255 ft | 555 kts | 86° |
| 2026-05-04 20:59 | -29.00199 | -24.75402 | 31244 ft | 556 kts | 86° |
| 2026-05-04 21:00 | -29.00252 | -24.66560 | 31255 ft | 557 kts | 86° |
| 2026-05-04 21:00 | -29.00316 | -24.57710 | 31257 ft | 557 kts | 86° |
| 2026-05-04 21:01 | -29.00373 | -24.48854 | 31254 ft | 558 kts | 86° |
| 2026-05-04 21:01 | -29.00420 | -24.39995 | 31239 ft | 558 kts | 86° |
| 2026-05-04 21:02 | -29.00459 | -24.31140 | 31244 ft | 557 kts | 86° |
| 2026-05-04 21:02 | -29.00492 | -24.22287 | 31241 ft | 557 kts | 86° |
| 2026-05-04 21:03 | -29.00521 | -24.13436 | 31252 ft | 557 kts | 86° |
| 2026-05-04 21:03 | -29.00543 | -24.04581 | 31245 ft | 557 kts | 86° |
| 2026-05-04 21:04 | -29.00559 | -23.95725 | 31248 ft | 558 kts | 86° |
| 2026-05-04 21:04 | -29.00570 | -23.86860 | 31258 ft | 558 kts | 86° |
| 2026-05-04 21:05 | -29.00575 | -23.77988 | 31249 ft | 559 kts | 86° |
| 2026-05-04 21:05 | -29.00574 | -23.69168 | 31240 ft | 559 kts | 86° |
| 2026-05-04 21:06 | -29.00568 | -23.60283 | 31246 ft | 560 kts | 86° |
| 2026-05-04 21:06 | -29.00555 | -23.51391 | 31246 ft | 560 kts | 86° |
| 2026-05-04 21:07 | -29.00537 | -23.42492 | 31241 ft | 560 kts | 85° |
| 2026-05-04 21:07 | -29.00513 | -23.33591 | 31246 ft | 560 kts | 85° |
| 2026-05-04 21:08 | -29.00483 | -23.24685 | 31241 ft | 561 kts | 85° |
| 2026-05-04 21:08 | -29.00447 | -23.15777 | 31243 ft | 561 kts | 85° |
| 2026-05-04 21:09 | -29.00405 | -23.06872 | 31233 ft | 561 kts | 85° |
| 2026-05-04 21:09 | -29.00358 | -22.97972 | 31243 ft | 560 kts | 85° |
| 2026-05-04 21:10 | -29.00304 | -22.89067 | 31243 ft | 561 kts | 85° |
| 2026-05-04 21:10 | -29.00245 | -22.80220 | 31242 ft | 561 kts | 85° |
| 2026-05-04 21:11 | -29.00180 | -22.71314 | 31239 ft | 561 kts | 85° |
| 2026-05-04 21:11 | -29.00108 | -22.62402 | 31243 ft | 561 kts | 85° |
| 2026-05-04 21:12 | -29.00032 | -22.53487 | 31227 ft | 561 kts | 85° |
| 2026-05-04 21:12 | -28.99993 | -22.44567 | 31232 ft | 562 kts | 86° |
| 2026-05-04 21:13 | -29.00081 | -22.35637 | 31241 ft | 563 kts | 86° |
| 2026-05-04 21:13 | -29.00186 | -22.26691 | 31243 ft | 563 kts | 86° |
| 2026-05-04 21:14 | -29.00264 | -22.17740 | 31240 ft | 564 kts | 86° |
| 2026-05-04 21:14 | -29.00322 | -22.08783 | 31240 ft | 564 kts | 86° |
| 2026-05-04 21:15 | -29.00372 | -21.99827 | 31242 ft | 564 kts | 86° |
| 2026-05-04 21:15 | -29.00417 | -21.90870 | 31242 ft | 564 kts | 86° |
| 2026-05-04 21:16 | -29.00458 | -21.81916 | 31239 ft | 563 kts | 86° |
| 2026-05-04 21:16 | -29.00493 | -21.73030 | 31239 ft | 563 kts | 86° |
| 2026-05-04 21:17 | -29.00522 | -21.64080 | 31237 ft | 563 kts | 86° |
| 2026-05-04 21:17 | -29.00544 | -21.55139 | 31236 ft | 563 kts | 86° |
| 2026-05-04 21:18 | -29.00561 | -21.46198 | 31233 ft | 563 kts | 86° |
| 2026-05-04 21:18 | -29.00572 | -21.37265 | 31237 ft | 562 kts | 86° |
| 2026-05-04 21:19 | -29.00577 | -21.28328 | 31239 ft | 562 kts | 85° |
| 2026-05-04 21:19 | -29.00577 | -21.19394 | 31238 ft | 563 kts | 85° |
| 2026-05-04 21:20 | -29.00570 | -21.10453 | 31229 ft | 562 kts | 85° |
| 2026-05-04 21:20 | -29.00557 | -21.01520 | 31237 ft | 562 kts | 85° |
| 2026-05-04 21:21 | -29.00539 | -20.92587 | 31237 ft | 562 kts | 85° |
| 2026-05-04 21:21 | -29.00514 | -20.83658 | 31214 ft | 562 kts | 85° |
| 2026-05-04 21:22 | -29.00485 | -20.74797 | 31234 ft | 561 kts | 85° |
| 2026-05-04 21:22 | -29.00449 | -20.65881 | 31234 ft | 561 kts | 85° |
| 2026-05-04 21:23 | -29.00406 | -20.56958 | 31232 ft | 562 kts | 85° |
| 2026-05-04 21:23 | -29.00358 | -20.48037 | 31239 ft | 562 kts | 85° |
| 2026-05-04 21:24 | -29.00305 | -20.39117 | 31232 ft | 562 kts | 85° |
| 2026-05-04 21:24 | -29.00245 | -20.30194 | 31238 ft | 562 kts | 85° |
| 2026-05-04 21:25 | -29.00191 | -20.22781 | 31238 ft | 562 kts | 85° |
| 2026-05-04 21:25 | -29.00121 | -20.13856 | 31239 ft | 562 kts | 85° |
| 2026-05-04 21:26 | -29.00045 | -20.04937 | 31230 ft | 561 kts | 85° |
| 2026-05-04 21:26 | -28.99988 | -19.96027 | 31236 ft | 561 kts | 86° |
| 2026-05-04 21:27 | -29.00063 | -19.87106 | 31234 ft | 562 kts | 87° |
| 2026-05-04 21:27 | -29.00171 | -19.78183 | 31231 ft | 562 kts | 86° |
| 2026-05-04 21:28 | -29.00253 | -19.69265 | 31236 ft | 561 kts | 86° |
| 2026-05-04 21:28 | -29.00313 | -19.60348 | 31236 ft | 561 kts | 86° |
| 2026-05-04 21:29 | -29.00363 | -19.51429 | 31237 ft | 561 kts | 86° |
| 2026-05-04 21:29 | -29.00409 | -19.42513 | 31226 ft | 561 kts | 86° |
| 2026-05-04 21:30 | -29.00450 | -19.33596 | 31236 ft | 561 kts | 86° |
| 2026-05-04 21:30 | -29.00486 | -19.24676 | 31237 ft | 561 kts | 86° |
| 2026-05-04 21:31 | -29.00529 | -19.11292 | 31230 ft | 562 kts | 86° |
| 2026-05-04 21:32 | -29.00550 | -19.02377 | 31230 ft | 561 kts | 86° |
| 2026-05-04 21:32 | -29.00565 | -18.93480 | 31231 ft | 560 kts | 86° |
| 2026-05-04 21:33 | -29.00575 | -18.84592 | 31223 ft | 559 kts | 86° |
| 2026-05-04 21:33 | -29.00578 | -18.75713 | 31230 ft | 559 kts | 86° |
| 2026-05-04 21:34 | -29.00575 | -18.66841 | 31229 ft | 559 kts | 86° |
| 2026-05-04 21:34 | -29.00567 | -18.57962 | 31235 ft | 559 kts | 86° |
| 2026-05-04 21:35 | -29.00553 | -18.49144 | 31229 ft | 559 kts | 86° |
| 2026-05-04 21:35 | -29.00533 | -18.40264 | 31232 ft | 559 kts | 86° |
| 2026-05-04 21:36 | -29.00507 | -18.31393 | 31229 ft | 558 kts | 86° |
| 2026-05-04 21:36 | -29.00476 | -18.22529 | 31231 ft | 557 kts | 86° |
| 2026-05-04 21:37 | -29.00439 | -18.13679 | 31225 ft | 557 kts | 86° |
| 2026-05-04 21:37 | -29.00396 | -18.04838 | 31234 ft | 556 kts | 86° |
| 2026-05-04 21:38 | -29.00347 | -17.96009 | 31233 ft | 556 kts | 86° |
| 2026-05-04 21:38 | -29.00292 | -17.87189 | 31233 ft | 555 kts | 86° |
| 2026-05-04 21:39 | -29.00232 | -17.78375 | 31229 ft | 555 kts | 86° |
| 2026-05-04 21:39 | -29.00166 | -17.69569 | 31236 ft | 554 kts | 86° |
| 2026-05-04 21:40 | -29.00096 | -17.60842 | 31228 ft | 553 kts | 86° |
| 2026-05-04 21:40 | -29.00020 | -17.52076 | 31231 ft | 551 kts | 86° |
| 2026-05-04 21:41 | -29.00001 | -17.43319 | 31233 ft | 551 kts | 87° |
| 2026-05-04 21:41 | -29.00097 | -17.34565 | 31239 ft | 550 kts | 88° |
| 2026-05-04 21:42 | -29.00196 | -17.25832 | 31236 ft | 550 kts | 87° |
| 2026-05-04 21:42 | -29.00269 | -17.17105 | 31240 ft | 549 kts | 87° |
| 2026-05-04 21:43 | -29.00324 | -17.08384 | 31219 ft | 549 kts | 87° |
| 2026-05-04 21:43 | -29.00372 | -16.99673 | 31236 ft | 548 kts | 87° |
| 2026-05-04 21:44 | -29.00416 | -16.90960 | 31241 ft | 548 kts | 87° |
| 2026-05-04 21:44 | -29.00456 | -16.82246 | 31246 ft | 549 kts | 87° |
| 2026-05-04 21:45 | -29.00490 | -16.73519 | 31247 ft | 549 kts | 87° |
| 2026-05-04 21:45 | -29.00519 | -16.64790 | 31247 ft | 550 kts | 87° |
| 2026-05-04 21:46 | -29.00542 | -16.56050 | 31244 ft | 550 kts | 87° |
| 2026-05-04 21:46 | -29.00559 | -16.47365 | 31248 ft | 551 kts | 87° |
| 2026-05-04 21:47 | -29.00570 | -16.38618 | 31249 ft | 551 kts | 86° |
| 2026-05-04 21:47 | -29.00577 | -16.29874 | 31239 ft | 551 kts | 86° |
| 2026-05-04 21:48 | -29.00577 | -16.21132 | 31248 ft | 550 kts | 86° |
| 2026-05-04 21:48 | -29.00572 | -16.12392 | 31247 ft | 550 kts | 86° |
| 2026-05-04 21:49 | -29.00561 | -16.03651 | 31254 ft | 550 kts | 86° |
| 2026-05-04 21:49 | -29.00544 | -15.94911 | 31240 ft | 550 kts | 86° |
| 2026-05-04 21:50 | -29.00522 | -15.86175 | 31249 ft | 550 kts | 86° |
| 2026-05-04 21:50 | -29.00494 | -15.77432 | 31252 ft | 550 kts | 86° |
| 2026-05-04 21:51 | -29.00460 | -15.68689 | 31253 ft | 550 kts | 86° |
| 2026-05-04 21:51 | -29.00421 | -15.59944 | 31250 ft | 551 kts | 86° |
| 2026-05-04 21:52 | -29.00376 | -15.51196 | 31255 ft | 551 kts | 86° |
| 2026-05-04 21:52 | -29.00325 | -15.42439 | 31258 ft | 551 kts | 86° |
| 2026-05-04 21:53 | -29.00269 | -15.33678 | 31257 ft | 552 kts | 86° |
| 2026-05-04 21:53 | -29.00207 | -15.24908 | 31261 ft | 552 kts | 86° |
| 2026-05-04 21:54 | -29.00139 | -15.16142 | 31265 ft | 552 kts | 86° |
| 2026-05-04 21:54 | -29.00067 | -15.07433 | 31263 ft | 552 kts | 86° |
| 2026-05-04 21:55 | -28.99991 | -14.98670 | 31263 ft | 552 kts | 86° |
| 2026-05-04 21:55 | -29.00032 | -14.89898 | 31249 ft | 552 kts | 88° |
| 2026-05-04 21:56 | -29.00139 | -14.81126 | 31265 ft | 552 kts | 88° |
| 2026-05-04 21:56 | -29.00228 | -14.72360 | 31259 ft | 552 kts | 87° |
| 2026-05-04 21:57 | -29.00292 | -14.63601 | 31272 ft | 551 kts | 87° |
| 2026-05-04 21:57 | -29.00344 | -14.54843 | 31260 ft | 551 kts | 87° |
| 2026-05-04 21:58 | -29.00391 | -14.46095 | 31271 ft | 551 kts | 87° |
| 2026-05-04 21:58 | -29.00433 | -14.37345 | 31268 ft | 551 kts | 87° |
| 2026-05-04 21:59 | -29.00471 | -14.28597 | 31275 ft | 551 kts | 87° |
| 2026-05-04 21:59 | -29.00503 | -14.19853 | 31271 ft | 551 kts | 87° |
| 2026-05-04 22:00 | -29.00529 | -14.11105 | 31275 ft | 550 kts | 87° |
| 2026-05-04 22:00 | -29.00550 | -14.02366 | 31281 ft | 550 kts | 87° |
| 2026-05-04 22:01 | -29.00565 | -13.93623 | 31280 ft | 550 kts | 87° |
| 2026-05-04 22:01 | -29.00574 | -13.84879 | 31274 ft | 550 kts | 87° |
| 2026-05-04 22:02 | -29.00577 | -13.76196 | 31278 ft | 550 kts | 87° |
| 2026-05-04 22:02 | -29.00575 | -13.67453 | 31283 ft | 550 kts | 87° |
| 2026-05-04 22:03 | -29.00568 | -13.58710 | 31283 ft | 550 kts | 87° |
| 2026-05-04 22:03 | -29.00554 | -13.49965 | 31283 ft | 551 kts | 87° |
| 2026-05-04 22:04 | -29.00535 | -13.41221 | 31283 ft | 550 kts | 87° |
| 2026-05-04 22:04 | -29.00511 | -13.32478 | 31288 ft | 550 kts | 87° |
| 2026-05-04 22:05 | -29.00480 | -13.23735 | 31288 ft | 550 kts | 87° |
| 2026-05-04 22:05 | -29.00444 | -13.14994 | 31289 ft | 550 kts | 87° |
| 2026-05-04 22:06 | -29.00403 | -13.06255 | 31289 ft | 550 kts | 87° |
| 2026-05-04 22:06 | -29.00356 | -12.97519 | 31289 ft | 550 kts | 86° |
| 2026-05-04 22:07 | -29.00303 | -12.88788 | 31291 ft | 549 kts | 86° |
| 2026-05-04 22:07 | -29.00245 | -12.80124 | 31291 ft | 549 kts | 86° |
| 2026-05-04 22:08 | -29.00181 | -12.71409 | 31294 ft | 548 kts | 86° |
| 2026-05-04 22:08 | -29.00111 | -12.62701 | 31292 ft | 548 kts | 86° |
| 2026-05-04 22:09 | -29.00037 | -12.54001 | 31294 ft | 548 kts | 86° |
| 2026-05-04 22:09 | -28.99991 | -12.45305 | 31292 ft | 548 kts | 88° |
| 2026-05-04 22:10 | -29.00072 | -12.36601 | 31292 ft | 548 kts | 88° |
| 2026-05-04 22:10 | -29.00175 | -12.27900 | 31300 ft | 548 kts | 88° |
| 2026-05-04 22:11 | -29.00253 | -12.19200 | 31296 ft | 548 kts | 88° |
| 2026-05-04 22:11 | -29.00311 | -12.10492 | 31303 ft | 548 kts | 88° |
| 2026-05-04 22:12 | -29.00360 | -12.01787 | 31299 ft | 548 kts | 88° |
| 2026-05-04 22:12 | -29.00406 | -11.93078 | 31283 ft | 548 kts | 88° |
| 2026-05-04 22:13 | -29.00447 | -11.84390 | 31300 ft | 546 kts | 88° |
| 2026-05-04 22:13 | -29.00482 | -11.75720 | 31302 ft | 545 kts | 88° |
| 2026-05-04 22:14 | -29.00508 | -11.68528 | 31304 ft | 544 kts | 88° |
| 2026-05-04 22:14 | -29.00536 | -11.58488 | 31307 ft | 543 kts | 88° |
| 2026-05-04 22:15 | -29.00552 | -11.51258 | 31307 ft | 543 kts | 88° |
| 2026-05-04 22:15 | -29.00566 | -11.42623 | 31308 ft | 544 kts | 88° |
| 2026-05-04 22:16 | -29.00574 | -11.33982 | 31308 ft | 544 kts | 88° |
| 2026-05-04 22:16 | -29.00577 | -11.25336 | 31311 ft | 544 kts | 88° |
| 2026-05-04 22:17 | -29.00575 | -11.16688 | 31309 ft | 545 kts | 88° |
| 2026-05-04 22:17 | -29.00567 | -11.08036 | 31312 ft | 545 kts | 88° |
| 2026-05-04 22:18 | -29.00553 | -10.99385 | 31316 ft | 545 kts | 88° |
| 2026-05-04 22:18 | -29.00534 | -10.90784 | 31312 ft | 544 kts | 88° |
| 2026-05-04 22:19 | -29.00509 | -10.82142 | 31316 ft | 544 kts | 88° |
| 2026-05-04 22:19 | -29.00479 | -10.73504 | 31318 ft | 544 kts | 88° |
| 2026-05-04 22:20 | -29.00443 | -10.64867 | 31321 ft | 544 kts | 88° |
| 2026-05-04 22:20 | -29.00402 | -10.56230 | 31319 ft | 544 kts | 88° |
| 2026-05-04 22:21 | -29.00356 | -10.47597 | 31319 ft | 543 kts | 88° |
| 2026-05-04 22:21 | -29.00303 | -10.38967 | 31321 ft | 543 kts | 88° |
| 2026-05-04 22:22 | -29.00246 | -10.30334 | 31323 ft | 543 kts | 88° |
| 2026-05-04 22:22 | -29.00183 | -10.21698 | 31323 ft | 544 kts | 88° |
| 2026-05-04 22:23 | -29.00114 | -10.13072 | 31321 ft | 543 kts | 88° |
| 2026-05-04 22:23 | -29.00041 | -10.04449 | 31322 ft | 542 kts | 88° |
| 2026-05-04 22:24 | -28.99392 | -9.95900 | 31318 ft | 539 kts | 76° |
| 2026-05-04 22:24 | -28.97826 | -9.87548 | 31331 ft | 538 kts | 75° |
| 2026-05-04 22:25 | -28.96247 | -9.79199 | 31327 ft | 538 kts | 76° |
| 2026-05-04 22:25 | -28.94704 | -9.70832 | 31326 ft | 539 kts | 76° |
| 2026-05-04 22:26 | -28.93179 | -9.62462 | 31329 ft | 539 kts | 76° |
| 2026-05-04 22:26 | -28.91651 | -9.54091 | 31329 ft | 539 kts | 76° |
| 2026-05-04 22:27 | -28.90115 | -9.45728 | 31326 ft | 538 kts | 76° |
| 2026-05-04 22:27 | -28.88578 | -9.37392 | 31329 ft | 536 kts | 76° |
| 2026-05-04 22:28 | -28.87037 | -9.29073 | 31331 ft | 535 kts | 76° |
| 2026-05-04 22:28 | -28.85494 | -9.20773 | 31334 ft | 535 kts | 76° |
| 2026-05-04 22:29 | -28.83947 | -9.12484 | 31334 ft | 534 kts | 76° |
| 2026-05-04 22:29 | -28.82396 | -9.04196 | 31337 ft | 535 kts | 76° |
| 2026-05-04 22:30 | -28.80838 | -8.95903 | 31335 ft | 535 kts | 76° |
| 2026-05-04 22:30 | -28.79284 | -8.87661 | 31342 ft | 536 kts | 76° |
| 2026-05-04 22:31 | -28.77712 | -8.79356 | 31338 ft | 536 kts | 76° |
| 2026-05-04 22:31 | -28.76135 | -8.71046 | 31344 ft | 537 kts | 76° |
| 2026-05-04 22:32 | -28.74550 | -8.62730 | 31342 ft | 537 kts | 76° |
| 2026-05-04 22:32 | -28.72960 | -8.54416 | 31342 ft | 537 kts | 76° |
| 2026-05-04 22:33 | -28.71365 | -8.46103 | 31347 ft | 537 kts | 76° |
| 2026-05-04 22:33 | -28.69765 | -8.37793 | 31341 ft | 537 kts | 76° |
| 2026-05-04 22:34 | -28.68160 | -8.29487 | 31352 ft | 536 kts | 76° |
| 2026-05-04 22:34 | -28.66554 | -8.21200 | 31342 ft | 536 kts | 76° |
| 2026-05-04 22:35 | -28.64944 | -8.12926 | 31341 ft | 535 kts | 76° |
| 2026-05-04 22:35 | -28.63331 | -8.04662 | 31347 ft | 535 kts | 76° |
| 2026-05-04 22:36 | -28.61714 | -7.96407 | 31346 ft | 534 kts | 76° |
| 2026-05-04 22:36 | -28.60091 | -7.88152 | 31342 ft | 534 kts | 76° |
| 2026-05-04 22:37 | -28.58474 | -7.79954 | 31338 ft | 535 kts | 76° |
| 2026-05-04 22:37 | -28.56841 | -7.71701 | 31357 ft | 535 kts | 76° |
| 2026-05-04 22:38 | -28.55203 | -7.63449 | 31343 ft | 535 kts | 76° |
| 2026-05-04 22:38 | -28.53559 | -7.55200 | 31343 ft | 535 kts | 76° |
| 2026-05-04 22:39 | -28.51911 | -7.46952 | 31353 ft | 535 kts | 76° |
| 2026-05-04 22:39 | -28.50258 | -7.38709 | 31358 ft | 534 kts | 76° |
| 2026-05-04 22:40 | -28.48601 | -7.30476 | 31343 ft | 534 kts | 76° |
| 2026-05-04 22:40 | -28.46940 | -7.22249 | 31342 ft | 534 kts | 76° |
| 2026-05-04 22:41 | -28.45276 | -7.14034 | 31355 ft | 533 kts | 76° |
| 2026-05-04 22:41 | -28.43611 | -7.05840 | 31349 ft | 532 kts | 76° |
| 2026-05-04 22:42 | -28.41944 | -6.97663 | 31357 ft | 531 kts | 76° |
| 2026-05-04 22:42 | -28.40274 | -6.89500 | 31357 ft | 531 kts | 76° |
| 2026-05-04 22:43 | -28.38599 | -6.81338 | 31366 ft | 531 kts | 76° |
| 2026-05-04 22:43 | -28.36919 | -6.73175 | 31355 ft | 531 kts | 76° |
| 2026-05-04 22:44 | -28.35233 | -6.65013 | 31361 ft | 531 kts | 76° |
| 2026-05-04 22:44 | -28.33542 | -6.56851 | 31362 ft | 531 kts | 76° |
| 2026-05-04 22:45 | -28.31845 | -6.48685 | 31357 ft | 532 kts | 76° |
| 2026-05-04 22:45 | -28.29289 | -6.36437 | 31358 ft | 532 kts | 76° |
| 2026-05-04 22:46 | -28.27579 | -6.28271 | 31357 ft | 532 kts | 76° |
| 2026-05-04 22:46 | -28.25874 | -6.20161 | 31353 ft | 532 kts | 76° |
| 2026-05-04 22:47 | -28.24155 | -6.12005 | 31361 ft | 532 kts | 76° |
| 2026-05-04 22:47 | -28.22430 | -6.03851 | 31367 ft | 531 kts | 76° |
| 2026-05-04 22:48 | -28.20703 | -5.95707 | 31360 ft | 531 kts | 76° |
| 2026-05-04 22:48 | -28.18971 | -5.87568 | 31359 ft | 531 kts | 76° |
| 2026-05-04 22:49 | -28.17235 | -5.79436 | 31353 ft | 531 kts | 76° |
| 2026-05-04 22:49 | -28.15496 | -5.71312 | 31348 ft | 531 kts | 76° |
| 2026-05-04 22:50 | -28.13751 | -5.63186 | 31356 ft | 530 kts | 76° |
| 2026-05-04 22:50 | -28.12002 | -5.55070 | 31363 ft | 530 kts | 76° |
| 2026-05-04 22:51 | -28.10248 | -5.46952 | 31353 ft | 530 kts | 76° |
| 2026-05-04 22:51 | -28.08490 | -5.38841 | 31353 ft | 530 kts | 76° |
| 2026-05-04 22:52 | -28.06727 | -5.30732 | 31355 ft | 530 kts | 76° |
| 2026-05-04 22:52 | -28.04971 | -5.22676 | 31354 ft | 530 kts | 76° |
| 2026-05-04 22:53 | -28.03198 | -5.14568 | 31352 ft | 530 kts | 76° |
| 2026-05-04 22:53 | -28.01422 | -5.06469 | 31357 ft | 530 kts | 76° |
| 2026-05-04 22:54 | -27.99647 | -4.98370 | 31342 ft | 530 kts | 77° |
| 2026-05-04 22:54 | -27.98109 | -4.90218 | 31344 ft | 529 kts | 79° |
| 2026-05-04 22:55 | -27.96699 | -4.82055 | 31353 ft | 528 kts | 80° |
| 2026-05-04 22:55 | -27.95265 | -4.73915 | 31350 ft | 527 kts | 79° |
| 2026-05-04 22:56 | -27.93791 | -4.65796 | 31354 ft | 527 kts | 79° |
| 2026-05-04 22:56 | -27.92301 | -4.57690 | 31348 ft | 527 kts | 79° |
| 2026-05-04 22:57 | -27.90806 | -4.49588 | 31351 ft | 526 kts | 79° |
| 2026-05-04 22:57 | -27.89310 | -4.41489 | 31353 ft | 526 kts | 79° |
| 2026-05-04 22:58 | -27.87811 | -4.33397 | 31352 ft | 526 kts | 79° |
| 2026-05-04 22:58 | -27.86308 | -4.25307 | 31359 ft | 526 kts | 79° |
| 2026-05-04 22:59 | -27.84799 | -4.17218 | 31355 ft | 526 kts | 79° |
| 2026-05-04 22:59 | -27.83295 | -4.09182 | 31358 ft | 526 kts | 79° |
| 2026-05-04 23:00 | -27.81778 | -4.01094 | 31357 ft | 526 kts | 79° |
| 2026-05-04 23:00 | -27.80253 | -3.93005 | 31356 ft | 527 kts | 79° |
| 2026-05-04 23:01 | -27.78723 | -3.84915 | 31359 ft | 527 kts | 79° |
| 2026-05-04 23:01 | -27.77188 | -3.76826 | 31361 ft | 527 kts | 79° |
| 2026-05-04 23:02 | -27.75650 | -3.68745 | 31360 ft | 526 kts | 79° |
| 2026-05-04 23:02 | -27.74109 | -3.60674 | 31352 ft | 526 kts | 79° |
| 2026-05-04 23:03 | -27.72826 | -3.53974 | 31344 ft | 525 kts | 79° |
| 2026-05-04 23:03 | -27.71280 | -3.45927 | 31352 ft | 524 kts | 79° |
| 2026-05-04 23:04 | -27.69732 | -3.37897 | 31361 ft | 523 kts | 79° |
| 2026-05-04 23:04 | -27.68182 | -3.29882 | 31352 ft | 522 kts | 79° |
| 2026-05-04 23:05 | -27.66630 | -3.21880 | 31348 ft | 522 kts | 79° |
| 2026-05-04 23:05 | -27.65075 | -3.13890 | 31351 ft | 522 kts | 79° |
| 2026-05-04 23:06 | -27.63515 | -3.05902 | 31353 ft | 522 kts | 79° |
| 2026-05-04 23:06 | -27.61950 | -2.97914 | 31343 ft | 522 kts | 79° |
| 2026-05-04 23:07 | -27.60381 | -2.89926 | 31353 ft | 522 kts | 79° |
| 2026-05-04 23:07 | -27.58805 | -2.81937 | 31354 ft | 522 kts | 79° |
| 2026-05-04 23:08 | -27.57225 | -2.73947 | 31356 ft | 522 kts | 79° |
| 2026-05-04 23:08 | -27.55640 | -2.65956 | 31351 ft | 522 kts | 79° |
| 2026-05-04 23:09 | -27.54049 | -2.57967 | 31341 ft | 522 kts | 79° |
| 2026-05-04 23:09 | -27.52456 | -2.49985 | 31352 ft | 522 kts | 79° |
| 2026-05-04 23:10 | -27.50857 | -2.42003 | 31350 ft | 522 kts | 79° |
| 2026-05-04 23:10 | -27.49266 | -2.34086 | 31341 ft | 522 kts | 79° |
| 2026-05-04 23:11 | -27.47659 | -2.26114 | 31347 ft | 522 kts | 79° |
| 2026-05-04 23:11 | -27.46048 | -2.18143 | 31349 ft | 522 kts | 78° |
| 2026-05-04 23:12 | -27.44432 | -2.10173 | 31341 ft | 522 kts | 78° |
| 2026-05-04 23:12 | -27.42810 | -2.02203 | 31356 ft | 522 kts | 78° |
| 2026-05-04 23:13 | -27.41185 | -1.94240 | 31341 ft | 522 kts | 78° |
| 2026-05-04 23:13 | -27.39555 | -1.86274 | 31339 ft | 523 kts | 78° |
| 2026-05-04 23:14 | -27.37919 | -1.78305 | 31344 ft | 523 kts | 78° |
| 2026-05-04 23:14 | -27.36277 | -1.70337 | 31342 ft | 523 kts | 78° |
| 2026-05-04 23:15 | -27.34630 | -1.62365 | 31343 ft | 523 kts | 78° |
| 2026-05-04 23:15 | -27.32979 | -1.54395 | 31341 ft | 523 kts | 78° |
| 2026-05-04 23:16 | -27.31323 | -1.46423 | 31339 ft | 524 kts | 77° |
| 2026-05-04 23:16 | -27.29659 | -1.38445 | 31336 ft | 524 kts | 77° |
| 2026-05-04 23:17 | -27.27991 | -1.30468 | 31334 ft | 524 kts | 77° |
| 2026-05-04 23:17 | -27.26318 | -1.22491 | 31334 ft | 524 kts | 77° |
| 2026-05-04 23:18 | -27.24640 | -1.14514 | 31338 ft | 524 kts | 77° |
| 2026-05-04 23:18 | -27.22958 | -1.06541 | 31334 ft | 524 kts | 77° |
| 2026-05-04 23:19 | -27.21272 | -0.98572 | 31334 ft | 524 kts | 77° |
| 2026-05-04 23:19 | -27.19580 | -0.90603 | 31334 ft | 524 kts | 77° |
| 2026-05-04 23:20 | -27.17885 | -0.82640 | 31334 ft | 524 kts | 77° |
| 2026-05-04 23:20 | -27.16197 | -0.74734 | 31333 ft | 524 kts | 77° |
| 2026-05-04 23:21 | -27.14494 | -0.66777 | 31328 ft | 524 kts | 77° |
| 2026-05-04 23:21 | -27.12788 | -0.58834 | 31329 ft | 523 kts | 77° |
| 2026-05-04 23:22 | -27.11078 | -0.50893 | 31328 ft | 523 kts | 77° |
| 2026-05-04 23:22 | -27.09364 | -0.42959 | 31329 ft | 523 kts | 77° |
| 2026-05-04 23:23 | -27.07646 | -0.35027 | 31329 ft | 523 kts | 77° |
| 2026-05-04 23:23 | -27.05924 | -0.27102 | 31329 ft | 523 kts | 76° |
| 2026-05-04 23:24 | -27.04195 | -0.19168 | 31329 ft | 523 kts | 76° |
| 2026-05-04 23:24 | -27.02463 | -0.11240 | 31330 ft | 523 kts | 76° |
| 2026-05-04 23:25 | -27.00727 | -0.03314 | 31328 ft | 524 kts | 76° |
| 2026-05-04 23:25 | -26.99050 | 0.04630 | 31326 ft | 524 kts | 78° |
| 2026-05-04 23:26 | -26.97616 | 0.12635 | 31326 ft | 524 kts | 79° |
| 2026-05-04 23:26 | -26.96232 | 0.20598 | 31327 ft | 524 kts | 79° |
| 2026-05-04 23:27 | -26.94798 | 0.28605 | 31323 ft | 524 kts | 79° |
| 2026-05-04 23:27 | -26.93332 | 0.36610 | 31321 ft | 524 kts | 79° |
| 2026-05-04 23:28 | -26.91856 | 0.44611 | 31324 ft | 525 kts | 79° |
| 2026-05-04 23:28 | -26.90375 | 0.52618 | 31320 ft | 525 kts | 79° |
| 2026-05-04 23:29 | -26.88893 | 0.60624 | 31321 ft | 525 kts | 79° |
| 2026-05-04 23:29 | -26.87406 | 0.68625 | 31321 ft | 525 kts | 79° |
| 2026-05-04 23:30 | -26.85916 | 0.76622 | 31321 ft | 524 kts | 79° |
| 2026-05-04 23:30 | -26.84423 | 0.84605 | 31316 ft | 524 kts | 79° |
| 2026-05-04 23:31 | -26.82926 | 0.92580 | 31312 ft | 523 kts | 79° |
| 2026-05-04 23:31 | -26.81427 | 1.00543 | 31312 ft | 522 kts | 79° |
| 2026-05-04 23:32 | -26.79925 | 1.08497 | 31310 ft | 522 kts | 79° |
| 2026-05-04 23:32 | -26.78419 | 1.16448 | 31316 ft | 522 kts | 79° |
| 2026-05-04 23:33 | -26.76908 | 1.24401 | 31312 ft | 523 kts | 79° |
| 2026-05-04 23:33 | -26.75401 | 1.32302 | 31309 ft | 523 kts | 79° |
| 2026-05-04 23:34 | -26.73880 | 1.40256 | 31305 ft | 523 kts | 79° |
| 2026-05-04 23:34 | -26.72353 | 1.48213 | 31305 ft | 523 kts | 79° |
| 2026-05-04 23:35 | -26.70821 | 1.56171 | 31309 ft | 524 kts | 79° |
| 2026-05-04 23:35 | -26.69283 | 1.64135 | 31302 ft | 524 kts | 79° |
| 2026-05-04 23:36 | -26.67740 | 1.72101 | 31300 ft | 524 kts | 79° |
| 2026-05-04 23:36 | -26.66193 | 1.80064 | 31300 ft | 524 kts | 79° |
| 2026-05-04 23:37 | -26.64640 | 1.88028 | 31297 ft | 524 kts | 78° |
| 2026-05-04 23:37 | -26.63083 | 1.95991 | 31296 ft | 525 kts | 79° |
| 2026-05-04 23:38 | -26.61520 | 2.03958 | 31296 ft | 525 kts | 79° |
| 2026-05-04 23:38 | -26.59952 | 2.11929 | 31293 ft | 525 kts | 79° |
| 2026-05-04 23:39 | -26.58379 | 2.19899 | 31294 ft | 525 kts | 78° |
| 2026-05-04 23:39 | -26.56800 | 2.27870 | 31294 ft | 525 kts | 78° |
| 2026-05-04 23:40 | -26.55216 | 2.35847 | 31292 ft | 526 kts | 79° |
| 2026-05-04 23:40 | -26.53638 | 2.43772 | 31288 ft | 526 kts | 79° |
| 2026-05-04 23:41 | -26.52045 | 2.51744 | 31289 ft | 526 kts | 79° |
| 2026-05-04 23:41 | -26.50447 | 2.59712 | 31288 ft | 526 kts | 79° |
| 2026-05-04 23:42 | -26.48847 | 2.67676 | 31296 ft | 526 kts | 79° |
| 2026-05-04 23:42 | -26.47241 | 2.75639 | 31285 ft | 526 kts | 79° |
| 2026-05-04 23:43 | -26.45630 | 2.83604 | 31288 ft | 526 kts | 79° |
| 2026-05-04 23:43 | -26.44014 | 2.91569 | 31283 ft | 526 kts | 79° |
| 2026-05-04 23:44 | -26.42393 | 2.99536 | 31283 ft | 527 kts | 78° |
| 2026-05-04 23:44 | -26.40767 | 3.07502 | 31292 ft | 527 kts | 79° |
| 2026-05-04 23:45 | -26.39134 | 3.15481 | 31283 ft | 528 kts | 79° |
| 2026-05-04 23:45 | -26.37495 | 3.23464 | 31281 ft | 528 kts | 79° |
| 2026-05-04 23:46 | -26.35849 | 3.31455 | 31277 ft | 529 kts | 79° |
| 2026-05-04 23:46 | -26.34199 | 3.39446 | 31277 ft | 529 kts | 79° |
| 2026-05-04 23:47 | -26.32543 | 3.47437 | 31275 ft | 529 kts | 79° |
| 2026-05-04 23:47 | -26.30884 | 3.55422 | 31274 ft | 529 kts | 79° |
| 2026-05-04 23:48 | -26.29220 | 3.63406 | 31275 ft | 529 kts | 78° |
| 2026-05-04 23:48 | -26.27553 | 3.71381 | 31274 ft | 529 kts | 78° |
| 2026-05-04 23:49 | -26.25882 | 3.79354 | 31272 ft | 528 kts | 78° |
| 2026-05-04 23:49 | -26.24205 | 3.87333 | 31273 ft | 529 kts | 79° |
| 2026-05-04 23:50 | -26.22521 | 3.95322 | 31273 ft | 530 kts | 79° |
| 2026-05-04 23:50 | -26.21116 | 4.01966 | 31272 ft | 531 kts | 78° |
| 2026-05-04 23:51 | -26.19421 | 4.09966 | 31262 ft | 531 kts | 78° |
| 2026-05-04 23:51 | -26.17722 | 4.17956 | 31264 ft | 530 kts | 78° |
| 2026-05-04 23:52 | -26.16019 | 4.25941 | 31264 ft | 530 kts | 79° |
| 2026-05-04 23:52 | -26.14312 | 4.33926 | 31264 ft | 531 kts | 78° |
| 2026-05-04 23:53 | -26.12599 | 4.41918 | 31264 ft | 531 kts | 78° |
| 2026-05-04 23:53 | -26.10880 | 4.49912 | 31264 ft | 531 kts | 78° |
| 2026-05-04 23:54 | -26.09156 | 4.57909 | 31276 ft | 532 kts | 79° |
| 2026-05-04 23:54 | -26.07425 | 4.65910 | 31266 ft | 533 kts | 79° |
| 2026-05-04 23:55 | -26.05688 | 4.73924 | 31251 ft | 533 kts | 78° |
| 2026-05-04 23:56 | -26.03081 | 4.85901 | 31256 ft | 534 kts | 78° |
| 2026-05-04 23:56 | -26.01319 | 4.93976 | 31258 ft | 534 kts | 78° |
| 2026-05-04 23:57 | -25.99370 | 5.01891 | 31248 ft | 537 kts | 72° |
| 2026-05-04 23:57 | -25.96497 | 5.09554 | 31258 ft | 537 kts | 68° |
| 2026-05-04 23:58 | -25.93534 | 5.17185 | 31254 ft | 538 kts | 69° |
| 2026-05-04 23:58 | -25.90602 | 5.24832 | 31250 ft | 538 kts | 69° |
| 2026-05-04 23:59 | -25.87695 | 5.32488 | 31249 ft | 538 kts | 69° |
| 2026-05-04 23:59 | -25.84787 | 5.40154 | 31244 ft | 539 kts | 69° |
| 2026-05-05 00:00 | -25.81872 | 5.47815 | 31249 ft | 538 kts | 69° |
| 2026-05-05 00:00 | -25.78954 | 5.55466 | 31253 ft | 538 kts | 69° |
| 2026-05-05 00:01 | -25.76031 | 5.63109 | 31247 ft | 538 kts | 69° |
| 2026-05-05 00:01 | -25.73106 | 5.70747 | 31243 ft | 538 kts | 69° |
| 2026-05-05 00:02 | -25.70175 | 5.78387 | 31251 ft | 539 kts | 69° |
| 2026-05-05 00:02 | -25.67236 | 5.86031 | 31242 ft | 539 kts | 69° |
| 2026-05-05 00:03 | -25.64290 | 5.93682 | 31240 ft | 540 kts | 69° |
| 2026-05-05 00:03 | -25.61338 | 6.01333 | 31239 ft | 540 kts | 69° |
| 2026-05-05 00:04 | -25.58381 | 6.08983 | 31250 ft | 540 kts | 69° |
| 2026-05-05 00:04 | -25.55418 | 6.16635 | 31240 ft | 541 kts | 69° |
| 2026-05-05 00:05 | -25.52447 | 6.24293 | 31235 ft | 541 kts | 69° |
| 2026-05-05 00:05 | -25.49471 | 6.31952 | 31223 ft | 541 kts | 69° |
| 2026-05-05 00:06 | -25.46513 | 6.39547 | 31233 ft | 541 kts | 69° |
| 2026-05-05 00:06 | -25.43532 | 6.47187 | 31245 ft | 541 kts | 69° |
| 2026-05-05 00:07 | -25.40548 | 6.54825 | 31231 ft | 541 kts | 69° |
| 2026-05-05 00:07 | -25.37555 | 6.62468 | 31229 ft | 542 kts | 69° |
| 2026-05-05 00:08 | -25.34559 | 6.70107 | 31224 ft | 542 kts | 69° |
| 2026-05-05 00:08 | -25.31557 | 6.77748 | 31227 ft | 542 kts | 69° |
| 2026-05-05 00:09 | -25.28550 | 6.85388 | 31243 ft | 542 kts | 69° |
| 2026-05-05 00:09 | -25.25533 | 6.93038 | 31221 ft | 543 kts | 69° |
| 2026-05-05 00:10 | -25.22509 | 7.00692 | 31225 ft | 544 kts | 69° |
| 2026-05-05 00:10 | -25.19477 | 7.08353 | 31218 ft | 545 kts | 69° |
| 2026-05-05 00:11 | -25.16438 | 7.16018 | 31213 ft | 545 kts | 69° |
| 2026-05-05 00:11 | -25.13396 | 7.23677 | 31214 ft | 545 kts | 69° |
| 2026-05-05 00:12 | -25.10349 | 7.31334 | 31212 ft | 545 kts | 69° |
| 2026-05-05 00:12 | -25.07300 | 7.38982 | 31212 ft | 544 kts | 69° |
| 2026-05-05 00:13 | -25.04250 | 7.46621 | 31211 ft | 544 kts | 69° |
| 2026-05-05 00:13 | -25.01197 | 7.54253 | 31209 ft | 544 kts | 69° |
| 2026-05-05 00:14 | -24.98160 | 7.61830 | 31220 ft | 544 kts | 69° |
| 2026-05-05 00:14 | -24.95097 | 7.69460 | 31211 ft | 545 kts | 69° |
| 2026-05-05 00:15 | -24.92028 | 7.77091 | 31206 ft | 545 kts | 69° |
| 2026-05-05 00:15 | -24.88953 | 7.84725 | 31206 ft | 545 kts | 68° |
| 2026-05-05 00:16 | -24.85872 | 7.92358 | 31211 ft | 545 kts | 68° |
| 2026-05-05 00:16 | -24.82785 | 7.99995 | 31222 ft | 546 kts | 68° |
| 2026-05-05 00:17 | -24.79692 | 8.07632 | 31191 ft | 547 kts | 68° |
| 2026-05-05 00:17 | -24.76593 | 8.15270 | 31199 ft | 546 kts | 68° |
| 2026-05-05 00:18 | -24.73491 | 8.22901 | 31203 ft | 546 kts | 68° |
| 2026-05-05 00:18 | -24.70387 | 8.30524 | 31204 ft | 546 kts | 68° |
| 2026-05-05 00:19 | -24.67281 | 8.38141 | 31208 ft | 546 kts | 68° |
| 2026-05-05 00:19 | -24.64165 | 8.45768 | 31206 ft | 547 kts | 68° |
| 2026-05-05 00:20 | -24.61041 | 8.53402 | 31193 ft | 548 kts | 68° |
| 2026-05-05 00:20 | -24.57932 | 8.60985 | 31194 ft | 548 kts | 68° |
| 2026-05-05 00:21 | -24.54776 | 8.68670 | 31192 ft | 548 kts | 68° |
| 2026-05-05 00:21 | -24.51657 | 8.76252 | 31199 ft | 549 kts | 68° |
| 2026-05-05 00:22 | -24.48508 | 8.83894 | 31186 ft | 550 kts | 68° |
| 2026-05-05 00:22 | -24.45351 | 8.91541 | 31186 ft | 550 kts | 68° |
| 2026-05-05 00:23 | -24.42188 | 8.99191 | 31175 ft | 550 kts | 68° |
| 2026-05-05 00:23 | -24.39025 | 9.06825 | 31180 ft | 549 kts | 68° |
| 2026-05-05 00:24 | -24.35862 | 9.14449 | 31185 ft | 550 kts | 68° |
| 2026-05-05 00:24 | -24.32691 | 9.22079 | 31181 ft | 550 kts | 68° |
| 2026-05-05 00:25 | -24.29513 | 9.29712 | 31180 ft | 550 kts | 68° |
| 2026-05-05 00:25 | -24.26331 | 9.37343 | 31180 ft | 551 kts | 68° |
| 2026-05-05 00:26 | -24.23143 | 9.44975 | 31172 ft | 551 kts | 68° |
| 2026-05-05 00:26 | -24.19947 | 9.52612 | 31177 ft | 552 kts | 67° |
| 2026-05-05 00:27 | -24.16744 | 9.60253 | 31176 ft | 552 kts | 67° |
| 2026-05-05 00:27 | -24.13555 | 9.67848 | 31174 ft | 553 kts | 67° |
| 2026-05-05 00:28 | -24.10341 | 9.75492 | 31167 ft | 553 kts | 67° |
| 2026-05-05 00:28 | -24.07121 | 9.83136 | 31172 ft | 553 kts | 67° |
| 2026-05-05 00:29 | -24.03900 | 9.90772 | 31157 ft | 553 kts | 67° |
| 2026-05-05 00:29 | -24.00677 | 9.98402 | 31164 ft | 552 kts | 67° |
| 2026-05-05 00:30 | -23.97978 | 10.06228 | 31167 ft | 549 kts | 74° |
| 2026-05-05 00:30 | -23.95603 | 10.14161 | 31162 ft | 549 kts | 74° |
| 2026-05-05 00:31 | -23.93210 | 10.22096 | 31179 ft | 550 kts | 74° |
| 2026-05-05 00:31 | -23.90777 | 10.30032 | 31163 ft | 551 kts | 73° |
| 2026-05-05 00:32 | -23.88321 | 10.37972 | 31157 ft | 552 kts | 73° |
| 2026-05-05 00:32 | -23.85857 | 10.45919 | 31156 ft | 552 kts | 73° |
| 2026-05-05 00:33 | -23.83392 | 10.53866 | 31157 ft | 552 kts | 73° |
| 2026-05-05 00:33 | -23.80925 | 10.61810 | 31155 ft | 553 kts | 73° |
| 2026-05-05 00:34 | -23.78450 | 10.69760 | 31153 ft | 553 kts | 73° |
| 2026-05-05 00:34 | -23.75972 | 10.77705 | 31152 ft | 553 kts | 73° |
| 2026-05-05 00:35 | -23.73489 | 10.85648 | 31144 ft | 553 kts | 73° |
| 2026-05-05 00:35 | -23.71021 | 10.93531 | 31146 ft | 553 kts | 73° |
| 2026-05-05 00:36 | -23.68531 | 11.01465 | 31144 ft | 553 kts | 73° |
| 2026-05-05 00:36 | -23.66037 | 11.09396 | 31134 ft | 552 kts | 73° |
| 2026-05-05 00:37 | -23.63546 | 11.17301 | 31139 ft | 551 kts | 73° |
| 2026-05-05 00:37 | -23.61056 | 11.25189 | 31141 ft | 550 kts | 73° |
| 2026-05-05 00:38 | -23.58564 | 11.33067 | 31150 ft | 550 kts | 73° |
| 2026-05-05 00:38 | -23.56068 | 11.40944 | 31147 ft | 550 kts | 73° |
| 2026-05-05 00:39 | -23.53565 | 11.48827 | 31139 ft | 551 kts | 72° |
| 2026-05-05 00:39 | -23.51054 | 11.56717 | 31137 ft | 551 kts | 72° |
| 2026-05-05 00:40 | -23.48539 | 11.64605 | 31142 ft | 551 kts | 72° |
| 2026-05-05 00:40 | -23.46445 | 11.71164 | 31144 ft | 552 kts | 72° |
| 2026-05-05 00:41 | -23.43919 | 11.79058 | 31130 ft | 552 kts | 72° |
| 2026-05-05 00:41 | -23.41387 | 11.86955 | 31134 ft | 553 kts | 72° |
| 2026-05-05 00:42 | -23.38850 | 11.94853 | 31137 ft | 553 kts | 72° |
| 2026-05-05 00:42 | -23.36309 | 12.02750 | 31138 ft | 553 kts | 72° |
| 2026-05-05 00:43 | -23.33763 | 12.10644 | 31138 ft | 553 kts | 72° |
| 2026-05-05 00:43 | -23.31212 | 12.18540 | 31124 ft | 553 kts | 72° |
| 2026-05-05 00:44 | -23.28655 | 12.26439 | 31137 ft | 554 kts | 72° |
| 2026-05-05 00:44 | -23.26093 | 12.34337 | 31131 ft | 554 kts | 72° |
| 2026-05-05 00:45 | -23.23534 | 12.42213 | 31120 ft | 552 kts | 71° |
| 2026-05-05 00:45 | -23.20995 | 12.50012 | 31128 ft | 550 kts | 71° |
| 2026-05-05 00:46 | -23.18442 | 12.57836 | 31123 ft | 549 kts | 71° |
| 2026-05-05 00:46 | -23.15890 | 12.65645 | 31123 ft | 548 kts | 71° |
| 2026-05-05 00:47 | -23.13337 | 12.73444 | 31128 ft | 548 kts | 71° |
| 2026-05-05 00:47 | -23.10779 | 12.81243 | 31130 ft | 548 kts | 71° |
| 2026-05-05 00:48 | -23.08213 | 12.89050 | 31124 ft | 549 kts | 71° |
| 2026-05-05 00:48 | -23.05639 | 12.96869 | 31121 ft | 550 kts | 71° |
| 2026-05-05 00:49 | -23.03060 | 13.04690 | 31118 ft | 550 kts | 71° |
| 2026-05-05 00:49 | -23.00477 | 13.12509 | 31113 ft | 551 kts | 71° |
| 2026-05-05 00:50 | -22.98325 | 13.20465 | 31111 ft | 549 kts | 80° |
| 2026-05-05 00:50 | -22.97449 | 13.28675 | 31118 ft | 546 kts | 91° |
| 2026-05-05 00:51 | -22.97543 | 13.36899 | 31126 ft | 545 kts | 93° |
| 2026-05-05 00:51 | -22.97680 | 13.45127 | 31110 ft | 546 kts | 93° |
| 2026-05-05 00:52 | -22.97769 | 13.53366 | 31122 ft | 547 kts | 92° |
| 2026-05-05 00:52 | -22.97826 | 13.61568 | 31113 ft | 548 kts | 92° |
| 2026-05-05 00:53 | -22.97876 | 13.69834 | 31108 ft | 548 kts | 92° |
| 2026-05-05 00:53 | -22.97924 | 13.78109 | 31109 ft | 548 kts | 92° |
| 2026-05-05 00:54 | -22.97971 | 13.86384 | 31115 ft | 549 kts | 92° |
| 2026-05-05 00:54 | -22.98014 | 13.94666 | 31104 ft | 549 kts | 92° |
| 2026-05-05 00:55 | -22.98052 | 14.02949 | 31107 ft | 549 kts | 92° |
| 2026-05-05 00:55 | -22.98086 | 14.11235 | 31104 ft | 549 kts | 92° |
| 2026-05-05 00:56 | -22.98115 | 14.19521 | 31101 ft | 549 kts | 92° |
| 2026-05-05 00:56 | -22.98140 | 14.27803 | 31101 ft | 549 kts | 92° |
| 2026-05-05 00:57 | -22.98161 | 14.36086 | 31102 ft | 549 kts | 92° |
| 2026-05-05 00:57 | -22.98177 | 14.44366 | 31101 ft | 549 kts | 92° |
| 2026-05-05 00:58 | -22.98190 | 14.52643 | 31104 ft | 549 kts | 92° |
| 2026-05-05 00:58 | -22.98197 | 14.60922 | 31105 ft | 549 kts | 91° |
| 2026-05-05 00:59 | -22.97555 | 14.69177 | 31097 ft | 551 kts | 80° |
| 2026-05-05 00:59 | -22.96097 | 14.77331 | 31105 ft | 551 kts | 79° |
| 2026-05-05 01:00 | -22.94655 | 14.85496 | 31101 ft | 551 kts | 80° |
| 2026-05-05 01:00 | -22.93265 | 14.93671 | 31105 ft | 551 kts | 80° |
| 2026-05-05 01:01 | -22.91892 | 15.01799 | 31101 ft | 551 kts | 80° |
| 2026-05-05 01:01 | -22.90501 | 15.09972 | 31100 ft | 551 kts | 80° |
| 2026-05-05 01:02 | -22.89103 | 15.18148 | 31100 ft | 551 kts | 80° |
| 2026-05-05 01:02 | -22.87691 | 15.26316 | 31102 ft | 551 kts | 80° |
| 2026-05-05 01:03 | -22.86272 | 15.34479 | 31097 ft | 551 kts | 79° |
| 2026-05-05 01:03 | -22.84851 | 15.42637 | 31099 ft | 550 kts | 79° |
| 2026-05-05 01:04 | -22.83428 | 15.50788 | 31097 ft | 550 kts | 79° |
| 2026-05-05 01:04 | -22.81287 | 15.63010 | 31093 ft | 550 kts | 79° |
| 2026-05-05 01:05 | -22.79856 | 15.71153 | 31093 ft | 550 kts | 79° |
| 2026-05-05 01:05 | -22.78418 | 15.79294 | 31088 ft | 550 kts | 79° |
| 2026-05-05 01:06 | -22.76977 | 15.87437 | 31085 ft | 550 kts | 79° |
| 2026-05-05 01:06 | -22.75532 | 15.95581 | 31084 ft | 551 kts | 79° |
| 2026-05-05 01:07 | -22.74083 | 16.03724 | 31078 ft | 551 kts | 78° |
| 2026-05-05 01:07 | -22.72630 | 16.11866 | 31079 ft | 551 kts | 78° |
| 2026-05-05 01:08 | -22.71168 | 16.20012 | 31070 ft | 551 kts | 78° |
| 2026-05-05 01:08 | -22.69704 | 16.28156 | 31077 ft | 551 kts | 78° |
| 2026-05-05 01:09 | -22.68235 | 16.36307 | 31056 ft | 552 kts | 77° |
| 2026-05-05 01:09 | -22.66771 | 16.44408 | 31061 ft | 552 kts | 77° |
| 2026-05-05 01:10 | -22.65292 | 16.52567 | 31056 ft | 552 kts | 77° |
| 2026-05-05 01:10 | -22.63808 | 16.60727 | 31050 ft | 552 kts | 77° |
| 2026-05-05 01:11 | -22.62320 | 16.68884 | 31047 ft | 552 kts | 77° |
| 2026-05-05 01:11 | -22.60829 | 16.77036 | 31038 ft | 552 kts | 77° |
| 2026-05-05 01:12 | -22.59333 | 16.85189 | 31039 ft | 552 kts | 77° |
| 2026-05-05 01:12 | -22.58584 | 16.89265 | 31175 ft | 552 kts | 77° |
| 2026-05-05 01:12 | -22.57835 | 16.93335 | 31199 ft | 552 kts | 77° |
| 2026-05-05 01:13 | -22.56325 | 17.01471 | 31241 ft | 551 kts | 76° |
| 2026-05-05 01:13 | -22.54795 | 17.09603 | 31237 ft | 552 kts | 76° |
| 2026-05-05 01:14 | -22.53258 | 17.17748 | 31222 ft | 553 kts | 76° |
| 2026-05-05 01:14 | -22.51718 | 17.25904 | 31159 ft | 554 kts | 76° |
| 2026-05-05 01:15 | -22.50177 | 17.34060 | 31109 ft | 554 kts | 76° |
| 2026-05-05 01:15 | -22.48551 | 17.42199 | 31184 ft | 552 kts | 70° |
| 2026-05-05 01:16 | -22.45822 | 17.49901 | 31192 ft | 546 kts | 59° |
| 2026-05-05 01:16 | -22.42034 | 17.56883 | 31183 ft | 540 kts | 50° |
| 2026-05-05 01:17 | -22.37897 | 17.63693 | 31139 ft | 543 kts | 50° |
| 2026-05-05 01:17 | -22.33770 | 17.70556 | 31089 ft | 546 kts | 50° |
| 2026-05-05 01:18 | -22.29665 | 17.77458 | 31041 ft | 546 kts | 50° |
| 2026-05-05 01:18 | -22.25565 | 17.84362 | 31022 ft | 545 kts | 49° |
| 2026-05-05 01:19 | -22.21469 | 17.91243 | 31032 ft | 544 kts | 49° |
| 2026-05-05 01:19 | -22.17372 | 17.98109 | 31028 ft | 543 kts | 49° |
| 2026-05-05 01:20 | -22.13283 | 18.04951 | 31029 ft | 542 kts | 49° |
| 2026-05-05 01:20 | -22.09195 | 18.11782 | 31035 ft | 542 kts | 49° |
| 2026-05-05 01:21 | -22.05109 | 18.18605 | 31006 ft | 542 kts | 49° |
| 2026-05-05 01:21 | -22.01017 | 18.25426 | 31032 ft | 543 kts | 49° |
| 2026-05-05 01:22 | -21.96909 | 18.32265 | 31040 ft | 544 kts | 49° |
| 2026-05-05 01:22 | -21.92789 | 18.39117 | 31038 ft | 546 kts | 49° |
| 2026-05-05 01:23 | -21.88660 | 18.45978 | 31033 ft | 546 kts | 49° |
| 2026-05-05 01:23 | -21.84526 | 18.52840 | 31031 ft | 546 kts | 49° |
| 2026-05-05 01:24 | -21.80390 | 18.59686 | 31033 ft | 545 kts | 49° |
| 2026-05-05 01:24 | -21.76242 | 18.66512 | 31033 ft | 545 kts | 49° |
| 2026-05-05 01:25 | -21.72093 | 18.73330 | 31033 ft | 544 kts | 49° |
| 2026-05-05 01:25 | -21.67949 | 18.80138 | 30988 ft | 544 kts | 49° |
| 2026-05-05 01:26 | -21.63846 | 18.86876 | 31031 ft | 541 kts | 49° |
| 2026-05-05 01:26 | -21.59719 | 18.93641 | 31031 ft | 541 kts | 49° |
| 2026-05-05 01:27 | -21.55595 | 19.00393 | 31030 ft | 540 kts | 49° |
| 2026-05-05 01:27 | -21.51468 | 19.07140 | 31030 ft | 540 kts | 49° |
| 2026-05-05 01:28 | -21.47340 | 19.13881 | 31017 ft | 540 kts | 49° |
| 2026-05-05 01:28 | -21.43218 | 19.20608 | 31020 ft | 538 kts | 49° |
| 2026-05-05 01:29 | -21.39799 | 19.26181 | 31018 ft | 538 kts | 49° |
| 2026-05-05 01:29 | -21.35689 | 19.32870 | 31022 ft | 537 kts | 49° |
| 2026-05-05 01:30 | -21.31576 | 19.39555 | 31016 ft | 536 kts | 49° |
| 2026-05-05 01:30 | -21.27461 | 19.46235 | 30995 ft | 536 kts | 49° |
| 2026-05-05 01:31 | -21.23353 | 19.52899 | 31008 ft | 536 kts | 49° |
| 2026-05-05 01:31 | -21.19244 | 19.59556 | 31008 ft | 535 kts | 49° |
| 2026-05-05 01:32 | -21.15134 | 19.66207 | 31011 ft | 536 kts | 49° |
| 2026-05-05 01:32 | -21.11017 | 19.72860 | 31003 ft | 536 kts | 49° |
| 2026-05-05 01:33 | -21.06899 | 19.79508 | 31003 ft | 536 kts | 49° |
| 2026-05-05 01:33 | -21.02782 | 19.86149 | 31000 ft | 535 kts | 49° |
| 2026-05-05 01:34 | -20.98696 | 19.92725 | 30997 ft | 533 kts | 49° |
| 2026-05-05 01:34 | -20.94584 | 19.99324 | 30993 ft | 532 kts | 49° |
| 2026-05-05 01:35 | -20.90475 | 20.05910 | 30994 ft | 532 kts | 49° |
| 2026-05-05 01:35 | -20.86367 | 20.12489 | 30993 ft | 532 kts | 49° |
| 2026-05-05 01:36 | -20.82262 | 20.19058 | 30993 ft | 531 kts | 49° |
| 2026-05-05 01:36 | -20.78156 | 20.25622 | 30993 ft | 531 kts | 49° |
| 2026-05-05 01:37 | -20.74051 | 20.32176 | 30992 ft | 531 kts | 49° |
| 2026-05-05 01:37 | -20.69943 | 20.38728 | 30994 ft | 531 kts | 49° |
| 2026-05-05 01:38 | -20.65831 | 20.45276 | 30992 ft | 531 kts | 49° |
| 2026-05-05 01:38 | -20.61717 | 20.51824 | 30995 ft | 530 kts | 49° |
| 2026-05-05 01:39 | -20.57606 | 20.58357 | 30985 ft | 530 kts | 49° |
| 2026-05-05 01:39 | -20.53495 | 20.64884 | 30990 ft | 529 kts | 49° |
| 2026-05-05 01:40 | -20.49390 | 20.71394 | 30983 ft | 528 kts | 50° |
| 2026-05-05 01:40 | -20.45315 | 20.77849 | 30994 ft | 528 kts | 50° |
| 2026-05-05 01:41 | -20.41214 | 20.84337 | 30992 ft | 528 kts | 50° |
| 2026-05-05 01:41 | -20.37110 | 20.90824 | 30995 ft | 528 kts | 50° |
| 2026-05-05 01:42 | -20.33003 | 20.97312 | 30995 ft | 528 kts | 50° |
| 2026-05-05 01:42 | -20.28896 | 21.03797 | 30996 ft | 528 kts | 50° |
| 2026-05-05 01:43 | -20.24795 | 21.10294 | 30995 ft | 529 kts | 50° |
| 2026-05-05 01:43 | -20.20690 | 21.16787 | 30982 ft | 529 kts | 50° |
| 2026-05-05 01:44 | -20.16574 | 21.23268 | 30993 ft | 528 kts | 50° |
| 2026-05-05 01:44 | -20.12449 | 21.29745 | 30968 ft | 528 kts | 50° |
| 2026-05-05 01:45 | -20.08330 | 21.36212 | 30990 ft | 528 kts | 50° |
| 2026-05-05 01:45 | -20.04208 | 21.42678 | 30993 ft | 528 kts | 50° |
| 2026-05-05 01:46 | -20.00083 | 21.49143 | 30992 ft | 528 kts | 50° |
| 2026-05-05 01:46 | -19.95956 | 21.55604 | 30986 ft | 528 kts | 50° |
| 2026-05-05 01:47 | -19.91825 | 21.62065 | 30988 ft | 528 kts | 50° |
| 2026-05-05 01:47 | -19.87689 | 21.68527 | 30988 ft | 528 kts | 50° |
| 2026-05-05 01:48 | -19.83555 | 21.74978 | 30988 ft | 528 kts | 50° |
| 2026-05-05 01:48 | -19.79418 | 21.81426 | 30981 ft | 528 kts | 50° |
| 2026-05-05 01:49 | -19.75310 | 21.87822 | 30987 ft | 528 kts | 50° |
| 2026-05-05 01:49 | -19.71171 | 21.94260 | 30987 ft | 527 kts | 50° |
| 2026-05-05 01:50 | -19.67035 | 22.00687 | 30988 ft | 527 kts | 50° |
| 2026-05-05 01:50 | -19.62893 | 22.07116 | 30990 ft | 528 kts | 50° |
| 2026-05-05 01:51 | -19.58749 | 22.13540 | 30978 ft | 528 kts | 50° |
| 2026-05-05 01:51 | -19.54601 | 22.19965 | 30990 ft | 528 kts | 50° |
| 2026-05-05 01:52 | -19.50448 | 22.26391 | 30984 ft | 528 kts | 50° |
| 2026-05-05 01:52 | -19.46291 | 22.32816 | 30980 ft | 529 kts | 50° |
| 2026-05-05 01:53 | -19.42130 | 22.39240 | 30982 ft | 529 kts | 50° |
| 2026-05-05 01:53 | -19.37968 | 22.45660 | 30984 ft | 529 kts | 50° |
| 2026-05-05 01:54 | -19.33834 | 22.52029 | 30966 ft | 528 kts | 51° |
| 2026-05-05 01:54 | -19.29679 | 22.58426 | 30975 ft | 526 kts | 51° |
| 2026-05-05 01:55 | -19.25529 | 22.64808 | 30990 ft | 526 kts | 51° |
| 2026-05-05 01:55 | -19.21385 | 22.71174 | 30988 ft | 525 kts | 51° |
| 2026-05-05 01:56 | -19.17241 | 22.77541 | 30986 ft | 525 kts | 51° |
| 2026-05-05 01:56 | -19.13107 | 22.83896 | 30990 ft | 524 kts | 51° |
| 2026-05-05 01:57 | -19.09001 | 22.90200 | 30989 ft | 524 kts | 51° |
| 2026-05-05 01:57 | -19.04864 | 22.96546 | 30993 ft | 524 kts | 51° |
| 2026-05-05 01:58 | -19.00680 | 23.02840 | 30995 ft | 523 kts | 50° |
| 2026-05-05 01:58 | -18.96448 | 23.09094 | 30997 ft | 523 kts | 50° |
| 2026-05-05 01:59 | -18.92220 | 23.15347 | 30988 ft | 522 kts | 51° |
| 2026-05-05 01:59 | -18.88010 | 23.21591 | 30996 ft | 521 kts | 51° |
| 2026-05-05 02:00 | -18.83807 | 23.27826 | 31004 ft | 521 kts | 51° |
| 2026-05-05 02:00 | -18.79602 | 23.34055 | 31005 ft | 521 kts | 51° |
| 2026-05-05 02:01 | -18.75399 | 23.40274 | 31005 ft | 521 kts | 51° |
| 2026-05-05 02:01 | -18.71194 | 23.46488 | 30997 ft | 520 kts | 51° |
| 2026-05-05 02:02 | -18.66985 | 23.52704 | 31001 ft | 520 kts | 51° |
| 2026-05-05 02:02 | -18.62780 | 23.58909 | 31002 ft | 520 kts | 51° |
| 2026-05-05 02:03 | -18.58597 | 23.65073 | 31004 ft | 520 kts | 51° |
| 2026-05-05 02:03 | -18.54386 | 23.71273 | 30997 ft | 520 kts | 51° |
| 2026-05-05 02:04 | -18.50171 | 23.77474 | 31000 ft | 520 kts | 51° |
| 2026-05-05 02:04 | -18.45958 | 23.83667 | 31003 ft | 520 kts | 51° |
| 2026-05-05 02:05 | -18.41741 | 23.89858 | 31005 ft | 520 kts | 51° |
| 2026-05-05 02:05 | -18.37525 | 23.96045 | 31002 ft | 520 kts | 51° |
| 2026-05-05 02:06 | -18.33302 | 24.02235 | 31002 ft | 520 kts | 51° |
| 2026-05-05 02:06 | -18.29177 | 24.08498 | 31005 ft | 521 kts | 53° |
| 2026-05-05 02:07 | -18.25114 | 24.14811 | 31008 ft | 521 kts | 53° |
| 2026-05-05 02:07 | -18.21041 | 24.21115 | 31007 ft | 521 kts | 53° |
| 2026-05-05 02:08 | -18.16977 | 24.27365 | 31015 ft | 521 kts | 53° |
| 2026-05-05 02:08 | -18.12875 | 24.33655 | 31027 ft | 521 kts | 53° |
| 2026-05-05 02:09 | -18.08770 | 24.39945 | 31012 ft | 522 kts | 53° |
| 2026-05-05 02:09 | -18.04661 | 24.46238 | 31010 ft | 522 kts | 53° |
| 2026-05-05 02:10 | -18.00548 | 24.52531 | 31024 ft | 523 kts | 53° |
| 2026-05-05 02:10 | -17.96429 | 24.58828 | 31027 ft | 523 kts | 53° |
| 2026-05-05 02:11 | -17.92308 | 24.65121 | 31028 ft | 523 kts | 53° |
| 2026-05-05 02:11 | -17.88187 | 24.71409 | 31012 ft | 523 kts | 53° |
| 2026-05-05 02:12 | -17.82000 | 24.80836 | 31027 ft | 523 kts | 53° |
| 2026-05-05 02:13 | -17.77875 | 24.87115 | 31016 ft | 522 kts | 52° |
| 2026-05-05 02:13 | -17.73751 | 24.93386 | 31023 ft | 522 kts | 53° |
| 2026-05-05 02:14 | -17.69627 | 24.99653 | 31022 ft | 522 kts | 53° |
| 2026-05-05 02:14 | -17.65506 | 25.05911 | 31021 ft | 521 kts | 53° |
| 2026-05-05 02:15 | -17.61334 | 25.12117 | 31023 ft | 520 kts | 51° |
| 2026-05-05 02:15 | -17.56984 | 25.18167 | 31022 ft | 519 kts | 50° |
| 2026-05-05 02:16 | -17.52630 | 25.24210 | 31024 ft | 520 kts | 50° |
| 2026-05-05 02:16 | -17.48306 | 25.30278 | 31024 ft | 520 kts | 51° |
| 2026-05-05 02:17 | -17.43989 | 25.36349 | 31026 ft | 520 kts | 51° |
| 2026-05-05 02:17 | -17.39706 | 25.42445 | 31023 ft | 520 kts | 52° |
| 2026-05-05 02:18 | -17.35560 | 25.48649 | 31015 ft | 520 kts | 53° |
| 2026-05-05 02:18 | -17.32137 | 25.53810 | 31024 ft | 519 kts | 53° |
| 2026-05-05 02:19 | -17.27996 | 25.60007 | 31027 ft | 519 kts | 52° |
| 2026-05-05 02:19 | -17.23164 | 25.67190 | 31022 ft | 519 kts | 52° |
| 2026-05-05 02:20 | -17.19682 | 25.72359 | 31030 ft | 519 kts | 52° |
| 2026-05-05 02:20 | -17.15523 | 25.78528 | 31031 ft | 519 kts | 52° |
| 2026-05-05 02:21 | -17.11366 | 25.84692 | 31029 ft | 519 kts | 52° |
| 2026-05-05 02:21 | -17.07206 | 25.90855 | 31037 ft | 519 kts | 52° |
| 2026-05-05 02:22 | -17.03046 | 25.97013 | 31038 ft | 519 kts | 52° |
| 2026-05-05 02:22 | -16.98882 | 26.03170 | 31043 ft | 518 kts | 52° |
| 2026-05-05 02:23 | -16.94746 | 26.09282 | 31038 ft | 518 kts | 52° |
| 2026-05-05 02:23 | -16.90584 | 26.15427 | 31050 ft | 518 kts | 52° |
| 2026-05-05 02:24 | -16.86424 | 26.21564 | 31047 ft | 518 kts | 52° |
| 2026-05-05 02:24 | -16.82260 | 26.27701 | 31049 ft | 518 kts | 52° |
| 2026-05-05 02:25 | -16.78095 | 26.33830 | 31053 ft | 517 kts | 52° |
| 2026-05-05 02:25 | -16.73856 | 26.39888 | 31059 ft | 517 kts | 51° |
| 2026-05-05 02:26 | -16.69584 | 26.45913 | 31058 ft | 516 kts | 51° |
| 2026-05-05 02:26 | -16.65320 | 26.51940 | 31059 ft | 516 kts | 51° |
| 2026-05-05 02:27 | -16.61067 | 26.57968 | 31065 ft | 516 kts | 51° |
| 2026-05-05 02:27 | -16.56846 | 26.63953 | 31059 ft | 515 kts | 51° |
| 2026-05-05 02:28 | -16.52599 | 26.69968 | 31061 ft | 515 kts | 51° |
| 2026-05-05 02:28 | -16.48350 | 26.75979 | 31058 ft | 515 kts | 51° |
| 2026-05-05 02:29 | -16.44100 | 26.81986 | 31060 ft | 515 kts | 51° |
| 2026-05-05 02:29 | -16.39849 | 26.87989 | 31053 ft | 515 kts | 51° |
| 2026-05-05 02:30 | -16.35599 | 26.93986 | 31054 ft | 514 kts | 51° |
| 2026-05-05 02:30 | -16.31352 | 26.99976 | 31055 ft | 514 kts | 51° |
| 2026-05-05 02:31 | -16.27105 | 27.05959 | 31054 ft | 514 kts | 51° |
| 2026-05-05 02:31 | -16.22857 | 27.11938 | 31054 ft | 514 kts | 51° |
| 2026-05-05 02:32 | -16.18609 | 27.17914 | 31048 ft | 513 kts | 51° |
| 2026-05-05 02:32 | -16.14366 | 27.23877 | 31049 ft | 512 kts | 51° |
| 2026-05-05 02:33 | -16.10127 | 27.29832 | 31042 ft | 512 kts | 51° |
| 2026-05-05 02:33 | -16.05906 | 27.35794 | 31050 ft | 512 kts | 52° |
| 2026-05-05 02:34 | -16.01781 | 27.41829 | 31053 ft | 512 kts | 52° |
| 2026-05-05 02:34 | -15.97705 | 27.47836 | 31047 ft | 512 kts | 52° |
| 2026-05-05 02:35 | -15.93587 | 27.53871 | 31053 ft | 512 kts | 52° |
| 2026-05-05 02:35 | -15.89457 | 27.59900 | 31052 ft | 512 kts | 52° |
| 2026-05-05 02:36 | -15.85323 | 27.65924 | 31051 ft | 512 kts | 52° |
| 2026-05-05 02:36 | -15.81187 | 27.71949 | 31045 ft | 512 kts | 52° |
| 2026-05-05 02:37 | -15.77050 | 27.77971 | 31057 ft | 512 kts | 52° |
| 2026-05-05 02:37 | -15.72913 | 27.83990 | 31054 ft | 512 kts | 52° |
| 2026-05-05 02:38 | -15.68776 | 27.90003 | 31055 ft | 512 kts | 52° |
| 2026-05-05 02:38 | -15.64638 | 27.96013 | 31055 ft | 512 kts | 52° |
| 2026-05-05 02:39 | -15.60498 | 28.02020 | 31056 ft | 512 kts | 52° |
| 2026-05-05 02:39 | -15.56358 | 28.08023 | 31056 ft | 511 kts | 53° |
| 2026-05-05 02:40 | -15.52219 | 28.14020 | 31061 ft | 511 kts | 53° |
| 2026-05-05 02:40 | -15.48077 | 28.20017 | 31060 ft | 511 kts | 53° |
| 2026-05-05 02:41 | -15.43936 | 28.26008 | 31059 ft | 511 kts | 52° |
| 2026-05-05 02:41 | -15.39793 | 28.31997 | 31063 ft | 511 kts | 53° |
| 2026-05-05 02:42 | -15.35654 | 28.37978 | 31061 ft | 511 kts | 53° |
| 2026-05-05 02:42 | -15.31502 | 28.43946 | 31066 ft | 510 kts | 52° |
| 2026-05-05 02:43 | -15.27242 | 28.49830 | 31066 ft | 510 kts | 51° |
| 2026-05-05 02:43 | -15.22947 | 28.55682 | 31066 ft | 510 kts | 51° |
| 2026-05-05 02:44 | -15.18661 | 28.61545 | 31059 ft | 511 kts | 51° |
| 2026-05-05 02:44 | -15.14385 | 28.67415 | 31058 ft | 511 kts | 52° |
| 2026-05-05 02:45 | -15.10108 | 28.73290 | 31065 ft | 511 kts | 52° |
| 2026-05-05 02:45 | -15.05858 | 28.79122 | 31060 ft | 511 kts | 52° |
| 2026-05-05 02:46 | -15.01576 | 28.84993 | 31055 ft | 511 kts | 51° |
| 2026-05-05 02:46 | -14.97291 | 28.90862 | 31053 ft | 511 kts | 51° |
| 2026-05-05 02:47 | -14.93000 | 28.96735 | 31056 ft | 512 kts | 51° |
| 2026-05-05 02:47 | -14.88707 | 29.02607 | 31045 ft | 512 kts | 51° |
| 2026-05-05 02:48 | -14.84410 | 29.08479 | 31045 ft | 512 kts | 51° |
| 2026-05-05 02:48 | -14.80112 | 29.14349 | 31047 ft | 512 kts | 51° |
| 2026-05-05 02:49 | -14.75811 | 29.20219 | 31049 ft | 512 kts | 51° |
| 2026-05-05 02:49 | -14.71506 | 29.26090 | 31044 ft | 513 kts | 51° |
| 2026-05-05 02:50 | -14.67199 | 29.31959 | 31045 ft | 513 kts | 51° |
| 2026-05-05 02:50 | -14.62892 | 29.37822 | 31043 ft | 512 kts | 51° |
| 2026-05-05 02:51 | -14.58584 | 29.43685 | 31041 ft | 512 kts | 51° |
| 2026-05-05 02:51 | -14.54274 | 29.49544 | 31055 ft | 512 kts | 51° |
| 2026-05-05 02:52 | -14.49963 | 29.55401 | 31058 ft | 512 kts | 51° |
| 2026-05-05 02:52 | -14.45649 | 29.61259 | 31052 ft | 513 kts | 51° |
| 2026-05-05 02:53 | -14.41333 | 29.67115 | 31063 ft | 513 kts | 51° |
| 2026-05-05 02:53 | -14.37014 | 29.72970 | 31063 ft | 513 kts | 51° |
| 2026-05-05 02:54 | -14.32693 | 29.78824 | 31058 ft | 513 kts | 51° |
| 2026-05-05 02:54 | -14.28369 | 29.84677 | 31048 ft | 513 kts | 51° |
| 2026-05-05 02:55 | -14.24043 | 29.90530 | 31053 ft | 513 kts | 51° |
| 2026-05-05 02:55 | -14.19712 | 29.96385 | 31051 ft | 514 kts | 51° |
| 2026-05-05 02:56 | -14.15407 | 30.02201 | 31051 ft | 514 kts | 51° |
| 2026-05-05 02:56 | -14.11073 | 30.08050 | 31059 ft | 514 kts | 51° |
| 2026-05-05 02:57 | -14.06734 | 30.13904 | 31054 ft | 514 kts | 51° |
| 2026-05-05 02:57 | -14.02400 | 30.19747 | 31047 ft | 513 kts | 51° |
| 2026-05-05 02:58 | -13.98064 | 30.25589 | 31046 ft | 513 kts | 51° |
| 2026-05-05 02:58 | -13.93732 | 30.31421 | 31054 ft | 513 kts | 51° |
| 2026-05-05 02:59 | -13.89399 | 30.37251 | 31055 ft | 513 kts | 51° |
| 2026-05-05 02:59 | -13.85068 | 30.43075 | 31050 ft | 512 kts | 51° |
| 2026-05-05 03:00 | -13.80735 | 30.48887 | 31059 ft | 512 kts | 51° |
| 2026-05-05 03:00 | -13.76353 | 30.54651 | 31058 ft | 511 kts | 50° |
| 2026-05-05 03:01 | -13.71958 | 30.60394 | 31058 ft | 511 kts | 50° |
| 2026-05-05 03:01 | -13.67566 | 30.66145 | 31053 ft | 511 kts | 50° |
| 2026-05-05 03:02 | -13.63177 | 30.71900 | 31067 ft | 511 kts | 50° |
| 2026-05-05 03:02 | -13.58789 | 30.77652 | 31069 ft | 511 kts | 50° |
| 2026-05-05 03:03 | -13.54397 | 30.83405 | 31066 ft | 511 kts | 50° |
| 2026-05-05 03:03 | -13.50005 | 30.89153 | 31080 ft | 512 kts | 50° |
| 2026-05-05 03:04 | -13.45609 | 30.94903 | 31077 ft | 511 kts | 50° |
| 2026-05-05 03:04 | -13.41214 | 31.00647 | 31076 ft | 511 kts | 50° |
| 2026-05-05 03:05 | -13.36820 | 31.06388 | 31075 ft | 511 kts | 50° |
| 2026-05-05 03:05 | -13.32424 | 31.12126 | 31082 ft | 511 kts | 50° |
| 2026-05-05 03:06 | -13.28771 | 31.16892 | 31075 ft | 511 kts | 50° |
| 2026-05-05 03:06 | -13.24375 | 31.22623 | 31071 ft | 511 kts | 50° |
| 2026-05-05 03:07 | -13.19976 | 31.28357 | 31078 ft | 511 kts | 50° |
| 2026-05-05 03:07 | -13.15580 | 31.34082 | 31069 ft | 511 kts | 50° |
| 2026-05-05 03:08 | -13.11405 | 31.39986 | 31072 ft | 511 kts | 54° |
| 2026-05-05 03:08 | -13.07367 | 31.45996 | 31057 ft | 512 kts | 54° |
| 2026-05-05 03:09 | -13.03313 | 31.51996 | 31065 ft | 512 kts | 54° |
| 2026-05-05 03:09 | -12.99232 | 31.57991 | 31053 ft | 513 kts | 54° |
| 2026-05-05 03:10 | -12.95175 | 31.63946 | 31053 ft | 513 kts | 54° |
| 2026-05-05 03:10 | -12.90908 | 31.69799 | 31054 ft | 512 kts | 49° |
| 2026-05-05 03:11 | -12.86366 | 31.75423 | 31051 ft | 512 kts | 49° |
| 2026-05-05 03:11 | -12.81813 | 31.81041 | 31045 ft | 513 kts | 49° |
| 2026-05-05 03:12 | -12.77276 | 31.86678 | 31049 ft | 513 kts | 49° |
| 2026-05-05 03:12 | -12.72744 | 31.92327 | 31049 ft | 513 kts | 49° |
| 2026-05-05 03:13 | -12.68216 | 31.97970 | 31048 ft | 513 kts | 49° |
| 2026-05-05 03:13 | -12.63689 | 32.03606 | 31049 ft | 512 kts | 49° |
| 2026-05-05 03:14 | -12.59189 | 32.09203 | 31051 ft | 512 kts | 49° |
| 2026-05-05 03:14 | -12.54661 | 32.14831 | 31052 ft | 512 kts | 49° |
| 2026-05-05 03:15 | -12.50135 | 32.20454 | 31051 ft | 512 kts | 49° |
| 2026-05-05 03:15 | -12.45609 | 32.26073 | 31052 ft | 512 kts | 49° |
| 2026-05-05 03:16 | -12.41081 | 32.31692 | 31057 ft | 512 kts | 49° |
| 2026-05-05 03:16 | -12.36552 | 32.37308 | 31058 ft | 512 kts | 49° |
| 2026-05-05 03:17 | -12.32023 | 32.42921 | 31057 ft | 512 kts | 49° |
| 2026-05-05 03:17 | -12.27494 | 32.48531 | 31056 ft | 512 kts | 49° |
| 2026-05-05 03:18 | -12.22964 | 32.54141 | 31063 ft | 511 kts | 49° |
| 2026-05-05 03:18 | -12.18431 | 32.59749 | 31063 ft | 512 kts | 49° |
| 2026-05-05 03:19 | -12.11619 | 32.68146 | 31063 ft | 511 kts | 49° |
| 2026-05-05 03:19 | -12.07079 | 32.73739 | 31071 ft | 511 kts | 49° |
| 2026-05-05 03:20 | -12.02540 | 32.79330 | 31064 ft | 511 kts | 49° |
| 2026-05-05 03:20 | -11.98003 | 32.84916 | 31071 ft | 511 kts | 49° |
| 2026-05-05 03:21 | -11.93469 | 32.90496 | 31071 ft | 510 kts | 49° |
| 2026-05-05 03:21 | -11.88934 | 32.96073 | 31073 ft | 510 kts | 49° |
| 2026-05-05 03:22 | -11.84405 | 33.01640 | 31071 ft | 510 kts | 49° |
| 2026-05-05 03:22 | -11.79873 | 33.07207 | 31074 ft | 510 kts | 49° |
| 2026-05-05 03:23 | -11.75341 | 33.12770 | 31072 ft | 510 kts | 49° |
| 2026-05-05 03:23 | -11.70809 | 33.18332 | 31073 ft | 510 kts | 49° |
| 2026-05-05 03:24 | -11.66271 | 33.23898 | 31074 ft | 510 kts | 49° |
| 2026-05-05 03:24 | -11.61732 | 33.29463 | 31079 ft | 510 kts | 49° |
| 2026-05-05 03:25 | -11.57216 | 33.35052 | 31074 ft | 511 kts | 50° |
| 2026-05-05 03:25 | -11.52838 | 33.40696 | 31080 ft | 511 kts | 51° |
| 2026-05-05 03:26 | -11.48440 | 33.46383 | 31078 ft | 511 kts | 50° |
| 2026-05-05 03:26 | -11.44018 | 33.52060 | 31089 ft | 511 kts | 51° |
| 2026-05-05 03:27 | -11.39595 | 33.57726 | 31084 ft | 511 kts | 51° |
| 2026-05-05 03:27 | -11.35173 | 33.63388 | 31084 ft | 511 kts | 50° |
| 2026-05-05 03:28 | -11.30747 | 33.69046 | 31092 ft | 511 kts | 50° |
| 2026-05-05 03:28 | -11.26320 | 33.74700 | 31095 ft | 509 kts | 51° |
| 2026-05-05 03:29 | -11.21907 | 33.80338 | 31095 ft | 508 kts | 51° |
| 2026-05-05 03:29 | -11.17507 | 33.85957 | 31098 ft | 507 kts | 51° |
| 2026-05-05 03:30 | -11.13112 | 33.91566 | 31100 ft | 506 kts | 51° |
| 2026-05-05 03:30 | -11.08717 | 33.97171 | 31097 ft | 506 kts | 51° |
| 2026-05-05 03:31 | -11.04321 | 34.02775 | 31091 ft | 507 kts | 51° |
| 2026-05-05 03:31 | -10.99922 | 34.08380 | 31090 ft | 507 kts | 51° |
| 2026-05-05 03:32 | -10.95519 | 34.13987 | 31077 ft | 507 kts | 51° |
| 2026-05-05 03:32 | -10.91144 | 34.19556 | 31073 ft | 507 kts | 51° |
| 2026-05-05 03:33 | -10.86738 | 34.25161 | 31054 ft | 506 kts | 51° |
| 2026-05-05 03:33 | -10.82344 | 34.30749 | 31053 ft | 506 kts | 51° |
| 2026-05-05 03:34 | -10.77952 | 34.36331 | 31035 ft | 505 kts | 51° |
| 2026-05-05 03:34 | -10.73561 | 34.41905 | 31036 ft | 505 kts | 51° |
| 2026-05-05 03:35 | -10.69111 | 34.47424 | 31029 ft | 504 kts | 50° |
| 2026-05-05 03:35 | -10.64642 | 34.52920 | 31042 ft | 504 kts | 50° |
| 2026-05-05 03:36 | -10.60181 | 34.58430 | 31040 ft | 505 kts | 50° |
| 2026-05-05 03:36 | -10.55720 | 34.63944 | 31061 ft | 505 kts | 51° |
| 2026-05-05 03:37 | -10.51303 | 34.69487 | 31058 ft | 504 kts | 51° |
| 2026-05-05 03:37 | -10.46919 | 34.75046 | 31067 ft | 504 kts | 51° |
| 2026-05-05 03:38 | -10.42537 | 34.80597 | 31069 ft | 503 kts | 51° |
| 2026-05-05 03:38 | -10.38182 | 34.86098 | 31094 ft | 503 kts | 51° |
| 2026-05-05 03:39 | -10.33796 | 34.91631 | 31093 ft | 503 kts | 51° |
| 2026-05-05 03:39 | -10.29410 | 34.97161 | 31099 ft | 503 kts | 51° |
| 2026-05-05 03:40 | -10.25019 | 35.02694 | 31108 ft | 503 kts | 51° |
| 2026-05-05 03:40 | -10.20980 | 35.07782 | 31105 ft | 503 kts | 51° |
| 2026-05-05 03:41 | -10.16587 | 35.13314 | 31181 ft | 502 kts | 51° |
| 2026-05-05 03:41 | -10.14399 | 35.16068 | 31501 ft | 501 kts | 51° |
| 2026-05-05 03:41 | -10.12202 | 35.18832 | 31608 ft | 505 kts | 51° |
| 2026-05-05 03:42 | -10.09991 | 35.21614 | 31719 ft | 508 kts | 51° |
| 2026-05-05 03:42 | -10.07774 | 35.24402 | 31956 ft | 507 kts | 51° |
| 2026-05-05 03:42 | -10.05562 | 35.27184 | 32243 ft | 506 kts | 51° |
| 2026-05-05 03:42 | -10.03358 | 35.29954 | 32561 ft | 504 kts | 51° |
| 2026-05-05 03:43 | -10.01163 | 35.32712 | 32859 ft | 502 kts | 51° |
| 2026-05-05 03:43 | -9.98971 | 35.35467 | 33137 ft | 501 kts | 51° |
| 2026-05-05 03:43 | -9.96786 | 35.38212 | 33409 ft | 500 kts | 52° |
| 2026-05-05 03:43 | -9.94603 | 35.40953 | 33686 ft | 499 kts | 52° |
| 2026-05-05 03:44 | -9.92426 | 35.43686 | 33971 ft | 497 kts | 52° |
| 2026-05-05 03:44 | -9.90255 | 35.46413 | 34225 ft | 496 kts | 52° |
| 2026-05-05 03:44 | -9.88087 | 35.49133 | 34430 ft | 496 kts | 52° |
| 2026-05-05 03:44 | -9.85919 | 35.51854 | 34609 ft | 496 kts | 52° |
| 2026-05-05 03:45 | -9.83751 | 35.54574 | 34799 ft | 496 kts | 52° |
| 2026-05-05 03:45 | -9.81585 | 35.57291 | 34979 ft | 495 kts | 52° |
| 2026-05-05 03:45 | -9.77244 | 35.62733 | 35064 ft | 497 kts | 52° |
| 2026-05-05 03:46 | -9.72903 | 35.68174 | 35082 ft | 496 kts | 52° |
| 2026-05-05 03:46 | -9.68600 | 35.73563 | 35079 ft | 494 kts | 52° |
| 2026-05-05 03:47 | -9.64247 | 35.79013 | 35080 ft | 494 kts | 52° |
| 2026-05-05 03:47 | -9.59954 | 35.84385 | 35081 ft | 494 kts | 52° |
| 2026-05-05 03:48 | -9.55629 | 35.89797 | 35067 ft | 494 kts | 52° |
| 2026-05-05 03:48 | -9.51298 | 35.95211 | 35070 ft | 495 kts | 52° |
| 2026-05-05 03:49 | -9.46964 | 36.00628 | 35074 ft | 495 kts | 52° |
| 2026-05-05 03:49 | -9.42624 | 36.06049 | 35070 ft | 496 kts | 52° |
| 2026-05-05 03:50 | -9.38280 | 36.11474 | 35066 ft | 496 kts | 52° |
| 2026-05-05 03:50 | -9.33935 | 36.16897 | 35063 ft | 496 kts | 52° |
| 2026-05-05 03:51 | -9.29589 | 36.22319 | 35062 ft | 496 kts | 52° |
| 2026-05-05 03:51 | -9.25244 | 36.27738 | 35060 ft | 496 kts | 52° |
| 2026-05-05 03:52 | -9.20896 | 36.33157 | 35068 ft | 496 kts | 52° |
| 2026-05-05 03:52 | -9.16547 | 36.38576 | 35067 ft | 496 kts | 52° |
| 2026-05-05 03:53 | -9.12196 | 36.43995 | 35067 ft | 496 kts | 52° |
| 2026-05-05 03:53 | -9.07843 | 36.49414 | 35066 ft | 496 kts | 52° |
| 2026-05-05 03:54 | -9.04227 | 36.53913 | 35068 ft | 496 kts | 52° |
| 2026-05-05 03:54 | -8.99879 | 36.59321 | 35065 ft | 496 kts | 52° |
| 2026-05-05 03:55 | -8.95529 | 36.64731 | 35063 ft | 495 kts | 52° |
| 2026-05-05 03:55 | -8.91180 | 36.70136 | 35067 ft | 495 kts | 52° |
| 2026-05-05 03:56 | -8.86829 | 36.75542 | 35058 ft | 496 kts | 51° |
| 2026-05-05 03:56 | -8.82477 | 36.80946 | 35059 ft | 496 kts | 51° |
| 2026-05-05 03:57 | -8.78126 | 36.86347 | 35060 ft | 495 kts | 51° |
| 2026-05-05 03:57 | -8.73774 | 36.91747 | 35056 ft | 495 kts | 51° |
| 2026-05-05 03:58 | -8.69424 | 36.97142 | 35048 ft | 495 kts | 51° |
| 2026-05-05 03:58 | -8.65081 | 37.02527 | 35048 ft | 494 kts | 51° |
| 2026-05-05 03:59 | -8.60737 | 37.07910 | 35043 ft | 494 kts | 51° |
| 2026-05-05 03:59 | -8.56421 | 37.13258 | 35039 ft | 494 kts | 51° |
| 2026-05-05 04:00 | -8.52047 | 37.18674 | 35040 ft | 494 kts | 51° |
| 2026-05-05 04:00 | -8.47701 | 37.24053 | 35038 ft | 494 kts | 51° |
| 2026-05-05 04:01 | -8.43381 | 37.29398 | 35040 ft | 494 kts | 52° |
| 2026-05-05 04:01 | -8.39035 | 37.34774 | 35034 ft | 494 kts | 52° |
| 2026-05-05 04:02 | -8.34688 | 37.40148 | 35036 ft | 494 kts | 52° |
| 2026-05-05 04:02 | -8.30343 | 37.45519 | 35036 ft | 494 kts | 52° |
| 2026-05-05 04:03 | -8.25996 | 37.50890 | 35035 ft | 494 kts | 52° |
| 2026-05-05 04:03 | -8.21650 | 37.56257 | 35036 ft | 494 kts | 52° |
| 2026-05-05 04:04 | -8.17304 | 37.61622 | 35032 ft | 494 kts | 52° |
| 2026-05-05 04:04 | -8.12956 | 37.66988 | 35034 ft | 494 kts | 52° |
| 2026-05-05 04:05 | -8.08610 | 37.72349 | 35030 ft | 494 kts | 52° |
| 2026-05-05 04:05 | -8.04263 | 37.77710 | 35030 ft | 493 kts | 52° |
| 2026-05-05 04:06 | -7.99916 | 37.83070 | 35029 ft | 493 kts | 52° |
| 2026-05-05 04:06 | -7.95557 | 37.88416 | 35030 ft | 493 kts | 50° |
| 2026-05-05 04:07 | -7.90630 | 37.93243 | 35029 ft | 494 kts | 42° |
| 2026-05-05 04:07 | -7.85428 | 37.97783 | 35020 ft | 495 kts | 42° |
| 2026-05-05 04:08 | -7.80230 | 38.02337 | 35023 ft | 495 kts | 42° |
| 2026-05-05 04:08 | -7.75046 | 38.06917 | 35021 ft | 496 kts | 43° |
| 2026-05-05 04:09 | -7.69864 | 38.11511 | 35023 ft | 496 kts | 43° |
| 2026-05-05 04:09 | -7.64716 | 38.16075 | 35021 ft | 496 kts | 43° |
| 2026-05-05 04:10 | -7.59529 | 38.20671 | 35017 ft | 496 kts | 43° |
| 2026-05-05 04:10 | -7.54342 | 38.25263 | 35020 ft | 496 kts | 43° |
| 2026-05-05 04:11 | -7.49150 | 38.29858 | 35021 ft | 496 kts | 43° |
| 2026-05-05 04:11 | -7.43962 | 38.34448 | 35025 ft | 496 kts | 43° |
| 2026-05-05 04:12 | -7.38776 | 38.39034 | 35021 ft | 496 kts | 43° |
| 2026-05-05 04:12 | -7.33597 | 38.43613 | 35022 ft | 495 kts | 43° |
| 2026-05-05 04:13 | -7.28424 | 38.48186 | 35021 ft | 494 kts | 43° |
| 2026-05-05 04:13 | -7.23254 | 38.52755 | 35022 ft | 494 kts | 43° |
| 2026-05-05 04:14 | -7.18087 | 38.57318 | 35021 ft | 494 kts | 43° |
| 2026-05-05 04:14 | -7.12922 | 38.61879 | 35023 ft | 494 kts | 43° |
| 2026-05-05 04:15 | -7.07757 | 38.66438 | 35020 ft | 494 kts | 43° |
| 2026-05-05 04:15 | -7.02595 | 38.70995 | 35017 ft | 493 kts | 43° |
| 2026-05-05 04:16 | -6.97435 | 38.75546 | 35014 ft | 493 kts | 43° |
| 2026-05-05 04:16 | -6.92276 | 38.80096 | 35012 ft | 493 kts | 43° |
| 2026-05-05 04:17 | -6.87121 | 38.84642 | 35014 ft | 493 kts | 43° |
| 2026-05-05 04:17 | -6.81963 | 38.89188 | 35010 ft | 493 kts | 43° |
| 2026-05-05 04:18 | -6.76809 | 38.93729 | 35013 ft | 493 kts | 43° |
| 2026-05-05 04:18 | -6.71653 | 38.98272 | 34998 ft | 492 kts | 43° |
| 2026-05-05 04:19 | -6.66501 | 39.02809 | 35003 ft | 492 kts | 43° |
| 2026-05-05 04:19 | -6.61352 | 39.07342 | 35003 ft | 492 kts | 43° |
| 2026-05-05 04:20 | -6.56202 | 39.11875 | 35001 ft | 492 kts | 43° |
| 2026-05-05 04:20 | -6.51054 | 39.16404 | 35000 ft | 491 kts | 43° |
| 2026-05-05 04:21 | -6.45911 | 39.20928 | 35001 ft | 491 kts | 43° |
| 2026-05-05 04:21 | -6.40768 | 39.25451 | 34996 ft | 491 kts | 43° |
| 2026-05-05 04:22 | -6.35662 | 39.29940 | 34997 ft | 491 kts | 43° |
| 2026-05-05 04:22 | -6.30523 | 39.34456 | 34973 ft | 491 kts | 43° |
| 2026-05-05 04:23 | -6.25386 | 39.38970 | 34998 ft | 491 kts | 43° |
| 2026-05-05 04:23 | -6.20246 | 39.43486 | 34992 ft | 491 kts | 43° |
| 2026-05-05 04:24 | -6.15107 | 39.47999 | 34991 ft | 491 kts | 43° |
| 2026-05-05 04:25 | -6.07392 | 39.54772 | 34992 ft | 491 kts | 43° |
| 2026-05-05 04:25 | -6.02248 | 39.59286 | 34990 ft | 491 kts | 43° |
| 2026-05-05 04:26 | -5.97103 | 39.63800 | 34988 ft | 491 kts | 43° |
| 2026-05-05 04:26 | -5.91961 | 39.68310 | 34989 ft | 491 kts | 43° |
| 2026-05-05 04:27 | -5.86821 | 39.72817 | 34986 ft | 490 kts | 43° |
| 2026-05-05 04:27 | -5.81684 | 39.77321 | 34987 ft | 491 kts | 43° |
| 2026-05-05 04:28 | -5.76539 | 39.81831 | 34985 ft | 491 kts | 43° |
| 2026-05-05 04:28 | -5.71395 | 39.86338 | 34984 ft | 491 kts | 43° |
| 2026-05-05 04:29 | -5.66249 | 39.90847 | 34983 ft | 491 kts | 43° |
| 2026-05-05 04:29 | -5.61104 | 39.95353 | 34979 ft | 491 kts | 43° |
| 2026-05-05 04:30 | -5.55957 | 39.99860 | 34986 ft | 491 kts | 43° |
| 2026-05-05 04:30 | -5.50813 | 40.04363 | 34986 ft | 491 kts | 43° |
| 2026-05-05 04:31 | -5.45666 | 40.08867 | 34987 ft | 491 kts | 43° |
| 2026-05-05 04:31 | -5.40519 | 40.13371 | 34984 ft | 491 kts | 43° |
| 2026-05-05 04:32 | -5.35370 | 40.17876 | 34986 ft | 491 kts | 43° |
| 2026-05-05 04:32 | -5.30223 | 40.22378 | 34981 ft | 491 kts | 43° |
| 2026-05-05 04:33 | -5.25070 | 40.26884 | 34981 ft | 491 kts | 43° |
| 2026-05-05 04:33 | -5.19924 | 40.31384 | 34972 ft | 491 kts | 43° |
| 2026-05-05 04:34 | -5.14780 | 40.35881 | 34984 ft | 490 kts | 43° |
| 2026-05-05 04:34 | -5.09643 | 40.40308 | 34979 ft | 491 kts | 40° |
| 2026-05-05 04:35 | -5.04257 | 40.44521 | 34976 ft | 491 kts | 39° |
| 2026-05-05 04:35 | -4.98852 | 40.48697 | 34983 ft | 491 kts | 39° |
| 2026-05-05 04:36 | -4.93482 | 40.52916 | 34978 ft | 490 kts | 39° |
| 2026-05-05 04:36 | -4.88121 | 40.57151 | 34974 ft | 490 kts | 39° |
| 2026-05-05 04:37 | -4.82754 | 40.61372 | 34974 ft | 490 kts | 38° |
| 2026-05-05 04:37 | -4.77019 | 40.65095 | 34984 ft | 491 kts | 32° |
| 2026-05-05 04:38 | -4.71152 | 40.68617 | 34978 ft | 492 kts | 32° |
| 2026-05-05 04:38 | -4.65297 | 40.72155 | 34979 ft | 492 kts | 33° |
| 2026-05-05 04:39 | -4.59441 | 40.75723 | 34971 ft | 492 kts | 33° |
| 2026-05-05 04:39 | -4.53597 | 40.79292 | 34968 ft | 493 kts | 33° |
| 2026-05-05 04:40 | -4.47742 | 40.82866 | 34979 ft | 493 kts | 33° |
| 2026-05-05 04:40 | -4.42870 | 40.85838 | 34976 ft | 493 kts | 33° |
| 2026-05-05 04:41 | -4.37011 | 40.89412 | 34971 ft | 493 kts | 33° |
| 2026-05-05 04:41 | -4.31154 | 40.92983 | 34962 ft | 493 kts | 33° |
| 2026-05-05 04:42 | -4.25303 | 40.96550 | 34971 ft | 492 kts | 33° |
| 2026-05-05 04:42 | -4.19462 | 41.00111 | 34973 ft | 491 kts | 33° |
| 2026-05-05 04:43 | -4.13621 | 41.03671 | 34969 ft | 491 kts | 33° |
| 2026-05-05 04:43 | -4.07787 | 41.07227 | 34969 ft | 491 kts | 33° |
| 2026-05-05 04:44 | -4.01953 | 41.10782 | 34976 ft | 491 kts | 33° |
| 2026-05-05 04:44 | -3.96274 | 41.14555 | 34980 ft | 489 kts | 38° |
| 2026-05-05 04:45 | -3.90844 | 41.18602 | 34977 ft | 490 kts | 38° |
| 2026-05-05 04:45 | -3.85371 | 41.22691 | 34974 ft | 491 kts | 38° |
| 2026-05-05 04:46 | -3.79872 | 41.26774 | 34970 ft | 492 kts | 38° |
| 2026-05-05 04:46 | -3.74362 | 41.30851 | 34971 ft | 493 kts | 38° |
| 2026-05-05 04:47 | -3.68843 | 41.34931 | 34968 ft | 493 kts | 38° |
| 2026-05-05 04:47 | -3.63325 | 41.39011 | 34971 ft | 493 kts | 38° |
| 2026-05-05 04:48 | -3.57802 | 41.43095 | 34974 ft | 493 kts | 38° |
| 2026-05-05 04:48 | -3.52282 | 41.47177 | 34972 ft | 493 kts | 38° |
| 2026-05-05 04:49 | -3.46758 | 41.51260 | 34971 ft | 493 kts | 38° |
| 2026-05-05 04:49 | -3.41242 | 41.55338 | 34970 ft | 493 kts | 38° |
| 2026-05-05 04:50 | -3.35727 | 41.59413 | 34965 ft | 492 kts | 38° |
| 2026-05-05 04:50 | -3.30224 | 41.63480 | 34967 ft | 491 kts | 38° |
| 2026-05-05 04:51 | -3.24727 | 41.67541 | 34969 ft | 491 kts | 38° |
| 2026-05-05 04:51 | -3.19273 | 41.71570 | 34970 ft | 490 kts | 38° |
| 2026-05-05 04:52 | -3.13787 | 41.75623 | 34967 ft | 490 kts | 38° |
| 2026-05-05 04:52 | -3.08298 | 41.79676 | 34966 ft | 490 kts | 38° |
| 2026-05-05 04:53 | -3.02808 | 41.83730 | 34966 ft | 490 kts | 38° |
| 2026-05-05 04:53 | -2.97319 | 41.87783 | 34967 ft | 490 kts | 38° |
| 2026-05-05 04:54 | -2.91826 | 41.91838 | 34965 ft | 490 kts | 38° |
| 2026-05-05 04:54 | -2.86336 | 41.95891 | 34964 ft | 491 kts | 38° |
| 2026-05-05 04:55 | -2.80843 | 41.99946 | 34960 ft | 491 kts | 38° |
| 2026-05-05 04:55 | -2.75349 | 42.04000 | 34965 ft | 491 kts | 38° |
| 2026-05-05 04:56 | -2.69852 | 42.08056 | 34967 ft | 491 kts | 38° |
| 2026-05-05 04:56 | -2.64353 | 42.12113 | 34967 ft | 491 kts | 38° |
| 2026-05-05 04:57 | -2.58891 | 42.16142 | 34967 ft | 491 kts | 38° |
| 2026-05-05 04:57 | -2.53392 | 42.20199 | 34965 ft | 491 kts | 37° |
| 2026-05-05 04:58 | -2.47900 | 42.24250 | 34964 ft | 490 kts | 37° |
| 2026-05-05 04:58 | -2.42417 | 42.28294 | 34963 ft | 489 kts | 37° |
| 2026-05-05 04:59 | -2.36944 | 42.32330 | 34963 ft | 489 kts | 37° |
| 2026-05-05 04:59 | -2.31474 | 42.36364 | 34964 ft | 488 kts | 37° |
| 2026-05-05 05:00 | -2.26006 | 42.40397 | 34966 ft | 489 kts | 37° |
| 2026-05-05 05:00 | -2.20529 | 42.44421 | 34970 ft | 488 kts | 36° |
| 2026-05-05 05:01 | -2.14946 | 42.48296 | 34966 ft | 488 kts | 35° |
| 2026-05-05 05:01 | -2.09340 | 42.52135 | 34963 ft | 488 kts | 35° |
| 2026-05-05 05:02 | -2.03759 | 42.55998 | 34963 ft | 488 kts | 35° |
| 2026-05-05 05:02 | -1.98177 | 42.59859 | 34964 ft | 488 kts | 35° |
| 2026-05-05 05:03 | -1.92558 | 42.63667 | 34968 ft | 488 kts | 34° |
| 2026-05-05 05:03 | -1.86925 | 42.67465 | 34968 ft | 488 kts | 34° |
| 2026-05-05 05:04 | -1.81295 | 42.71271 | 34961 ft | 488 kts | 34° |
| 2026-05-05 05:04 | -1.75671 | 42.75080 | 34964 ft | 488 kts | 34° |
| 2026-05-05 05:05 | -1.70044 | 42.78893 | 34966 ft | 489 kts | 34° |
| 2026-05-05 05:05 | -1.64416 | 42.82706 | 34961 ft | 489 kts | 34° |
| 2026-05-05 05:06 | -1.58790 | 42.86517 | 34968 ft | 489 kts | 34° |
| 2026-05-05 05:06 | -1.53165 | 42.90327 | 34966 ft | 488 kts | 34° |
| 2026-05-05 05:07 | -1.47541 | 42.94135 | 34965 ft | 488 kts | 34° |
| 2026-05-05 05:07 | -1.41951 | 42.97920 | 34966 ft | 488 kts | 34° |
| 2026-05-05 05:08 | -1.36327 | 43.01729 | 34963 ft | 488 kts | 34° |
| 2026-05-05 05:08 | -1.30697 | 43.05542 | 34966 ft | 489 kts | 34° |
| 2026-05-05 05:09 | -1.25069 | 43.09351 | 34965 ft | 489 kts | 34° |
| 2026-05-05 05:09 | -1.19442 | 43.13161 | 34965 ft | 489 kts | 34° |
| 2026-05-05 05:10 | -1.13812 | 43.16973 | 34963 ft | 489 kts | 34° |
| 2026-05-05 05:10 | -1.08182 | 43.20785 | 34960 ft | 489 kts | 34° |
| 2026-05-05 05:11 | -1.02554 | 43.24596 | 34965 ft | 489 kts | 34° |
| 2026-05-05 05:11 | -0.96925 | 43.28406 | 34964 ft | 489 kts | 34° |
| 2026-05-05 05:12 | -0.91297 | 43.32215 | 34964 ft | 488 kts | 34° |
| 2026-05-05 05:12 | -0.85672 | 43.36023 | 34964 ft | 488 kts | 34° |
| 2026-05-05 05:13 | -0.80045 | 43.39831 | 34959 ft | 488 kts | 34° |
| 2026-05-05 05:13 | -0.74426 | 43.43635 | 34959 ft | 488 kts | 34° |
| 2026-05-05 05:14 | -0.68813 | 43.47434 | 34962 ft | 488 kts | 34° |
| 2026-05-05 05:14 | -0.63194 | 43.51237 | 34962 ft | 488 kts | 34° |
| 2026-05-05 05:15 | -0.57617 | 43.55012 | 34967 ft | 488 kts | 34° |
| 2026-05-05 05:15 | -0.51996 | 43.58815 | 34965 ft | 488 kts | 34° |
| 2026-05-05 05:16 | -0.46379 | 43.62617 | 34960 ft | 487 kts | 34° |
| 2026-05-05 05:16 | -0.40762 | 43.66418 | 34962 ft | 488 kts | 34° |
| 2026-05-05 05:17 | -0.35137 | 43.70225 | 34960 ft | 488 kts | 34° |
| 2026-05-05 05:17 | -0.29513 | 43.74031 | 34959 ft | 488 kts | 34° |
| 2026-05-05 05:18 | -0.23887 | 43.77838 | 34961 ft | 488 kts | 34° |
| 2026-05-05 05:18 | -0.18263 | 43.81644 | 34959 ft | 488 kts | 34° |
| 2026-05-05 05:19 | -0.12641 | 43.85449 | 34960 ft | 488 kts | 34° |
| 2026-05-05 05:19 | -0.07019 | 43.89253 | 34961 ft | 488 kts | 33° |
| 2026-05-05 05:20 | -0.01398 | 43.93057 | 34959 ft | 488 kts | 34° |
| 2026-05-05 05:20 | 0.04223 | 43.96860 | 34958 ft | 488 kts | 34° |
| 2026-05-05 05:21 | 0.09845 | 44.00665 | 34952 ft | 488 kts | 34° |
| 2026-05-05 05:21 | 0.15469 | 44.04471 | 34953 ft | 488 kts | 34° |
| 2026-05-05 05:22 | 0.21095 | 44.08279 | 34959 ft | 489 kts | 33° |
| 2026-05-05 05:22 | 0.26724 | 44.12089 | 34960 ft | 489 kts | 33° |
| 2026-05-05 05:23 | 0.32360 | 44.15903 | 34959 ft | 489 kts | 34° |
| 2026-05-05 05:23 | 0.38012 | 44.19714 | 34958 ft | 490 kts | 33° |
| 2026-05-05 05:24 | 0.43671 | 44.23518 | 34958 ft | 490 kts | 33° |
| 2026-05-05 05:24 | 0.49289 | 44.27297 | 34953 ft | 490 kts | 33° |
| 2026-05-05 05:25 | 0.54944 | 44.31104 | 34953 ft | 490 kts | 33° |
| 2026-05-05 05:25 | 0.60598 | 44.34911 | 34956 ft | 490 kts | 33° |
| 2026-05-05 05:26 | 0.66257 | 44.38721 | 34954 ft | 491 kts | 33° |
| 2026-05-05 05:26 | 0.71922 | 44.42535 | 34953 ft | 491 kts | 33° |
| 2026-05-05 05:27 | 0.77590 | 44.46352 | 34952 ft | 491 kts | 33° |
| 2026-05-05 05:27 | 0.86094 | 44.52079 | 34949 ft | 491 kts | 33° |
| 2026-05-05 05:28 | 0.91766 | 44.55898 | 34952 ft | 491 kts | 33° |
| 2026-05-05 05:28 | 0.97435 | 44.59716 | 34953 ft | 491 kts | 33° |
| 2026-05-05 05:29 | 1.03099 | 44.63531 | 34955 ft | 491 kts | 33° |
| 2026-05-05 05:29 | 1.07809 | 44.66702 | 34955 ft | 491 kts | 33° |
| 2026-05-05 05:30 | 1.13480 | 44.70522 | 34956 ft | 492 kts | 33° |
| 2026-05-05 05:30 | 1.19158 | 44.74346 | 34956 ft | 492 kts | 33° |
| 2026-05-05 05:31 | 1.24837 | 44.78172 | 34951 ft | 492 kts | 33° |
| 2026-05-05 05:31 | 1.30519 | 44.81999 | 34950 ft | 493 kts | 33° |
| 2026-05-05 05:32 | 1.36200 | 44.85826 | 34949 ft | 493 kts | 33° |
| 2026-05-05 05:32 | 1.41877 | 44.89651 | 34951 ft | 492 kts | 33° |
| 2026-05-05 05:33 | 1.47548 | 44.93472 | 34950 ft | 492 kts | 33° |
| 2026-05-05 05:33 | 1.53218 | 44.97293 | 34953 ft | 491 kts | 33° |
| 2026-05-05 05:34 | 1.58885 | 45.01111 | 34954 ft | 491 kts | 33° |
| 2026-05-05 05:34 | 1.64519 | 45.04907 | 34953 ft | 492 kts | 33° |
| 2026-05-05 05:35 | 1.70197 | 45.08734 | 34960 ft | 492 kts | 33° |
| 2026-05-05 05:35 | 1.75884 | 45.12567 | 34945 ft | 493 kts | 33° |
| 2026-05-05 05:36 | 1.81568 | 45.16399 | 34934 ft | 493 kts | 33° |
| 2026-05-05 05:36 | 1.87255 | 45.20232 | 34926 ft | 494 kts | 33° |
| 2026-05-05 05:37 | 1.92947 | 45.24070 | 34913 ft | 492 kts | 33° |
| 2026-05-05 05:37 | 1.98622 | 45.27897 | 34907 ft | 492 kts | 33° |
| 2026-05-05 05:38 | 2.04373 | 45.31573 | 34906 ft | 490 kts | 30° |
| 2026-05-05 05:38 | 2.10241 | 45.35061 | 34917 ft | 491 kts | 30° |
| 2026-05-05 05:39 | 2.16130 | 45.38542 | 34963 ft | 492 kts | 30° |
| 2026-05-05 05:39 | 2.22021 | 45.42050 | 34966 ft | 493 kts | 31° |
| 2026-05-05 05:40 | 2.27906 | 45.45571 | 34959 ft | 493 kts | 31° |
| 2026-05-05 05:40 | 2.33788 | 45.49093 | 34966 ft | 493 kts | 31° |
| 2026-05-05 05:41 | 2.39662 | 45.52611 | 34957 ft | 492 kts | 31° |
| 2026-05-05 05:41 | 2.45496 | 45.56104 | 34959 ft | 492 kts | 31° |
| 2026-05-05 05:42 | 2.51366 | 45.59619 | 34960 ft | 492 kts | 31° |
| 2026-05-05 05:42 | 2.57266 | 45.63152 | 34960 ft | 491 kts | 31° |
| 2026-05-05 05:43 | 2.63098 | 45.66644 | 34965 ft | 491 kts | 31° |
| 2026-05-05 05:43 | 2.68967 | 45.70159 | 34963 ft | 492 kts | 31° |
| 2026-05-05 05:44 | 2.74874 | 45.73698 | 34965 ft | 492 kts | 30° |
| 2026-05-05 05:44 | 2.80745 | 45.77216 | 34965 ft | 491 kts | 30° |
| 2026-05-05 05:45 | 2.86575 | 45.80708 | 34962 ft | 491 kts | 31° |
| 2026-05-05 05:45 | 2.92436 | 45.84220 | 34961 ft | 491 kts | 31° |
| 2026-05-05 05:46 | 2.98298 | 45.87733 | 34960 ft | 491 kts | 31° |
| 2026-05-05 05:46 | 3.04166 | 45.91250 | 34958 ft | 492 kts | 30° |
| 2026-05-05 05:47 | 3.10037 | 45.94769 | 34959 ft | 492 kts | 31° |
| 2026-05-05 05:47 | 3.15905 | 45.98288 | 34962 ft | 492 kts | 30° |
| 2026-05-05 05:48 | 3.21772 | 46.01806 | 34959 ft | 491 kts | 30° |
| 2026-05-05 05:48 | 3.27631 | 46.05319 | 34963 ft | 491 kts | 30° |
| 2026-05-05 05:49 | 3.33485 | 46.08831 | 34965 ft | 490 kts | 30° |
| 2026-05-05 05:49 | 3.39347 | 46.12347 | 34965 ft | 491 kts | 30° |
| 2026-05-05 05:50 | 3.45213 | 46.15865 | 34964 ft | 491 kts | 30° |
| 2026-05-05 05:50 | 3.51078 | 46.19384 | 34963 ft | 491 kts | 30° |
| 2026-05-05 05:51 | 3.56906 | 46.22882 | 34962 ft | 492 kts | 30° |
| 2026-05-05 05:51 | 3.62771 | 46.26402 | 34957 ft | 492 kts | 31° |
| 2026-05-05 05:52 | 3.68633 | 46.29921 | 34956 ft | 492 kts | 30° |
| 2026-05-05 05:52 | 3.74495 | 46.33441 | 34957 ft | 491 kts | 30° |
| 2026-05-05 05:53 | 3.80361 | 46.36964 | 34957 ft | 492 kts | 30° |
| 2026-05-05 05:53 | 3.86221 | 46.40483 | 34957 ft | 491 kts | 30° |
| 2026-05-05 05:54 | 3.92077 | 46.44000 | 34955 ft | 491 kts | 31° |
| 2026-05-05 05:54 | 3.97932 | 46.47518 | 34957 ft | 491 kts | 31° |
| 2026-05-05 05:55 | 4.03786 | 46.51036 | 34957 ft | 491 kts | 31° |
| 2026-05-05 05:55 | 4.09650 | 46.54559 | 34956 ft | 491 kts | 30° |
| 2026-05-05 05:56 | 4.15508 | 46.58081 | 34957 ft | 491 kts | 31° |
| 2026-05-05 05:56 | 4.21365 | 46.61602 | 34955 ft | 491 kts | 31° |
| 2026-05-05 05:57 | 4.27218 | 46.65122 | 34953 ft | 490 kts | 31° |
| 2026-05-05 05:57 | 4.33062 | 46.68636 | 34949 ft | 490 kts | 31° |
| 2026-05-05 05:58 | 4.38869 | 46.72129 | 34949 ft | 490 kts | 31° |
| 2026-05-05 05:58 | 4.44715 | 46.75646 | 34951 ft | 490 kts | 31° |
| 2026-05-05 05:59 | 4.50563 | 46.79166 | 34950 ft | 491 kts | 31° |
| 2026-05-05 05:59 | 4.56414 | 46.82687 | 34952 ft | 491 kts | 31° |
| 2026-05-05 06:00 | 4.62262 | 46.86207 | 34959 ft | 490 kts | 31° |
| 2026-05-05 06:00 | 4.68103 | 46.89724 | 34957 ft | 489 kts | 31° |
| 2026-05-05 06:01 | 4.73943 | 46.93241 | 34955 ft | 490 kts | 31° |
| 2026-05-05 06:01 | 4.79791 | 46.96763 | 34960 ft | 491 kts | 31° |
| 2026-05-05 06:02 | 4.85649 | 47.00292 | 34956 ft | 491 kts | 31° |
| 2026-05-05 06:02 | 4.91507 | 47.03822 | 34955 ft | 491 kts | 31° |
| 2026-05-05 06:03 | 4.97360 | 47.07350 | 34954 ft | 490 kts | 31° |
| 2026-05-05 06:03 | 5.03204 | 47.10873 | 34952 ft | 490 kts | 31° |
| 2026-05-05 06:04 | 5.09049 | 47.14397 | 34949 ft | 490 kts | 31° |
| 2026-05-05 06:04 | 5.14898 | 47.17924 | 34948 ft | 491 kts | 31° |
| 2026-05-05 06:05 | 5.20748 | 47.21453 | 34948 ft | 491 kts | 31° |
| 2026-05-05 06:05 | 5.26603 | 47.24986 | 34948 ft | 491 kts | 31° |
| 2026-05-05 06:06 | 5.32418 | 47.28495 | 34948 ft | 491 kts | 32° |
| 2026-05-05 06:06 | 5.38270 | 47.32028 | 34946 ft | 491 kts | 31° |
| 2026-05-05 06:07 | 5.44121 | 47.35560 | 34948 ft | 491 kts | 32° |
| 2026-05-05 06:07 | 5.49970 | 47.39093 | 34950 ft | 491 kts | 32° |
| 2026-05-05 06:08 | 5.55823 | 47.42629 | 34948 ft | 491 kts | 31° |
| 2026-05-05 06:08 | 5.61673 | 47.46164 | 34950 ft | 491 kts | 32° |
| 2026-05-05 06:09 | 5.67523 | 47.49704 | 34947 ft | 491 kts | 32° |
| 2026-05-05 06:09 | 5.73356 | 47.53270 | 34946 ft | 491 kts | 32° |
| 2026-05-05 06:10 | 5.79181 | 47.56846 | 34946 ft | 491 kts | 32° |
| 2026-05-05 06:10 | 5.85006 | 47.60420 | 34947 ft | 491 kts | 32° |
| 2026-05-05 06:11 | 5.90836 | 47.63994 | 34942 ft | 491 kts | 32° |
| 2026-05-05 06:11 | 5.96667 | 47.67570 | 34941 ft | 491 kts | 32° |
| 2026-05-05 06:12 | 6.02500 | 47.71147 | 34941 ft | 491 kts | 33° |
| 2026-05-05 06:12 | 6.08292 | 47.74699 | 34940 ft | 491 kts | 32° |
| 2026-05-05 06:13 | 6.14125 | 47.78278 | 34941 ft | 491 kts | 32° |
| 2026-05-05 06:13 | 6.19954 | 47.81855 | 34937 ft | 491 kts | 33° |
| 2026-05-05 06:14 | 6.25790 | 47.85437 | 34943 ft | 492 kts | 33° |
| 2026-05-05 06:14 | 6.31636 | 47.89027 | 34943 ft | 493 kts | 33° |
| 2026-05-05 06:15 | 6.37486 | 47.92621 | 34944 ft | 493 kts | 33° |
| 2026-05-05 06:15 | 6.43333 | 47.96213 | 34944 ft | 493 kts | 33° |
| 2026-05-05 06:16 | 6.49181 | 47.99807 | 34944 ft | 492 kts | 32° |
| 2026-05-05 06:16 | 6.55022 | 48.03397 | 34944 ft | 492 kts | 33° |
| 2026-05-05 06:17 | 6.60864 | 48.06990 | 34941 ft | 492 kts | 33° |
| 2026-05-05 06:17 | 6.66706 | 48.10583 | 34942 ft | 492 kts | 32° |
| 2026-05-05 06:18 | 6.71564 | 48.13572 | 34944 ft | 493 kts | 33° |
| 2026-05-05 06:18 | 6.77414 | 48.17172 | 34941 ft | 493 kts | 33° |
| 2026-05-05 06:19 | 6.83263 | 48.20772 | 34942 ft | 493 kts | 33° |
| 2026-05-05 06:19 | 6.90065 | 48.24960 | 34939 ft | 493 kts | 33° |
| 2026-05-05 06:20 | 6.94965 | 48.27979 | 34942 ft | 493 kts | 33° |
| 2026-05-05 06:20 | 7.00815 | 48.31583 | 34942 ft | 493 kts | 33° |
| 2026-05-05 06:21 | 7.06666 | 48.35189 | 34942 ft | 493 kts | 33° |
| 2026-05-05 06:21 | 7.12514 | 48.38794 | 34939 ft | 493 kts | 33° |
| 2026-05-05 06:22 | 7.18320 | 48.42375 | 34944 ft | 493 kts | 33° |
| 2026-05-05 06:22 | 7.24167 | 48.45982 | 34944 ft | 493 kts | 33° |
| 2026-05-05 06:23 | 7.30016 | 48.49592 | 34948 ft | 493 kts | 33° |
| 2026-05-05 06:23 | 7.35868 | 48.53200 | 34948 ft | 493 kts | 33° |
| 2026-05-05 06:24 | 7.41749 | 48.56767 | 34953 ft | 493 kts | 32° |
| 2026-05-05 06:24 | 7.47639 | 48.60320 | 34953 ft | 493 kts | 32° |
| 2026-05-05 06:25 | 7.53525 | 48.63880 | 34957 ft | 493 kts | 32° |
| 2026-05-05 06:25 | 7.59406 | 48.67443 | 34955 ft | 493 kts | 32° |
| 2026-05-05 06:26 | 7.65286 | 48.71009 | 34960 ft | 493 kts | 32° |
| 2026-05-05 06:26 | 7.71164 | 48.74575 | 34959 ft | 493 kts | 32° |
| 2026-05-05 06:27 | 7.79980 | 48.79925 | 34955 ft | 493 kts | 32° |
| 2026-05-05 06:28 | 7.85859 | 48.83495 | 34955 ft | 493 kts | 33° |
| 2026-05-05 06:28 | 7.91741 | 48.87066 | 34953 ft | 493 kts | 33° |
| 2026-05-05 06:29 | 7.97619 | 48.90637 | 34953 ft | 493 kts | 33° |
| 2026-05-05 06:29 | 8.03498 | 48.94210 | 34942 ft | 494 kts | 32° |
| 2026-05-05 06:30 | 8.09381 | 48.97786 | 34946 ft | 494 kts | 32° |
| 2026-05-05 06:30 | 8.15272 | 49.01369 | 34951 ft | 495 kts | 32° |
| 2026-05-05 06:31 | 8.21170 | 49.04957 | 34950 ft | 495 kts | 32° |
| 2026-05-05 06:31 | 8.27072 | 49.08548 | 34948 ft | 495 kts | 32° |
| 2026-05-05 06:32 | 8.32979 | 49.12144 | 34940 ft | 496 kts | 32° |
| 2026-05-05 06:32 | 8.38884 | 49.15741 | 34945 ft | 496 kts | 32° |
| 2026-05-05 06:33 | 8.44792 | 49.19340 | 34945 ft | 496 kts | 32° |
| 2026-05-05 06:33 | 8.50657 | 49.22915 | 34954 ft | 496 kts | 32° |
| 2026-05-05 06:34 | 8.56562 | 49.26515 | 34953 ft | 496 kts | 32° |
| 2026-05-05 06:34 | 8.62462 | 49.30114 | 34956 ft | 495 kts | 32° |
| 2026-05-05 06:35 | 8.68375 | 49.33719 | 35064 ft | 498 kts | 32° |
| 2026-05-05 06:35 | 8.71339 | 49.35527 | 35308 ft | 497 kts | 32° |
| 2026-05-05 06:35 | 8.74297 | 49.37331 | 35590 ft | 496 kts | 32° |
| 2026-05-05 06:35 | 8.77246 | 49.39130 | 35888 ft | 494 kts | 32° |
| 2026-05-05 06:36 | 8.80182 | 49.40923 | 36160 ft | 493 kts | 32° |
| 2026-05-05 06:36 | 8.83113 | 49.42712 | 36395 ft | 492 kts | 32° |
| 2026-05-05 06:36 | 8.86041 | 49.44500 | 36595 ft | 492 kts | 32° |
| 2026-05-05 06:36 | 8.88972 | 49.46291 | 36825 ft | 492 kts | 32° |
| 2026-05-05 06:37 | 8.91904 | 49.48083 | 36884 ft | 493 kts | 32° |
| 2026-05-05 06:37 | 8.97763 | 49.51663 | 36946 ft | 490 kts | 33° |
| 2026-05-05 06:38 | 9.03577 | 49.55218 | 36943 ft | 486 kts | 33° |
| 2026-05-05 06:38 | 9.09349 | 49.58748 | 36948 ft | 484 kts | 33° |
| 2026-05-05 06:39 | 9.15104 | 49.62270 | 36945 ft | 483 kts | 33° |
| 2026-05-05 06:39 | 9.20863 | 49.65796 | 36947 ft | 484 kts | 33° |
| 2026-05-05 06:40 | 9.26636 | 49.69332 | 36946 ft | 486 kts | 33° |
| 2026-05-05 06:40 | 9.32430 | 49.72886 | 36948 ft | 488 kts | 33° |
| 2026-05-05 06:41 | 9.38249 | 49.76459 | 36951 ft | 490 kts | 33° |
| 2026-05-05 06:41 | 9.44082 | 49.80041 | 36946 ft | 491 kts | 33° |
| 2026-05-05 06:42 | 9.49926 | 49.83632 | 36946 ft | 492 kts | 33° |
| 2026-05-05 06:42 | 9.55735 | 49.87202 | 36943 ft | 492 kts | 33° |
| 2026-05-05 06:43 | 9.61581 | 49.90796 | 36943 ft | 491 kts | 33° |
| 2026-05-05 06:43 | 9.67422 | 49.94389 | 36941 ft | 491 kts | 33° |
| 2026-05-05 06:44 | 9.73258 | 49.97981 | 36940 ft | 490 kts | 33° |
| 2026-05-05 06:44 | 9.79088 | 50.01570 | 36940 ft | 490 kts | 33° |
| 2026-05-05 06:45 | 9.84917 | 50.05160 | 36934 ft | 490 kts | 33° |
| 2026-05-05 06:45 | 9.90744 | 50.08750 | 36932 ft | 490 kts | 33° |
| 2026-05-05 06:46 | 9.96574 | 50.12344 | 36934 ft | 491 kts | 33° |
| 2026-05-05 06:46 | 10.02410 | 50.15943 | 36930 ft | 491 kts | 33° |
| 2026-05-05 06:47 | 10.08252 | 50.19547 | 36924 ft | 492 kts | 33° |
| 2026-05-05 06:47 | 10.14098 | 50.23155 | 36925 ft | 492 kts | 33° |
| 2026-05-05 06:48 | 10.19948 | 50.26768 | 36916 ft | 492 kts | 33° |
| 2026-05-05 06:48 | 10.25803 | 50.30384 | 36919 ft | 493 kts | 33° |
| 2026-05-05 06:49 | 10.31668 | 50.34009 | 36917 ft | 494 kts | 33° |
| 2026-05-05 06:49 | 10.37538 | 50.37638 | 36917 ft | 494 kts | 33° |
| 2026-05-05 06:50 | 10.43416 | 50.41274 | 36915 ft | 495 kts | 33° |
| 2026-05-05 06:50 | 10.49293 | 50.44911 | 36906 ft | 495 kts | 33° |
| 2026-05-05 06:51 | 10.55176 | 50.48553 | 36916 ft | 495 kts | 33° |
| 2026-05-05 06:51 | 10.61061 | 50.52198 | 36917 ft | 496 kts | 33° |
| 2026-05-05 06:52 | 10.66952 | 50.55849 | 36912 ft | 496 kts | 33° |
| 2026-05-05 06:52 | 10.72845 | 50.59502 | 36913 ft | 496 kts | 33° |
| 2026-05-05 06:53 | 10.78735 | 50.63156 | 36906 ft | 496 kts | 33° |
| 2026-05-05 06:53 | 10.84625 | 50.66811 | 36912 ft | 496 kts | 33° |
| 2026-05-05 06:54 | 10.90519 | 50.70469 | 36913 ft | 496 kts | 33° |
| 2026-05-05 06:54 | 10.96410 | 50.74129 | 36911 ft | 496 kts | 33° |
| 2026-05-05 06:55 | 11.02303 | 50.77791 | 36917 ft | 496 kts | 33° |
| 2026-05-05 06:55 | 11.08155 | 50.81429 | 36910 ft | 496 kts | 33° |
| 2026-05-05 06:56 | 11.14045 | 50.85093 | 36914 ft | 496 kts | 33° |
| 2026-05-05 06:56 | 11.19936 | 50.88759 | 36910 ft | 496 kts | 33° |
| 2026-05-05 06:57 | 11.25829 | 50.92429 | 36915 ft | 496 kts | 33° |
| 2026-05-05 06:57 | 11.31723 | 50.96101 | 36914 ft | 497 kts | 33° |
| 2026-05-05 06:58 | 11.37618 | 50.99776 | 36904 ft | 497 kts | 33° |
| 2026-05-05 06:58 | 11.43515 | 51.03449 | 36909 ft | 497 kts | 32° |
| 2026-05-05 06:59 | 11.49419 | 51.07120 | 36892 ft | 497 kts | 32° |
| 2026-05-05 06:59 | 11.55319 | 51.10791 | 36899 ft | 497 kts | 32° |
| 2026-05-05 07:00 | 11.61221 | 51.14467 | 36891 ft | 497 kts | 32° |
| 2026-05-05 07:00 | 11.67117 | 51.18142 | 36893 ft | 497 kts | 32° |
| 2026-05-05 07:01 | 11.73014 | 51.21819 | 36897 ft | 497 kts | 32° |
| 2026-05-05 07:01 | 11.78910 | 51.25498 | 36885 ft | 497 kts | 32° |
| 2026-05-05 07:02 | 11.84810 | 51.29181 | 36887 ft | 497 kts | 32° |
| 2026-05-05 07:02 | 11.90711 | 51.32866 | 36883 ft | 497 kts | 32° |
| 2026-05-05 07:03 | 11.96612 | 51.36554 | 36884 ft | 497 kts | 32° |
| 2026-05-05 07:03 | 12.02513 | 51.40243 | 36883 ft | 497 kts | 32° |
| 2026-05-05 07:04 | 12.08379 | 51.43908 | 36882 ft | 497 kts | 32° |
| 2026-05-05 07:04 | 12.14282 | 51.47595 | 36883 ft | 497 kts | 33° |
| 2026-05-05 07:05 | 12.20182 | 51.51284 | 36882 ft | 497 kts | 33° |
| 2026-05-05 07:05 | 12.25130 | 51.54379 | 36882 ft | 497 kts | 33° |
| 2026-05-05 07:06 | 12.31988 | 51.58673 | 36881 ft | 497 kts | 33° |
| 2026-05-05 07:06 | 12.36934 | 51.61771 | 36882 ft | 497 kts | 32° |
| 2026-05-05 07:07 | 12.42835 | 51.65469 | 36881 ft | 498 kts | 33° |
| 2026-05-05 07:07 | 12.48742 | 51.69173 | 36883 ft | 498 kts | 33° |
| 2026-05-05 07:08 | 12.54647 | 51.72877 | 36878 ft | 498 kts | 33° |
| 2026-05-05 07:08 | 12.60557 | 51.76587 | 36882 ft | 498 kts | 32° |
| 2026-05-05 07:09 | 12.66431 | 51.80276 | 36880 ft | 499 kts | 32° |
| 2026-05-05 07:09 | 12.72343 | 51.83991 | 36881 ft | 499 kts | 32° |
| 2026-05-05 07:10 | 12.78259 | 51.87710 | 36878 ft | 499 kts | 32° |
| 2026-05-05 07:10 | 12.84174 | 51.91432 | 36880 ft | 499 kts | 32° |
| 2026-05-05 07:11 | 12.90092 | 51.95156 | 36878 ft | 499 kts | 33° |
| 2026-05-05 07:11 | 12.96004 | 51.98879 | 36881 ft | 499 kts | 33° |
| 2026-05-05 07:12 | 13.01918 | 52.02606 | 36879 ft | 499 kts | 33° |
| 2026-05-05 07:12 | 13.07830 | 52.06334 | 36877 ft | 499 kts | 33° |
| 2026-05-05 07:13 | 13.13738 | 52.10061 | 36877 ft | 498 kts | 33° |
| 2026-05-05 07:13 | 13.19643 | 52.13789 | 36877 ft | 498 kts | 33° |
| 2026-05-05 07:14 | 13.25539 | 52.17513 | 36871 ft | 498 kts | 33° |
| 2026-05-05 07:14 | 13.31437 | 52.21241 | 36878 ft | 498 kts | 33° |
| 2026-05-05 07:15 | 13.37331 | 52.24969 | 36876 ft | 498 kts | 33° |
| 2026-05-05 07:15 | 13.43223 | 52.28701 | 36872 ft | 498 kts | 33° |
| 2026-05-05 07:16 | 13.49111 | 52.32441 | 36877 ft | 498 kts | 33° |
| 2026-05-05 07:16 | 13.55003 | 52.36187 | 36876 ft | 498 kts | 33° |
| 2026-05-05 07:17 | 13.60898 | 52.39936 | 36872 ft | 498 kts | 33° |
| 2026-05-05 07:17 | 13.66795 | 52.43688 | 36876 ft | 499 kts | 32° |
| 2026-05-05 07:18 | 13.72656 | 52.47420 | 36877 ft | 499 kts | 33° |
| 2026-05-05 07:18 | 13.78595 | 52.51204 | 36877 ft | 499 kts | 33° |
| 2026-05-05 07:19 | 13.84499 | 52.54967 | 36883 ft | 499 kts | 33° |
| 2026-05-05 07:19 | 13.90363 | 52.58708 | 36884 ft | 499 kts | 32° |
| 2026-05-05 07:20 | 13.96268 | 52.62476 | 36883 ft | 499 kts | 33° |
| 2026-05-05 07:20 | 14.02209 | 52.66271 | 36882 ft | 499 kts | 33° |
| 2026-05-05 07:21 | 14.08069 | 52.70015 | 36895 ft | 499 kts | 32° |
| 2026-05-05 07:21 | 14.13969 | 52.73787 | 36889 ft | 499 kts | 32° |
| 2026-05-05 07:22 | 14.19870 | 52.77563 | 36894 ft | 499 kts | 33° |
| 2026-05-05 07:22 | 14.25769 | 52.81340 | 36892 ft | 499 kts | 32° |
| 2026-05-05 07:23 | 14.31668 | 52.85119 | 36887 ft | 499 kts | 32° |
| 2026-05-05 07:23 | 14.37561 | 52.88897 | 36891 ft | 499 kts | 33° |
| 2026-05-05 07:24 | 14.43454 | 52.92677 | 36890 ft | 499 kts | 32° |
| 2026-05-05 07:24 | 14.49348 | 52.96460 | 36891 ft | 499 kts | 32° |
| 2026-05-05 07:25 | 14.55241 | 53.00245 | 36889 ft | 499 kts | 33° |
| 2026-05-05 07:25 | 14.61130 | 53.04031 | 36891 ft | 499 kts | 32° |
| 2026-05-05 07:26 | 14.67023 | 53.07819 | 36890 ft | 499 kts | 32° |
| 2026-05-05 07:26 | 14.72923 | 53.11579 | 36884 ft | 498 kts | 32° |
| 2026-05-05 07:27 | 14.78826 | 53.15331 | 36888 ft | 498 kts | 32° |
| 2026-05-05 07:27 | 14.84722 | 53.19086 | 36887 ft | 498 kts | 33° |
| 2026-05-05 07:28 | 14.90614 | 53.22844 | 36884 ft | 498 kts | 32° |
| 2026-05-05 07:28 | 14.96505 | 53.26605 | 36880 ft | 498 kts | 32° |
| 2026-05-05 07:29 | 15.02394 | 53.30368 | 36880 ft | 497 kts | 32° |
| 2026-05-05 07:29 | 15.08277 | 53.34128 | 36879 ft | 497 kts | 32° |
| 2026-05-05 07:30 | 15.14159 | 53.37891 | 36882 ft | 497 kts | 32° |
| 2026-05-05 07:30 | 15.22981 | 53.43538 | 36883 ft | 497 kts | 32° |
| 2026-05-05 07:31 | 15.28821 | 53.47280 | 36879 ft | 497 kts | 32° |
| 2026-05-05 07:31 | 15.34704 | 53.51053 | 36880 ft | 497 kts | 32° |
| 2026-05-05 07:32 | 15.40584 | 53.54826 | 36874 ft | 497 kts | 32° |
| 2026-05-05 07:32 | 15.46451 | 53.58622 | 36875 ft | 497 kts | 33° |
| 2026-05-05 07:33 | 15.52271 | 53.62503 | 36874 ft | 497 kts | 33° |
| 2026-05-05 07:33 | 15.58083 | 53.66395 | 36873 ft | 497 kts | 33° |
| 2026-05-05 07:34 | 15.63900 | 53.70279 | 36868 ft | 497 kts | 33° |
| 2026-05-05 07:34 | 15.69718 | 53.74157 | 36878 ft | 497 kts | 33° |
| 2026-05-05 07:35 | 15.75533 | 53.78036 | 36870 ft | 497 kts | 33° |
| 2026-05-05 07:35 | 15.81350 | 53.81921 | 36872 ft | 497 kts | 33° |
| 2026-05-05 07:36 | 15.87164 | 53.85806 | 36872 ft | 497 kts | 33° |
| 2026-05-05 07:36 | 15.92993 | 53.89674 | 36870 ft | 497 kts | 32° |
| 2026-05-05 07:37 | 15.98832 | 53.93519 | 36874 ft | 497 kts | 32° |
| 2026-05-05 07:37 | 16.04678 | 53.97373 | 36865 ft | 497 kts | 32° |
| 2026-05-05 07:38 | 16.10519 | 54.01233 | 36864 ft | 498 kts | 32° |
| 2026-05-05 07:38 | 16.16363 | 54.05100 | 36862 ft | 498 kts | 32° |
| 2026-05-05 07:39 | 16.22210 | 54.08972 | 36860 ft | 498 kts | 32° |
| 2026-05-05 07:39 | 16.28059 | 54.12848 | 36856 ft | 499 kts | 32° |
| 2026-05-05 07:40 | 16.33911 | 54.16729 | 36861 ft | 499 kts | 32° |
| 2026-05-05 07:40 | 16.39769 | 54.20615 | 36856 ft | 500 kts | 32° |
| 2026-05-05 07:41 | 16.45632 | 54.24509 | 36856 ft | 500 kts | 32° |
| 2026-05-05 07:41 | 16.51495 | 54.28405 | 36857 ft | 500 kts | 32° |
| 2026-05-05 07:42 | 16.57361 | 54.32306 | 36849 ft | 500 kts | 32° |
| 2026-05-05 07:42 | 16.63226 | 54.36209 | 36846 ft | 500 kts | 32° |
| 2026-05-05 07:43 | 16.69053 | 54.40090 | 36851 ft | 501 kts | 32° |
| 2026-05-05 07:43 | 16.74925 | 54.44004 | 36848 ft | 501 kts | 32° |
| 2026-05-05 07:44 | 16.80795 | 54.47920 | 36857 ft | 501 kts | 32° |
| 2026-05-05 07:44 | 16.86668 | 54.51841 | 36854 ft | 501 kts | 32° |
| 2026-05-05 07:45 | 16.92540 | 54.55760 | 36857 ft | 501 kts | 32° |
| 2026-05-05 07:45 | 16.98412 | 54.59677 | 36868 ft | 501 kts | 32° |
| 2026-05-05 07:46 | 17.04287 | 54.63598 | 36869 ft | 501 kts | 32° |
| 2026-05-05 07:46 | 17.10162 | 54.67525 | 36868 ft | 502 kts | 32° |
| 2026-05-05 07:47 | 17.16041 | 54.71459 | 36869 ft | 502 kts | 32° |
| 2026-05-05 07:47 | 17.21921 | 54.75396 | 36864 ft | 502 kts | 32° |
| 2026-05-05 07:48 | 17.27804 | 54.79342 | 36867 ft | 503 kts | 32° |
| 2026-05-05 07:48 | 17.33533 | 54.83544 | 36856 ft | 503 kts | 35° |
| 2026-05-05 07:49 | 17.39180 | 54.87883 | 36851 ft | 504 kts | 35° |
| 2026-05-05 07:49 | 17.44847 | 54.92193 | 36841 ft | 503 kts | 34° |
| 2026-05-05 07:50 | 17.50532 | 54.96469 | 36835 ft | 503 kts | 34° |
| 2026-05-05 07:50 | 17.56223 | 55.00743 | 36837 ft | 503 kts | 34° |
| 2026-05-05 07:51 | 17.60949 | 55.04299 | 36835 ft | 503 kts | 35° |
| 2026-05-05 07:51 | 17.66623 | 55.08574 | 36825 ft | 502 kts | 35° |
| 2026-05-05 07:52 | 17.72289 | 55.12847 | 36814 ft | 501 kts | 35° |
| 2026-05-05 07:52 | 17.77945 | 55.17115 | 36820 ft | 501 kts | 35° |
| 2026-05-05 07:53 | 17.83592 | 55.21390 | 36818 ft | 500 kts | 35° |
| 2026-05-05 07:53 | 17.89236 | 55.25669 | 36809 ft | 500 kts | 35° |
| 2026-05-05 07:54 | 17.94875 | 55.29947 | 36814 ft | 500 kts | 35° |
| 2026-05-05 07:54 | 18.00512 | 55.34227 | 36803 ft | 500 kts | 35° |
| 2026-05-05 07:55 | 18.06147 | 55.38509 | 36811 ft | 500 kts | 35° |
| 2026-05-05 07:55 | 18.11835 | 55.42715 | 36802 ft | 500 kts | 32° |
| 2026-05-05 07:56 | 18.17658 | 55.46611 | 36808 ft | 500 kts | 31° |
| 2026-05-05 07:56 | 18.23525 | 55.50542 | 36802 ft | 500 kts | 32° |
| 2026-05-05 07:57 | 18.29359 | 55.54527 | 36798 ft | 500 kts | 32° |
| 2026-05-05 07:57 | 18.35197 | 55.58523 | 36799 ft | 501 kts | 32° |
| 2026-05-05 07:58 | 18.41040 | 55.62529 | 36794 ft | 501 kts | 32° |
| 2026-05-05 07:58 | 18.46879 | 55.66539 | 36796 ft | 501 kts | 32° |
| 2026-05-05 07:59 | 18.52723 | 55.70556 | 36794 ft | 502 kts | 32° |
| 2026-05-05 07:59 | 18.58568 | 55.74576 | 36794 ft | 502 kts | 32° |
| 2026-05-05 08:00 | 18.64411 | 55.78600 | 36797 ft | 501 kts | 32° |
| 2026-05-05 08:00 | 18.70249 | 55.82622 | 36797 ft | 501 kts | 32° |
| 2026-05-05 08:01 | 18.76086 | 55.86647 | 36794 ft | 501 kts | 32° |
| 2026-05-05 08:01 | 18.81923 | 55.90676 | 36796 ft | 501 kts | 32° |
| 2026-05-05 08:02 | 18.87761 | 55.94709 | 36791 ft | 501 kts | 32° |
| 2026-05-05 08:02 | 18.93615 | 55.98711 | 36790 ft | 501 kts | 29° |
| 2026-05-05 08:03 | 18.99912 | 56.01809 | 36793 ft | 499 kts | 19° |
| 2026-05-05 08:03 | 19.06591 | 56.03794 | 36802 ft | 498 kts | 13° |
| 2026-05-05 08:04 | 19.13334 | 56.05534 | 36784 ft | 499 kts | 13° |
| 2026-05-05 08:04 | 19.20074 | 56.07301 | 36791 ft | 499 kts | 13° |
| 2026-05-05 08:05 | 19.26812 | 56.09106 | 36789 ft | 500 kts | 13° |
| 2026-05-05 08:05 | 19.33505 | 56.10913 | 36789 ft | 500 kts | 13° |
| 2026-05-05 08:06 | 19.40249 | 56.12734 | 36789 ft | 500 kts | 13° |
| 2026-05-05 08:06 | 19.46993 | 56.14554 | 36789 ft | 500 kts | 13° |
| 2026-05-05 08:07 | 19.53735 | 56.16375 | 36791 ft | 500 kts | 13° |
| 2026-05-05 08:07 | 19.60476 | 56.18197 | 36791 ft | 500 kts | 13° |
| 2026-05-05 08:08 | 19.67217 | 56.20021 | 36789 ft | 500 kts | 13° |
| 2026-05-05 08:08 | 19.73957 | 56.21846 | 36788 ft | 500 kts | 13° |
| 2026-05-05 08:09 | 19.80694 | 56.23673 | 36794 ft | 500 kts | 13° |
| 2026-05-05 08:09 | 19.87434 | 56.25501 | 36793 ft | 500 kts | 13° |
| 2026-05-05 08:10 | 19.94176 | 56.27308 | 36793 ft | 499 kts | 11° |
| 2026-05-05 08:10 | 20.01042 | 56.28218 | 36795 ft | 497 kts | 359° |
| 2026-05-05 08:11 | 20.07953 | 56.28198 | 36797 ft | 497 kts | 358° |
| 2026-05-05 08:11 | 20.14870 | 56.28144 | 36793 ft | 497 kts | 358° |
| 2026-05-05 08:12 | 20.21790 | 56.28136 | 36796 ft | 498 kts | 358° |
| 2026-05-05 08:12 | 20.28720 | 56.28151 | 36794 ft | 498 kts | 358° |
| 2026-05-05 08:13 | 20.35662 | 56.28166 | 36882 ft | 500 kts | 358° |
| 2026-05-05 08:13 | 20.39144 | 56.28172 | 37114 ft | 500 kts | 358° |
| 2026-05-05 08:13 | 20.42571 | 56.28178 | 37377 ft | 499 kts | 358° |
| 2026-05-05 08:14 | 20.46038 | 56.28184 | 37631 ft | 498 kts | 358° |
| 2026-05-05 08:14 | 20.49503 | 56.28190 | 37731 ft | 498 kts | 358° |
| 2026-05-05 08:14 | 20.56421 | 56.28107 | 37782 ft | 494 kts | 354° |
| 2026-05-05 08:15 | 20.63192 | 56.27204 | 37787 ft | 489 kts | 350° |
| 2026-05-05 08:15 | 20.69915 | 56.26168 | 37792 ft | 487 kts | 350° |
| 2026-05-05 08:16 | 20.76629 | 56.25165 | 37792 ft | 487 kts | 350° |
| 2026-05-05 08:16 | 20.83353 | 56.24188 | 37803 ft | 488 kts | 350° |
| 2026-05-05 08:17 | 20.90096 | 56.23215 | 37797 ft | 489 kts | 350° |
| 2026-05-05 08:17 | 20.96850 | 56.22239 | 37791 ft | 491 kts | 350° |
| 2026-05-05 08:18 | 21.03625 | 56.21256 | 37800 ft | 492 kts | 350° |
| 2026-05-05 08:18 | 21.10413 | 56.20271 | 37799 ft | 493 kts | 350° |
| 2026-05-05 08:19 | 21.17211 | 56.19283 | 37795 ft | 493 kts | 350° |
| 2026-05-05 08:19 | 21.24017 | 56.18293 | 37801 ft | 494 kts | 349° |
| 2026-05-05 08:20 | 21.30825 | 56.17301 | 37796 ft | 494 kts | 349° |
| 2026-05-05 08:20 | 21.37636 | 56.16306 | 37795 ft | 494 kts | 349° |
| 2026-05-05 08:21 | 21.44448 | 56.15308 | 37796 ft | 494 kts | 349° |
| 2026-05-05 08:21 | 21.51257 | 56.14310 | 37796 ft | 494 kts | 349° |
| 2026-05-05 08:22 | 21.58063 | 56.13312 | 37796 ft | 494 kts | 349° |
| 2026-05-05 08:22 | 21.64868 | 56.12313 | 37799 ft | 494 kts | 349° |
| 2026-05-05 08:23 | 21.71675 | 56.11313 | 37795 ft | 494 kts | 349° |
| 2026-05-05 08:23 | 21.78433 | 56.10319 | 37799 ft | 494 kts | 349° |
| 2026-05-05 08:24 | 21.85242 | 56.09316 | 37798 ft | 494 kts | 349° |
| 2026-05-05 08:24 | 21.92052 | 56.08313 | 37799 ft | 494 kts | 349° |
| 2026-05-05 08:25 | 21.98869 | 56.07307 | 37797 ft | 494 kts | 349° |
| 2026-05-05 08:25 | 22.05689 | 56.06299 | 37799 ft | 495 kts | 349° |
| 2026-05-05 08:26 | 22.12509 | 56.05285 | 37797 ft | 495 kts | 349° |
| 2026-05-05 08:26 | 22.19333 | 56.04269 | 37797 ft | 495 kts | 349° |
| 2026-05-05 08:27 | 22.26156 | 56.03252 | 37801 ft | 495 kts | 348° |
| 2026-05-05 08:27 | 22.32984 | 56.02234 | 37797 ft | 495 kts | 348° |
| 2026-05-05 08:28 | 22.39816 | 56.01215 | 37796 ft | 495 kts | 348° |
| 2026-05-05 08:28 | 22.46646 | 56.00203 | 37801 ft | 495 kts | 348° |
| 2026-05-05 08:29 | 22.53478 | 55.99191 | 37804 ft | 496 kts | 348° |
| 2026-05-05 08:30 | 22.63726 | 55.97668 | 37797 ft | 495 kts | 348° |
| 2026-05-05 08:30 | 22.70555 | 55.96652 | 37804 ft | 495 kts | 348° |
| 2026-05-05 08:31 | 22.77384 | 55.95635 | 37802 ft | 495 kts | 348° |
| 2026-05-05 08:31 | 22.84217 | 55.94617 | 37807 ft | 495 kts | 348° |
| 2026-05-05 08:32 | 22.91046 | 55.93600 | 37801 ft | 495 kts | 348° |
| 2026-05-05 08:32 | 22.97872 | 55.92581 | 37802 ft | 495 kts | 348° |
| 2026-05-05 08:33 | 23.04694 | 55.91562 | 37810 ft | 495 kts | 348° |
| 2026-05-05 08:33 | 23.11515 | 55.90537 | 37810 ft | 495 kts | 348° |
| 2026-05-05 08:34 | 23.18283 | 55.89517 | 37807 ft | 494 kts | 348° |
| 2026-05-05 08:34 | 23.25095 | 55.88490 | 37808 ft | 494 kts | 348° |
| 2026-05-05 08:35 | 23.31903 | 55.87463 | 37820 ft | 494 kts | 347° |
| 2026-05-05 08:35 | 23.38709 | 55.86435 | 37810 ft | 494 kts | 347° |
| 2026-05-05 08:36 | 23.45512 | 55.85407 | 37804 ft | 493 kts | 347° |
| 2026-05-05 08:36 | 23.52312 | 55.84377 | 37813 ft | 493 kts | 347° |
| 2026-05-05 08:37 | 23.59107 | 55.83352 | 37816 ft | 493 kts | 347° |
| 2026-05-05 08:37 | 23.65908 | 55.82331 | 37804 ft | 493 kts | 347° |
| 2026-05-05 08:38 | 23.72751 | 55.81901 | 37806 ft | 494 kts | 358° |
| 2026-05-05 08:38 | 23.79605 | 55.82588 | 37821 ft | 494 kts | 1° |
| 2026-05-05 08:39 | 23.86438 | 55.83368 | 37812 ft | 494 kts | 0° |
| 2026-05-05 08:39 | 23.93269 | 55.84103 | 37819 ft | 494 kts | 0° |
| 2026-05-05 08:40 | 23.98956 | 55.84693 | 37823 ft | 494 kts | 0° |
| 2026-05-05 08:40 | 24.05814 | 55.85401 | 37824 ft | 495 kts | 0° |
| 2026-05-05 08:41 | 24.12683 | 55.86115 | 37819 ft | 496 kts | 0° |
| 2026-05-05 08:41 | 24.19566 | 55.86832 | 37826 ft | 497 kts | 0° |
| 2026-05-05 08:42 | 24.26419 | 55.87549 | 37598 ft | 488 kts | 0° |
| 2026-05-05 08:42 | 24.29778 | 55.87912 | 37097 ft | 484 kts | 1° |
| 2026-05-05 08:42 | 24.33130 | 55.88475 | 36253 ft | 492 kts | 8° |
| 2026-05-05 08:42 | 24.36377 | 55.89628 | 35361 ft | 505 kts | 20° |
| 2026-05-05 08:43 | 24.39484 | 55.91488 | 34511 ft | 514 kts | 30° |
| 2026-05-05 08:43 | 24.42317 | 55.93926 | 33714 ft | 521 kts | 39° |
| 2026-05-05 08:43 | 24.44956 | 55.96661 | 32799 ft | 523 kts | 40° |
| 2026-05-05 08:43 | 24.47623 | 55.99458 | 31854 ft | 524 kts | 40° |
| 2026-05-05 08:44 | 24.50286 | 56.02193 | 30924 ft | 525 kts | 40° |
| 2026-05-05 08:44 | 24.52949 | 56.04867 | 30054 ft | 526 kts | 39° |
| 2026-05-05 08:44 | 24.55649 | 56.07552 | 29266 ft | 519 kts | 39° |
| 2026-05-05 08:44 | 24.58490 | 56.09931 | 28607 ft | 509 kts | 29° |
| 2026-05-05 08:45 | 24.61588 | 56.11718 | 28020 ft | 497 kts | 20° |
| 2026-05-05 08:45 | 24.64797 | 56.13020 | 27443 ft | 487 kts | 13° |
| 2026-05-05 08:45 | 24.68079 | 56.13777 | 26825 ft | 479 kts | 5° |
| 2026-05-05 08:45 | 24.71364 | 56.14266 | 26203 ft | 474 kts | 5° |
| 2026-05-05 08:46 | 24.74610 | 56.14800 | 25588 ft | 467 kts | 5° |
| 2026-05-05 08:46 | 24.77830 | 56.15000 | 24897 ft | 461 kts | 354° |
| 2026-05-05 08:46 | 24.80947 | 56.14524 | 24744 ft | 443 kts | 345° |
| 2026-05-05 08:46 | 24.83844 | 56.13603 | 24651 ft | 425 kts | 335° |
| 2026-05-05 08:47 | 24.86478 | 56.12280 | 24572 ft | 408 kts | 332° |
| 2026-05-05 08:47 | 24.89000 | 56.10965 | 24485 ft | 395 kts | 332° |
| 2026-05-05 08:47 | 24.91456 | 56.09716 | 24413 ft | 382 kts | 333° |
| 2026-05-05 08:47 | 24.93836 | 56.08527 | 24340 ft | 370 kts | 333° |
| 2026-05-05 08:48 | 24.96140 | 56.07377 | 24271 ft | 356 kts | 331° |
| 2026-05-05 08:48 | 24.98149 | 56.05919 | 24118 ft | 339 kts | 313° |
| 2026-05-05 08:48 | 24.99704 | 56.04026 | 23947 ft | 329 kts | 309° |
| 2026-05-05 08:48 | 25.01192 | 56.02144 | 23703 ft | 323 kts | 309° |
| 2026-05-05 08:49 | 25.02684 | 56.00297 | 23346 ft | 322 kts | 310° |
| 2026-05-05 08:49 | 25.04185 | 55.98463 | 22896 ft | 322 kts | 310° |
| 2026-05-05 08:49 | 25.05685 | 55.96640 | 22485 ft | 320 kts | 310° |
| 2026-05-05 08:49 | 25.07176 | 55.94824 | 22117 ft | 318 kts | 310° |
| 2026-05-05 08:50 | 25.08650 | 55.93017 | 21754 ft | 316 kts | 310° |
| 2026-05-05 08:50 | 25.10114 | 55.91217 | 21366 ft | 314 kts | 310° |
| 2026-05-05 08:50 | 25.11549 | 55.89455 | 21006 ft | 313 kts | 310° |
| 2026-05-05 08:50 | 25.13000 | 55.87673 | 20638 ft | 311 kts | 310° |
| 2026-05-05 08:51 | 25.14439 | 55.85906 | 20300 ft | 309 kts | 310° |
| 2026-05-05 08:51 | 25.15852 | 55.84133 | 19944 ft | 306 kts | 306° |
| 2026-05-05 08:51 | 25.17029 | 55.82188 | 19576 ft | 304 kts | 300° |
| 2026-05-05 08:51 | 25.18098 | 55.80180 | 19242 ft | 303 kts | 299° |
| 2026-05-05 08:52 | 25.19167 | 55.78186 | 18903 ft | 301 kts | 299° |
| 2026-05-05 08:52 | 25.20243 | 55.76202 | 18530 ft | 301 kts | 300° |
| 2026-05-05 08:52 | 25.21328 | 55.74234 | 18162 ft | 297 kts | 300° |
| 2026-05-05 08:52 | 25.22400 | 55.72302 | 17625 ft | 294 kts | 300° |
| 2026-05-05 08:53 | 25.23473 | 55.70377 | 16969 ft | 296 kts | 301° |
| 2026-05-05 08:53 | 25.24562 | 55.68429 | 16528 ft | 298 kts | 301° |
| 2026-05-05 08:53 | 25.25642 | 55.66496 | 16258 ft | 293 kts | 301° |
| 2026-05-05 08:53 | 25.26707 | 55.64589 | 15942 ft | 291 kts | 301° |
| 2026-05-05 08:54 | 25.27765 | 55.62691 | 15588 ft | 290 kts | 301° |
| 2026-05-05 08:54 | 25.28628 | 55.60710 | 15128 ft | 287 kts | 282° |
| 2026-05-05 08:54 | 25.28635 | 55.58512 | 14684 ft | 289 kts | 256° |
| 2026-05-05 08:54 | 25.27801 | 55.56507 | 14357 ft | 289 kts | 235° |
| 2026-05-05 08:55 | 25.26373 | 55.54974 | 13996 ft | 289 kts | 209° |
| 2026-05-05 08:55 | 25.24431 | 55.54476 | 13595 ft | 292 kts | 175° |
| 2026-05-05 08:55 | 25.22546 | 55.55249 | 13155 ft | 294 kts | 141° |
| 2026-05-05 08:55 | 25.21343 | 55.57038 | 12722 ft | 293 kts | 107° |
| 2026-05-05 08:56 | 25.20884 | 55.59187 | 12343 ft | 284 kts | 110° |
| 2026-05-05 08:56 | 25.19936 | 55.61101 | 11889 ft | 285 kts | 124° |
| 2026-05-05 08:56 | 25.18836 | 55.62911 | 11605 ft | 282 kts | 122° |
| 2026-05-05 08:56 | 25.17800 | 55.64727 | 11371 ft | 277 kts | 121° |
| 2026-05-05 08:57 | 25.16793 | 55.66529 | 11095 ft | 275 kts | 121° |
| 2026-05-05 08:57 | 25.15796 | 55.68321 | 10815 ft | 272 kts | 121° |
| 2026-05-05 08:57 | 25.14805 | 55.70100 | 10519 ft | 272 kts | 121° |
| 2026-05-05 08:57 | 25.13818 | 55.71869 | 10241 ft | 269 kts | 121° |
| 2026-05-05 08:58 | 25.12852 | 55.73601 | 9959 ft | 268 kts | 121° |
| 2026-05-05 08:58 | 25.11880 | 55.75342 | 9681 ft | 266 kts | 121° |
| 2026-05-05 08:58 | 25.10912 | 55.77074 | 9361 ft | 264 kts | 121° |
| 2026-05-05 08:58 | 25.09947 | 55.78800 | 8988 ft | 266 kts | 121° |
| 2026-05-05 08:59 | 25.08978 | 55.80533 | 8690 ft | 264 kts | 122° |
| 2026-05-05 08:59 | 25.08015 | 55.82253 | 8358 ft | 264 kts | 122° |
| 2026-05-05 08:59 | 25.06907 | 55.83831 | 7947 ft | 263 kts | 142° |
| 2026-05-05 08:59 | 25.05236 | 55.84652 | 7660 ft | 261 kts | 171° |
| 2026-05-05 09:00 | 25.03470 | 55.84598 | 7456 ft | 257 kts | 191° |
| 2026-05-05 09:00 | 25.01860 | 55.83781 | 7085 ft | 260 kts | 222° |
| 2026-05-05 09:00 | 25.00976 | 55.82050 | 6721 ft | 266 kts | 259° |
| 2026-05-05 09:00 | 25.01134 | 55.80042 | 6421 ft | 266 kts | 290° |
| 2026-05-05 09:01 | 25.01994 | 55.78250 | 6114 ft | 264 kts | 302° |
| 2026-05-05 09:01 | 25.02989 | 55.76541 | 5868 ft | 262 kts | 303° |
| 2026-05-05 09:01 | 25.03949 | 55.74888 | 5793 ft | 250 kts | 303° |
| 2026-05-05 09:01 | 25.04854 | 55.73297 | 5696 ft | 239 kts | 302° |
| 2026-05-05 09:02 | 25.05715 | 55.71752 | 5423 ft | 236 kts | 303° |
| 2026-05-05 09:02 | 25.06572 | 55.70216 | 5157 ft | 234 kts | 302° |
| 2026-05-05 09:02 | 25.07412 | 55.68702 | 4958 ft | 229 kts | 302° |
| 2026-05-05 09:02 | 25.08226 | 55.67233 | 4912 ft | 222 kts | 302° |
| 2026-05-05 09:03 | 25.09046 | 55.65758 | 4922 ft | 228 kts | 302° |
| 2026-05-05 09:03 | 25.09869 | 55.64276 | 4801 ft | 227 kts | 302° |
| 2026-05-05 09:03 | 25.10692 | 55.62792 | 4520 ft | 226 kts | 302° |
| 2026-05-05 09:03 | 25.11507 | 55.61322 | 4239 ft | 223 kts | 302° |
| 2026-05-05 09:04 | 25.12311 | 55.59872 | 3973 ft | 219 kts | 302° |
| 2026-05-05 09:04 | 25.13080 | 55.58480 | 3704 ft | 207 kts | 302° |
| 2026-05-05 09:04 | 25.13811 | 55.57161 | 3419 ft | 194 kts | 303° |
| 2026-05-05 09:04 | 25.14494 | 55.55931 | 3212 ft | 186 kts | 302° |
| 2026-05-05 09:05 | 25.15158 | 55.54729 | 2979 ft | 178 kts | 303° |
| 2026-05-05 09:05 | 25.15774 | 55.53622 | 2758 ft | 160 kts | 303° |
| 2026-05-05 09:05 | 25.16347 | 55.52587 | 2625 ft | 160 kts | 303° |
| 2026-05-05 09:05 | 25.16936 | 55.51523 | 2368 ft | 162 kts | 302° |
| 2026-05-05 09:06 | 25.17507 | 55.50490 | 2179 ft | 154 kts | 303° |
| 2026-05-05 09:06 | 25.18068 | 55.49479 | 1997 ft | 156 kts | 302° |
| 2026-05-05 09:06 | 25.18635 | 55.48454 | 1795 ft | 156 kts | 302° |
| 2026-05-05 09:06 | 25.19192 | 55.47450 | 1612 ft | 155 kts | 303° |
| 2026-05-05 09:07 | 25.19755 | 55.46428 | 1381 ft | 151 kts | 303° |
| 2026-05-05 09:07 | 25.20293 | 55.45463 | 1228 ft | 151 kts | 303° |
| 2026-05-05 09:07 | 25.20849 | 55.44455 | 1030 ft | 153 kts | 303° |
| 2026-05-05 09:07 | 25.21392 | 55.43474 | 851 ft | 146 kts | 302° |
| 2026-05-05 09:08 | 25.21924 | 55.42514 | 682 ft | 146 kts | 303° |
| 2026-05-05 09:08 | 25.22438 | 55.41580 | 481 ft | 139 kts | 302° |
| 2026-05-05 09:08 | 25.22945 | 55.40667 | 364 ft | 141 kts | 302° |
| 2026-05-05 09:08 | 25.23458 | 55.39720 | 126 ft | 143 kts | 303° |
| 2026-05-05 09:09 | 25.23952 | 55.38843 | 30 ft | 119 kts | 301° |
| 2026-05-05 09:09 | 25.24273 | 55.38260 | 31 ft | 65 kts | 301° |
| 2026-05-05 09:09 | 25.24514 | 55.37830 | 28 ft | 62 kts | 302° |
| 2026-05-05 09:09 | 25.24727 | 55.37452 | 27 ft | 54 kts | 302° |
| 2026-05-05 09:10 | 25.24904 | 55.37126 | 29 ft | 44 kts | 301° |
| 2026-05-05 09:10 | 25.24987 | 55.36962 | 29 ft | 20 kts | 292° |
| 2026-05-05 09:10 | 25.25016 | 55.36811 | 28 ft | 20 kts | 274° |
| 2026-05-05 09:10 | 25.25022 | 55.36656 | 26 ft | 20 kts | 272° |
| 2026-05-05 09:11 | 25.25030 | 55.36502 | 26 ft | 19 kts | 276° |
| 2026-05-05 09:11 | 25.25067 | 55.36361 | 32 ft | 19 kts | 295° |
| 2026-05-05 09:11 | 25.25135 | 55.36233 | 26 ft | 19 kts | 303° |
| 2026-05-05 09:11 | 25.25206 | 55.36108 | 26 ft | 19 kts | 302° |
| 2026-05-05 09:12 | 25.25278 | 55.35983 | 29 ft | 19 kts | 302° |
| 2026-05-05 09:12 | 25.25347 | 55.35857 | 29 ft | 18 kts | 301° |
| 2026-05-05 09:12 | 25.25409 | 55.35748 | 29 ft | 16 kts | 302° |
| 2026-05-05 09:12 | 25.25454 | 55.35667 | 31 ft | 10 kts | 302° |
| 2026-05-05 09:13 | 25.25471 | 55.35612 | 29 ft | 8 kts | 262° |
| 2026-05-05 09:13 | 25.25434 | 55.35574 | 28 ft | 7 kts | 215° |
| 2026-05-05 09:13 | 25.25392 | 55.35544 | 29 ft | 7 kts | 211° |
| 2026-05-05 09:13 | 25.25352 | 55.35518 | 30 ft | 6 kts | 211° |
| 2026-05-05 09:14 | 25.25331 | 55.35504 | 29 ft | 2 kts | 211° |
| 2026-05-05 09:14 | 25.25326 | 55.35500 | 29 ft | 0 kts | 211° |